Darstellungsparameter: Aktuell verwendete Einstellungen:
Skalierung der Graphiken ... ?
xyx+y,   Skalierungsfaktor:      Skalierung: Modus: x, Faktor: 1
Darstellungszeitraum ... ?
Vom - - bis: - -   Zeitraum: 06.02.2009 - 05.08.2009
Min/Max/Avg-Anzeige ... ?
Zeige MMA aktuell
Zeige MMA Monat
Zeige MMA alles
Zeige --A aktuell
Zeige --A Monat
Zeige --A alles
Keine MMA-Anzeige
MMA:
Keine MMA-Graphiken
MMA-Basis: 06.02.2009 - 05.08.2009
Quicknavigation für Darstellung... ?
Tage:      1T, 2T, 3T, 5T -1T -2T -3T -5T +1T +2T +3T +5T
Wochen: 1W, 2W, 3W -1W -2W -3W +1W +2W +3W
Monate: 1M, 3M, 6M -1M -3M -6M +1M +3M +6M
Jahre:    1J, 3J, 5J, 10J -1J -3J -5J -10J +1J +3J +5J +10J
Nutze für die Darstellung ... ?
Originaldaten oder Mittelwerte auf ...
Stundenbasis Tagesbasis Wochenbasis
Monatsbasis Jahresbasis      Datenbasis: Original-Daten
Darstellen als:
Statistik (Auto) Statistik J:M      Darstellung:
Zur Graphik,    zurück zur Übersicht aller Sensoren.
 
Tabellarische Datenbersicht: ?
 
Sensor: Nr:Datum:Temp:Feuchte:Taupunkt:
Aussen-T/F 1 06-02-2009 00:04:40 3.3 C 81 % 0.36 C
2 06-02-2009 00:16:39 3 C 81 % 0.07 C
3 06-02-2009 00:28:39 2.4 C 82 % -0.35 C
4 06-02-2009 00:40:39 2.3 C 82 % -0.45 C
5 06-02-2009 00:52:39 2.1 C 83 % -0.48 C
6 06-02-2009 01:04:38 2 C 83 % -0.58 C
7 06-02-2009 01:16:39 1.9 C 84 % -0.51 C
8 06-02-2009 01:28:39 1.9 C 85 % -0.35 C
9 06-02-2009 01:40:38 1.7 C 85 % -0.54 C
10 06-02-2009 01:52:38 1.6 C 85 % -0.64 C
11 06-02-2009 02:04:39 1.5 C 85 % -0.74 C
12 06-02-2009 02:16:38 1.5 C 85 % -0.74 C
13 06-02-2009 02:28:38 1.4 C 85 % -0.84 C
14 06-02-2009 02:40:38 1.4 C 86 % -0.68 C
15 06-02-2009 02:53:40 1.3 C 86 % -0.78 C
16 06-02-2009 03:05:40 1.2 C 86 % -0.88 C
17 06-02-2009 03:17:40 1.3 C 86 % -0.78 C
18 06-02-2009 03:29:39 1.3 C 86 % -0.78 C
19 06-02-2009 03:41:39 1.4 C 87 % -0.52 C
20 06-02-2009 03:53:39 1.7 C 87 % -0.23 C
21 06-02-2009 04:05:39 1.6 C 87 % -0.32 C
22 06-02-2009 04:17:39 1.6 C 86 % -0.48 C
23 06-02-2009 04:29:39 1.6 C 86 % -0.48 C
24 06-02-2009 04:41:39 1.7 C 86 % -0.38 C
25 06-02-2009 04:53:38 1.8 C 86 % -0.29 C
Sensor: Nr:Datum:Temp:Feuchte:Taupunkt:
Aussen-T/F 26 06-02-2009 05:05:38 1.7 C 86 % -0.38 C
27 06-02-2009 05:17:39 1.6 C 86 % -0.48 C
28 06-02-2009 05:29:38 1.6 C 86 % -0.48 C
29 06-02-2009 05:41:38 1.5 C 86 % -0.58 C
30 06-02-2009 05:53:38 1.5 C 86 % -0.58 C
31 06-02-2009 06:05:38 1.1 C 86 % -0.97 C
32 06-02-2009 06:17:38 0.9 C 87 % -1.01 C
33 06-02-2009 06:29:37 0.9 C 87 % -1.01 C
34 06-02-2009 06:41:37 0.8 C 88 % -0.96 C
35 06-02-2009 06:53:38 0.8 C 88 % -0.96 C
36 06-02-2009 07:05:37 1 C 88 % -0.76 C
37 06-02-2009 07:17:37 0.7 C 89 % -0.9 C
38 06-02-2009 07:29:37 1 C 89 % -0.6 C
39 06-02-2009 07:41:37 1 C 90 % -0.45 C
40 06-02-2009 07:53:37 1 C 90 % -0.45 C
41 06-02-2009 08:05:36 1 C 90 % -0.45 C
42 06-02-2009 08:17:37 0.9 C 91 % -0.4 C
43 06-02-2009 08:29:37 0.7 C 90 % -0.75 C
44 06-02-2009 08:41:37 0.9 C 90 % -0.55 C
45 06-02-2009 08:53:36 1.1 C 90 % -0.35 C
46 06-02-2009 09:05:37 1 C 90 % -0.45 C
47 06-02-2009 09:17:36 1.1 C 90 % -0.35 C
48 06-02-2009 09:29:36 1 C 90 % -0.45 C
49 06-02-2009 09:41:36 1 C 91 % -0.3 C
50 06-02-2009 09:53:36 1.2 C 91 % -0.1 C
Sensor: Nr:Datum:Temp:Feuchte:Taupunkt:
Aussen-T/F 51 06-02-2009 10:05:36 1.6 C 91 % 0.29 C
52 06-02-2009 10:17:35 2 C 91 % 0.69 C
53 06-02-2009 10:29:35 2.2 C 91 % 0.89 C
54 06-02-2009 10:41:35 2.6 C 91 % 1.28 C
55 06-02-2009 10:53:35 3.1 C 91 % 1.78 C
56 06-02-2009 11:05:35 3.7 C 91 % 2.37 C
57 06-02-2009 11:17:35 4.3 C 90 % 2.81 C
58 06-02-2009 11:29:34 4.7 C 89 % 3.05 C
59 06-02-2009 11:41:34 5.2 C 88 % 3.38 C
60 06-02-2009 11:53:35 5 C 84 % 2.53 C
61 06-02-2009 12:05:34 5.2 C 81 % 2.21 C
62 06-02-2009 12:17:34 5.8 C 81 % 2.8 C
63 06-02-2009 12:29:34 6.4 C 79 % 3.03 C
64 06-02-2009 12:41:34 6.6 C 74 % 2.31 C
65 06-02-2009 12:53:34 7.1 C 72 % 2.4 C
66 06-02-2009 13:05:33 7.7 C 70 % 2.58 C
67 06-02-2009 13:17:38 7.9 C 65 % 1.74 C
68 06-02-2009 13:29:34 7.9 C 63 % 1.3 C
69 06-02-2009 13:41:34 7.9 C 63 % 1.3 C
70 06-02-2009 13:53:33 8.3 C 61 % 1.23 C
71 06-02-2009 14:05:33 9.1 C 60 % 1.76 C
72 06-02-2009 14:17:33 9.2 C 57 % 1.14 C
73 06-02-2009 14:29:33 9.2 C 56 % 0.89 C
74 06-02-2009 14:41:33 9 C 57 % 0.95 C
75 06-02-2009 14:53:33 9.1 C 56 % 0.8 C
Sensor: Nr:Datum:Temp:Feuchte:Taupunkt:
Aussen-T/F 76 06-02-2009 15:05:33 9 C 56 % 0.71 C
77 06-02-2009 15:17:32 9 C 56 % 0.71 C
78 06-02-2009 15:29:32 8.9 C 57 % 0.86 C
79 06-02-2009 15:41:32 8.7 C 57 % 0.67 C
80 06-02-2009 15:53:32 8.4 C 58 % 0.63 C
81 06-02-2009 16:05:33 8.1 C 59 % 0.58 C
82 06-02-2009 16:17:32 7.9 C 61 % 0.86 C
83 06-02-2009 16:29:32 7.8 C 61 % 0.76 C
84 06-02-2009 16:41:32 7.7 C 62 % 0.89 C
85 06-02-2009 16:53:31 7.6 C 62 % 0.8 C
86 06-02-2009 17:05:32 7.5 C 63 % 0.92 C
87 06-02-2009 17:17:31 7.3 C 63 % 0.74 C
88 06-02-2009 17:29:31 7.1 C 64 % 0.76 C
89 06-02-2009 17:41:31 7 C 64 % 0.67 C
90 06-02-2009 17:53:31 6.9 C 66 % 1 C
91 06-02-2009 18:05:31 6.9 C 66 % 1 C
92 06-02-2009 18:17:31 6.7 C 67 % 1.02 C
93 06-02-2009 18:29:31 6.6 C 67 % 0.92 C
94 06-02-2009 18:41:31 6.4 C 68 % 0.94 C
95 06-02-2009 18:53:31 6.3 C 68 % 0.84 C
96 06-02-2009 19:05:30 6.3 C 69 % 1.04 C
97 06-02-2009 19:17:31 6.2 C 70 % 1.15 C
98 06-02-2009 19:29:30 6.1 C 70 % 1.05 C
99 06-02-2009 19:41:30 6.2 C 71 % 1.34 C
100 06-02-2009 19:53:30 6.2 C 71 % 1.34 C
Sensor: Nr:Datum:Temp:Feuchte:Taupunkt:
Aussen-T/F 101 06-02-2009 20:05:29 6.1 C 71 % 1.25 C
102 06-02-2009 20:17:30 6 C 71 % 1.15 C
103 06-02-2009 20:29:30 5.9 C 72 % 1.25 C
104 06-02-2009 20:41:30 5.8 C 73 % 1.34 C
105 06-02-2009 20:53:29 5.9 C 73 % 1.44 C
106 06-02-2009 21:05:29 5.9 C 73 % 1.44 C
107 06-02-2009 21:17:29 5.9 C 74 % 1.63 C
108 06-02-2009 21:29:29 5.9 C 73 % 1.44 C
109 06-02-2009 21:41:29 5.8 C 73 % 1.34 C
110 06-02-2009 21:53:29 5.9 C 74 % 1.63 C
111 06-02-2009 22:05:29 5.6 C 74 % 1.34 C
112 06-02-2009 22:17:28 5.6 C 74 % 1.34 C
113 06-02-2009 22:29:29 5.6 C 75 % 1.53 C
114 06-02-2009 22:41:29 5.4 C 75 % 1.33 C
115 06-02-2009 22:54:28 5.3 C 76 % 1.42 C
116 06-02-2009 23:06:28 5 C 76 % 1.13 C
117 06-02-2009 23:18:28 4.9 C 77 % 1.22 C
118 06-02-2009 23:30:28 4.8 C 78 % 1.3 C
119 06-02-2009 23:42:28 4.8 C 78 % 1.3 C
120 06-02-2009 23:54:28 4.8 C 79 % 1.47 C
121 07-02-2009 00:06:28 4.9 C 79 % 1.57 C
122 07-02-2009 00:18:28 5 C 78 % 1.49 C
123 07-02-2009 00:30:28 5 C 77 % 1.31 C
124 07-02-2009 00:42:28 5.1 C 77 % 1.41 C
125 07-02-2009 00:54:28 5 C 77 % 1.31 C
Sensor: Nr:Datum:Temp:Feuchte:Taupunkt:
Aussen-T/F 126 07-02-2009 01:06:28 5 C 77 % 1.31 C
127 07-02-2009 01:18:28 4.9 C 78 % 1.39 C
128 07-02-2009 01:30:28 4.8 C 77 % 1.12 C
129 07-02-2009 01:42:29 4.7 C 77 % 1.02 C
130 07-02-2009 01:54:29 4.7 C 78 % 1.2 C
131 07-02-2009 02:06:29 4.8 C 78 % 1.3 C
132 07-02-2009 02:18:29 4.8 C 78 % 1.3 C
133 07-02-2009 02:30:29 4.8 C 78 % 1.3 C
134 07-02-2009 02:42:29 4.7 C 78 % 1.2 C
135 07-02-2009 02:54:29 4.6 C 78 % 1.1 C
136 07-02-2009 03:06:29 4.6 C 78 % 1.1 C
137 07-02-2009 03:18:29 4.5 C 79 % 1.18 C
138 07-02-2009 03:30:29 4.4 C 79 % 1.09 C
139 07-02-2009 03:42:29 4.4 C 79 % 1.09 C
140 07-02-2009 03:54:29 4.3 C 79 % 0.99 C
141 07-02-2009 04:06:29 4.3 C 79 % 0.99 C
142 07-02-2009 04:18:29 4.3 C 79 % 0.99 C
143 07-02-2009 04:30:29 4.2 C 79 % 0.89 C
144 07-02-2009 04:42:29 4.1 C 79 % 0.79 C
145 07-02-2009 04:54:29 4.1 C 79 % 0.79 C
146 07-02-2009 05:06:29 4.1 C 79 % 0.79 C
147 07-02-2009 05:18:29 4 C 79 % 0.7 C
148 07-02-2009 05:30:29 3.9 C 80 % 0.77 C
149 07-02-2009 05:42:30 3.9 C 80 % 0.77 C
150 07-02-2009 05:54:30 3.8 C 80 % 0.68 C
Sensor: Nr:Datum:Temp:Feuchte:Taupunkt:
Aussen-T/F 151 07-02-2009 06:06:30 3.8 C 80 % 0.68 C
152 07-02-2009 06:18:30 3.7 C 80 % 0.58 C
153 07-02-2009 06:30:30 3.6 C 80 % 0.48 C
154 07-02-2009 06:42:30 3.7 C 81 % 0.75 C
155 07-02-2009 06:54:30 3.6 C 81 % 0.65 C
156 07-02-2009 07:06:30 3.6 C 81 % 0.65 C
157 07-02-2009 07:18:28 3.7 C 81 % 0.75 C
158 07-02-2009 07:30:29 3.7 C 81 % 0.75 C
159 07-02-2009 07:42:30 3.7 C 81 % 0.75 C
160 07-02-2009 07:54:28 3.6 C 81 % 0.65 C
161 07-02-2009 08:06:28 3.6 C 81 % 0.65 C
162 07-02-2009 08:18:28 3.5 C 82 % 0.72 C
163 07-02-2009 08:30:28 3.5 C 82 % 0.72 C
164 07-02-2009 08:42:28 3.5 C 83 % 0.89 C
165 07-02-2009 08:54:28 3.6 C 84 % 1.16 C
166 07-02-2009 09:06:28 3.6 C 84 % 1.16 C
167 07-02-2009 09:18:27 3.7 C 86 % 1.58 C
168 07-02-2009 09:30:27 3.8 C 87 % 1.84 C
169 07-02-2009 09:42:28 3.8 C 88 % 2 C
170 07-02-2009 09:54:27 3.6 C 88 % 1.8 C
171 07-02-2009 10:06:27 3.8 C 89 % 2.16 C
172 07-02-2009 10:18:26 4 C 89 % 2.36 C
173 07-02-2009 10:30:27 4.2 C 89 % 2.55 C
174 07-02-2009 10:42:27 4.2 C 89 % 2.55 C
175 07-02-2009 10:54:26 4.3 C 89 % 2.65 C
Sensor: Nr:Datum:Temp:Feuchte:Taupunkt:
Aussen-T/F 176 07-02-2009 11:06:26 4.2 C 89 % 2.55 C
177 07-02-2009 11:18:27 4.5 C 89 % 2.85 C
178 07-02-2009 11:30:26 4.6 C 89 % 2.95 C
179 07-02-2009 11:42:26 4.6 C 89 % 2.95 C
180 07-02-2009 11:54:26 4.7 C 89 % 3.05 C
181 07-02-2009 12:06:26 4.8 C 89 % 3.14 C
182 07-02-2009 12:18:26 4.8 C 89 % 3.14 C
183 07-02-2009 12:30:25 4.8 C 89 % 3.14 C
184 07-02-2009 12:42:25 4.9 C 89 % 3.24 C
185 07-02-2009 12:54:26 5 C 88 % 3.18 C
186 07-02-2009 13:06:25 5 C 88 % 3.18 C
187 07-02-2009 13:18:25 5 C 89 % 3.34 C
188 07-02-2009 13:30:25 5 C 89 % 3.34 C
189 07-02-2009 13:42:25 5 C 89 % 3.34 C
190 07-02-2009 13:54:01 5.3 C 90 % 3.8 C
191 07-02-2009 14:06:01 5.4 C 90 % 3.89 C
192 07-02-2009 14:18:01 5.8 C 90 % 4.29 C
193 07-02-2009 14:30:01 5.7 C 90 % 4.19 C
194 07-02-2009 14:42:00 5.6 C 89 % 3.93 C
195 07-02-2009 14:54:01 5.8 C 89 % 4.13 C
196 07-02-2009 15:06:01 5.7 C 88 % 3.87 C
197 07-02-2009 15:18:00 5.4 C 87 % 3.41 C
198 07-02-2009 15:30:00 5.1 C 86 % 2.96 C
199 07-02-2009 15:42:00 4.6 C 87 % 2.63 C
200 07-02-2009 15:54:00 4.4 C 87 % 2.43 C
Sensor: Nr:Datum:Temp:Feuchte:Taupunkt:
Aussen-T/F 201 07-02-2009 16:06:00 4.3 C 87 % 2.33 C
202 07-02-2009 16:18:59 4.2 C 87 % 2.23 C
203 07-02-2009 16:30:00 4.2 C 87 % 2.23 C
204 07-02-2009 16:42:00 4.1 C 86 % 1.97 C
205 07-02-2009 16:54:59 4 C 85 % 1.71 C
206 07-02-2009 17:06:59 3.9 C 86 % 1.78 C
207 07-02-2009 17:18:00 3.7 C 86 % 1.58 C
208 07-02-2009 17:30:00 3.6 C 86 % 1.48 C
209 07-02-2009 17:42:59 3.6 C 87 % 1.64 C
210 07-02-2009 17:54:59 3.4 C 86 % 1.29 C
211 07-02-2009 18:06:59 3.4 C 86 % 1.29 C
212 07-02-2009 18:18:59 3.3 C 86 % 1.19 C
213 07-02-2009 18:30:58 3.2 C 86 % 1.09 C
214 07-02-2009 18:42:58 3.3 C 86 % 1.19 C
215 07-02-2009 18:54:59 3.1 C 85 % 0.83 C
216 07-02-2009 19:06:58 3 C 86 % 0.89 C
217 07-02-2009 19:18:58 3.1 C 86 % 0.99 C
218 07-02-2009 19:30:58 3 C 85 % 0.73 C
219 07-02-2009 19:42:58 3 C 85 % 0.73 C
220 07-02-2009 19:54:58 3.1 C 84 % 0.67 C
221 07-02-2009 20:06:58 3.1 C 83 % 0.5 C
222 07-02-2009 20:18:57 3.1 C 83 % 0.5 C
223 07-02-2009 20:30:58 3 C 82 % 0.24 C
224 07-02-2009 20:42:58 3 C 81 % 0.07 C
225 07-02-2009 20:54:57 3 C 80 % -0.1 C
Sensor: Nr:Datum:Temp:Feuchte:Taupunkt:
Aussen-T/F 226 07-02-2009 21:06:57 3 C 80 % -0.1 C
227 07-02-2009 21:18:56 3 C 79 % -0.28 C
228 07-02-2009 21:30:57 3.1 C 78 % -0.35 C
229 07-02-2009 21:42:57 3.1 C 77 % -0.53 C
230 07-02-2009 21:54:56 3.1 C 77 % -0.53 C
231 07-02-2009 22:07:57 3.1 C 76 % -0.71 C
232 07-02-2009 22:19:57 3.1 C 75 % -0.89 C
233 07-02-2009 22:31:57 3 C 75 % -0.99 C
234 07-02-2009 22:43:58 3 C 74 % -1.17 C
235 07-02-2009 22:55:58 2.9 C 74 % -1.27 C
236 07-02-2009 23:07:58 2.8 C 74 % -1.36 C
237 07-02-2009 23:19:58 2.7 C 74 % -1.46 C
238 07-02-2009 23:31:58 2.5 C 74 % -1.65 C
239 07-02-2009 23:43:58 2.7 C 74 % -1.46 C
240 07-02-2009 23:55:58 2.5 C 72 % -2.02 C
241 08-02-2009 00:07:58 2.3 C 73 % -2.03 C
242 08-02-2009 00:19:58 2.3 C 74 % -1.85 C
243 08-02-2009 00:31:58 2 C 74 % -2.13 C
244 08-02-2009 00:43:58 1.8 C 75 % -2.15 C
245 08-02-2009 00:55:58 1.7 C 74 % -2.42 C
246 08-02-2009 01:07:58 1.7 C 74 % -2.42 C
247 08-02-2009 01:19:58 1.6 C 74 % -2.52 C
248 08-02-2009 01:31:58 1.8 C 73 % -2.51 C
249 08-02-2009 01:43:58 1.9 C 72 % -2.6 C
250 08-02-2009 01:55:58 1.9 C 72 % -2.6 C
Sensor: Nr:Datum:Temp:Feuchte:Taupunkt:
Aussen-T/F 251 08-02-2009 02:07:58 2 C 71 % -2.69 C
252 08-02-2009 02:19:58 2 C 71 % -2.69 C
253 08-02-2009 02:31:58 1.9 C 72 % -2.6 C
254 08-02-2009 02:43:58 1.8 C 72 % -2.7 C
255 08-02-2009 02:55:59 1.8 C 73 % -2.51 C
256 08-02-2009 03:07:59 1.8 C 71 % -2.88 C
257 08-02-2009 03:19:59 1.7 C 71 % -2.98 C
258 08-02-2009 03:31:59 1.6 C 71 % -3.08 C
259 08-02-2009 03:43:59 1.7 C 71 % -2.98 C
260 08-02-2009 03:55:59 1.7 C 71 % -2.98 C
261 08-02-2009 04:07:59 1.7 C 70 % -3.17 C
262 08-02-2009 04:19:59 1.7 C 70 % -3.17 C
263 08-02-2009 04:31:59 1.7 C 70 % -3.17 C
264 08-02-2009 04:43:59 1.7 C 70 % -3.17 C
265 08-02-2009 04:55:59 1.7 C 70 % -3.17 C
266 08-02-2009 05:07:59 1.7 C 70 % -3.17 C
267 08-02-2009 05:19:59 1.7 C 70 % -3.17 C
268 08-02-2009 05:31:59 1.7 C 69 % -3.36 C
269 08-02-2009 05:43:59 1.6 C 69 % -3.46 C
270 08-02-2009 05:55:59 1.5 C 69 % -3.55 C
271 08-02-2009 06:07:59 1.4 C 69 % -3.65 C
272 08-02-2009 06:19:59 1.4 C 70 % -3.46 C
273 08-02-2009 06:31:59 1.3 C 70 % -3.55 C
274 08-02-2009 06:43:59 1.3 C 70 % -3.55 C
275 08-02-2009 06:56:00 1.3 C 68 % -3.94 C
Sensor: Nr:Datum:Temp:Feuchte:Taupunkt:
Aussen-T/F 276 08-02-2009 07:08:00 1.5 C 64 % -4.55 C
277 08-02-2009 07:19:57 1.3 C 64 % -4.74 C
278 08-02-2009 07:31:57 1.3 C 64 % -4.74 C
279 08-02-2009 07:43:58 1.4 C 63 % -4.86 C
280 08-02-2009 07:55:56 1.4 C 63 % -4.86 C
281 08-02-2009 08:07:57 1.5 C 63 % -4.76 C
282 08-02-2009 08:19:56 1.6 C 62 % -4.88 C
283 08-02-2009 08:31:56 1.7 C 61 % -5 C
284 08-02-2009 08:43:56 1.7 C 63 % -4.57 C
285 08-02-2009 08:55:56 1.8 C 62 % -4.69 C
286 08-02-2009 09:07:56 1.9 C 61 % -4.81 C
287 08-02-2009 09:19:55 2 C 60 % -4.93 C
288 08-02-2009 09:31:55 2.1 C 59 % -5.06 C
289 08-02-2009 09:43:55 2.1 C 59 % -5.06 C
290 08-02-2009 09:55:55 2.2 C 59 % -4.96 C
291 08-02-2009 10:07:55 2.3 C 60 % -4.65 C
292 08-02-2009 10:19:55 2.5 C 58 % -4.91 C
293 08-02-2009 10:31:55 2.7 C 57 % -4.95 C
294 08-02-2009 10:43:55 2.9 C 56 % -4.99 C
295 08-02-2009 10:55:55 3.3 C 54 % -5.1 C
296 08-02-2009 11:07:54 3.4 C 53 % -5.25 C
297 08-02-2009 11:19:55 3.4 C 54 % -5.01 C
298 08-02-2009 11:31:54 3.6 C 54 % -4.82 C
299 08-02-2009 11:43:54 3.8 C 53 % -4.88 C
300 08-02-2009 11:55:54 4 C 51 % -5.2 C
Sensor: Nr:Datum:Temp:Feuchte:Taupunkt:
Aussen-T/F 301 08-02-2009 12:07:55 4.1 C 50 % -5.37 C
302 08-02-2009 12:19:54 4.3 C 49 % -5.45 C
303 08-02-2009 12:31:53 4.3 C 46 % -6.28 C
304 08-02-2009 12:43:53 4.4 C 46 % -6.18 C
305 08-02-2009 12:55:54 4.4 C 47 % -5.9 C
306 08-02-2009 13:07:53 4.5 C 46 % -6.09 C
307 08-02-2009 13:19:53 4.5 C 47 % -5.81 C
308 08-02-2009 13:31:54 4.6 C 48 % -5.45 C
309 08-02-2009 13:43:54 4.5 C 47 % -5.81 C
310 08-02-2009 13:55:53 4.5 C 46 % -6.09 C
311 08-02-2009 14:07:53 4.8 C 46 % -5.82 C
312 08-02-2009 14:19:53 5.3 C 44 % -5.94 C
313 08-02-2009 14:31:53 5.6 C 42 % -6.28 C
314 08-02-2009 14:43:54 5.7 C 39 % -7.15 C
315 08-02-2009 14:55:52 5.1 C 40 % -7.36 C
316 08-02-2009 15:07:52 4.7 C 43 % -6.79 C
317 08-02-2009 15:19:52 4.7 C 43 % -6.79 C
318 08-02-2009 15:31:52 4.7 C 43 % -6.79 C
319 08-02-2009 15:43:52 4.5 C 42 % -7.27 C
320 08-02-2009 15:55:51 4.4 C 45 % -6.47 C
321 08-02-2009 16:07:52 4.1 C 47 % -6.18 C
322 08-02-2009 16:19:52 4 C 48 % -6 C
323 08-02-2009 16:31:51 3.8 C 49 % -5.91 C
324 08-02-2009 16:43:51 3.8 C 50 % -5.65 C
325 08-02-2009 16:55:52 3.7 C 50 % -5.74 C
Sensor: Nr:Datum:Temp:Feuchte:Taupunkt:
Aussen-T/F 326 08-02-2009 17:07:51 3.6 C 46 % -6.92 C
327 08-02-2009 17:19:51 3.5 C 44 % -7.58 C
328 08-02-2009 17:31:51 3.4 C 43 % -7.97 C
329 08-02-2009 17:43:51 3.4 C 43 % -7.97 C
330 08-02-2009 17:55:51 3.2 C 43 % -8.15 C
331 08-02-2009 18:07:51 3.2 C 44 % -7.85 C
332 08-02-2009 18:19:50 3.1 C 43 % -8.24 C
333 08-02-2009 18:31:51 3 C 43 % -8.33 C
334 08-02-2009 18:43:51 2.9 C 44 % -8.13 C
335 08-02-2009 18:55:50 2.8 C 44 % -8.22 C
336 08-02-2009 19:07:50 2.6 C 45 % -8.11 C
337 08-02-2009 19:19:49 2.3 C 46 % -8.11 C
338 08-02-2009 19:31:50 2.1 C 47 % -8.01 C
339 08-02-2009 19:43:50 2.1 C 47 % -8.01 C
340 08-02-2009 19:55:49 2.1 C 49 % -7.48 C
341 08-02-2009 20:07:50 2.1 C 49 % -7.48 C
342 08-02-2009 20:19:49 2.3 C 48 % -7.56 C
343 08-02-2009 20:31:49 2.2 C 48 % -7.65 C
344 08-02-2009 20:43:49 2.2 C 49 % -7.39 C
345 08-02-2009 20:55:49 2.1 C 50 % -7.22 C
346 08-02-2009 21:07:49 2.2 C 50 % -7.12 C
347 08-02-2009 21:19:49 2.2 C 50 % -7.12 C
348 08-02-2009 21:31:49 2.3 C 50 % -7.03 C
349 08-02-2009 21:43:49 2.2 C 50 % -7.12 C
350 08-02-2009 21:55:48 2.1 C 51 % -6.96 C
Sensor: Nr:Datum:Temp:Feuchte:Taupunkt:
Aussen-T/F 351 08-02-2009 22:07:49 2.2 C 52 % -6.62 C
352 08-02-2009 22:20:49 2.2 C 53 % -6.37 C
353 08-02-2009 22:32:49 2.3 C 53 % -6.28 C
354 08-02-2009 22:44:49 2.3 C 54 % -6.03 C
355 08-02-2009 22:56:49 2.2 C 55 % -5.89 C
356 08-02-2009 23:08:49 2.2 C 55 % -5.89 C
357 08-02-2009 23:20:49 2.1 C 56 % -5.74 C
358 08-02-2009 23:32:50 2.2 C 56 % -5.65 C
359 08-02-2009 23:44:50 2.3 C 56 % -5.56 C
360 08-02-2009 23:56:50 2.3 C 56 % -5.56 C
361 09-02-2009 00:08:50 2.4 C 56 % -5.46 C
362 09-02-2009 00:20:50 2.4 C 56 % -5.46 C
363 09-02-2009 00:32:50 2.3 C 57 % -5.32 C
364 09-02-2009 00:44:50 2.3 C 57 % -5.32 C
365 09-02-2009 00:56:50 2.3 C 57 % -5.32 C
366 09-02-2009 01:08:50 2.3 C 57 % -5.32 C
367 09-02-2009 01:20:50 2.3 C 57 % -5.32 C
368 09-02-2009 01:32:50 2.2 C 57 % -5.42 C
369 09-02-2009 01:44:50 2.2 C 58 % -5.19 C
370 09-02-2009 01:56:50 2.1 C 58 % -5.28 C
371 09-02-2009 02:08:50 2.1 C 58 % -5.28 C
372 09-02-2009 02:20:50 2.2 C 58 % -5.19 C
373 09-02-2009 02:32:50 2.2 C 58 % -5.19 C
374 09-02-2009 02:44:50 2.1 C 58 % -5.28 C
375 09-02-2009 02:56:50 2.1 C 58 % -5.28 C
Sensor: Nr:Datum:Temp:Feuchte:Taupunkt:
Aussen-T/F 376 09-02-2009 03:08:50 1.8 C 60 % -5.12 C
377 09-02-2009 03:20:50 1.6 C 60 % -5.31 C
378 09-02-2009 03:32:50 1.7 C 61 % -5 C
379 09-02-2009 03:44:51 1.5 C 61 % -5.19 C
380 09-02-2009 03:56:51 1.4 C 62 % -5.07 C
381 09-02-2009 04:08:51 1.3 C 63 % -4.95 C
382 09-02-2009 04:20:51 1.1 C 64 % -4.93 C
383 09-02-2009 04:32:51 0.9 C 65 % -4.92 C
384 09-02-2009 04:44:51 0.4 C 66 % -5.19 C
385 09-02-2009 04:56:51 0 C 67 % -5.38 C
386 09-02-2009 05:08:51 0.1 C 70 % -4.71 C
387 09-02-2009 05:20:51 0.5 C 69 % -4.51 C
388 09-02-2009 05:32:51 1.2 C 63 % -5.05 C
389 09-02-2009 05:44:51 1.4 C 60 % -5.5 C
390 09-02-2009 05:56:51 1.4 C 60 % -5.5 C
391 09-02-2009 06:08:51 1.5 C 59 % -5.62 C
392 09-02-2009 06:20:51 1.7 C 59 % -5.43 C
393 09-02-2009 06:32:51 1.8 C 57 % -5.79 C
394 09-02-2009 06:44:48 1.9 C 58 % -5.47 C
395 09-02-2009 06:56:48 1.9 C 58 % -5.47 C
396 09-02-2009 07:08:49 1.8 C 59 % -5.34 C
397 09-02-2009 07:20:48 1.9 C 59 % -5.25 C
398 09-02-2009 07:32:48 2 C 58 % -5.38 C
399 09-02-2009 07:44:48 1.9 C 59 % -5.25 C
400 09-02-2009 07:56:48 1.8 C 59 % -5.34 C
Sensor: Nr:Datum:Temp:Feuchte:Taupunkt:
Aussen-T/F 401 09-02-2009 08:08:48 2 C 58 % -5.38 C
402 09-02-2009 08:20:48 2.1 C 57 % -5.51 C
403 09-02-2009 08:32:48 2.2 C 57 % -5.42 C
404 09-02-2009 08:44:48 2.3 C 57 % -5.32 C
405 09-02-2009 08:56:48 2.1 C 59 % -5.06 C
406 09-02-2009 09:08:47 1.8 C 63 % -4.48 C
407 09-02-2009 09:20:48 1.9 C 65 % -3.97 C
408 09-02-2009 09:32:47 2 C 64 % -4.08 C
409 09-02-2009 09:44:47 2.1 C 62 % -4.4 C
410 09-02-2009 09:56:47 2.2 C 62 % -4.31 C
411 09-02-2009 10:08:46 2.4 C 61 % -4.34 C
412 09-02-2009 10:20:47 2.5 C 61 % -4.24 C
413 09-02-2009 10:32:47 2.6 C 61 % -4.15 C
414 09-02-2009 10:44:46 2.7 C 60 % -4.27 C
415 09-02-2009 10:56:46 2.9 C 59 % -4.31 C
416 09-02-2009 11:08:47 3 C 58 % -4.44 C
417 09-02-2009 11:20:46 3.1 C 58 % -4.34 C
418 09-02-2009 11:32:46 3.2 C 58 % -4.25 C
419 09-02-2009 11:44:46 3.2 C 59 % -4.02 C
420 09-02-2009 11:56:46 3.2 C 59 % -4.02 C
421 09-02-2009 12:08:46 3.4 C 59 % -3.84 C
422 09-02-2009 12:20:46 3.4 C 60 % -3.61 C
423 09-02-2009 12:32:45 3.5 C 61 % -3.3 C
424 09-02-2009 12:44:46 3.5 C 61 % -3.3 C
425 09-02-2009 12:56:46 3.8 C 61 % -3.01 C
Sensor: Nr:Datum:Temp:Feuchte:Taupunkt:
Aussen-T/F 426 09-02-2009 13:08:45 3.8 C 61 % -3.01 C
427 09-02-2009 13:20:45 4.1 C 58 % -3.41 C
428 09-02-2009 13:32:45 4.3 C 58 % -3.22 C
429 09-02-2009 13:44:45 4.2 C 57 % -3.54 C
430 09-02-2009 13:56:45 4 C 59 % -3.27 C
431 09-02-2009 14:08:44 4 C 59 % -3.27 C
432 09-02-2009 14:20:45 4.5 C 58 % -3.03 C
433 09-02-2009 14:32:45 4.4 C 57 % -3.36 C
434 09-02-2009 14:44:45 4.4 C 58 % -3.12 C
435 09-02-2009 14:56:45 4.2 C 59 % -3.08 C
436 09-02-2009 15:08:45 4 C 59 % -3.27 C
437 09-02-2009 15:20:44 4 C 60 % -3.05 C
438 09-02-2009 15:32:44 4 C 60 % -3.05 C
439 09-02-2009 15:44:43 3.9 C 62 % -2.7 C
440 09-02-2009 15:56:43 3.9 C 62 % -2.7 C
441 09-02-2009 16:08:43 3.8 C 62 % -2.8 C
442 09-02-2009 16:20:44 3.8 C 62 % -2.8 C
443 09-02-2009 16:32:43 3.7 C 63 % -2.68 C
444 09-02-2009 16:44:43 3.6 C 63 % -2.77 C
445 09-02-2009 16:56:43 3.6 C 63 % -2.77 C
446 09-02-2009 17:08:43 3.5 C 63 % -2.86 C
447 09-02-2009 17:20:43 3.4 C 64 % -2.75 C
448 09-02-2009 17:32:43 3.3 C 65 % -2.64 C
449 09-02-2009 17:44:43 3.3 C 65 % -2.64 C
450 09-02-2009 17:56:43 3.1 C 66 % -2.62 C
Sensor: Nr:Datum:Temp:Feuchte:Taupunkt:
Aussen-T/F 451 09-02-2009 18:08:43 3 C 67 % -2.51 C
452 09-02-2009 18:20:42 2.8 C 70 % -2.11 C
453 09-02-2009 18:32:42 2.6 C 73 % -1.74 C
454 09-02-2009 18:44:42 2.4 C 76 % -1.39 C
455 09-02-2009 18:56:42 2.2 C 78 % -1.23 C
456 09-02-2009 19:08:42 2.1 C 80 % -0.98 C
457 09-02-2009 19:20:41 2 C 82 % -0.74 C
458 09-02-2009 19:32:42 2 C 83 % -0.58 C
459 09-02-2009 19:44:42 2 C 84 % -0.41 C
460 09-02-2009 19:56:42 1.8 C 85 % -0.45 C
461 09-02-2009 20:08:41 1.8 C 86 % -0.29 C
462 09-02-2009 20:20:41 1.7 C 86 % -0.38 C
463 09-02-2009 20:32:41 1.7 C 87 % -0.23 C
464 09-02-2009 20:44:41 1.7 C 87 % -0.23 C
465 09-02-2009 20:56:41 1.6 C 87 % -0.32 C
466 09-02-2009 21:08:40 1.3 C 87 % -0.62 C
467 09-02-2009 21:20:41 1.4 C 88 % -0.36 C
468 09-02-2009 21:33:40 1.4 C 89 % -0.21 C
469 09-02-2009 21:45:40 1.3 C 89 % -0.31 C
470 09-02-2009 21:57:40 1.1 C 89 % -0.51 C
471 09-02-2009 22:09:40 1 C 89 % -0.6 C
472 09-02-2009 22:21:40 1.3 C 90 % -0.15 C
473 09-02-2009 22:33:40 1.4 C 90 % -0.06 C
474 09-02-2009 22:45:40 1.5 C 91 % 0.19 C
475 09-02-2009 22:57:40 1.7 C 91 % 0.39 C
Sensor: Nr:Datum:Temp:Feuchte:Taupunkt:
Aussen-T/F 476 09-02-2009 23:09:40 1.7 C 91 % 0.39 C
477 09-02-2009 23:21:40 1.7 C 91 % 0.39 C
478 09-02-2009 23:33:40 1.7 C 91 % 0.39 C
479 09-02-2009 23:45:40 1.7 C 91 % 0.39 C
480 09-02-2009 23:57:40 1.8 C 92 % 0.64 C
481 10-02-2009 00:09:40 1.8 C 92 % 0.64 C
482 10-02-2009 00:21:41 1.9 C 92 % 0.74 C
483 10-02-2009 00:33:41 1.9 C 93 % 0.89 C
484 10-02-2009 00:45:41 2 C 92 % 0.84 C
485 10-02-2009 00:57:41 2 C 93 % 0.99 C
486 10-02-2009 01:09:41 2.1 C 93 % 1.09 C
487 10-02-2009 01:21:41 2.2 C 93 % 1.19 C
488 10-02-2009 01:33:41 2.3 C 93 % 1.29 C
489 10-02-2009 01:45:41 2.4 C 94 % 1.54 C
490 10-02-2009 01:57:41 2.5 C 94 % 1.63 C
491 10-02-2009 02:09:41 2.6 C 94 % 1.73 C
492 10-02-2009 02:21:41 2.8 C 94 % 1.93 C
493 10-02-2009 02:33:41 3 C 94 % 2.13 C
494 10-02-2009 02:45:41 3.3 C 94 % 2.43 C
495 10-02-2009 02:57:41 3.4 C 95 % 2.68 C
496 10-02-2009 03:09:41 3.6 C 95 % 2.88 C
497 10-02-2009 03:21:41 3.8 C 95 % 3.07 C
498 10-02-2009 03:33:41 3.9 C 95 % 3.17 C
499 10-02-2009 03:45:41 4.1 C 95 % 3.37 C
500 10-02-2009 03:57:41 4.3 C 95 % 3.57 C
Sensor: Nr:Datum:Temp:Feuchte:Taupunkt:
Aussen-T/F 501 10-02-2009 04:09:41 4.5 C 95 % 3.77 C
502 10-02-2009 04:21:42 4.8 C 95 % 4.07 C
503 10-02-2009 04:33:42 5.1 C 95 % 4.37 C
504 10-02-2009 04:45:42 5.1 C 95 % 4.37 C
505 10-02-2009 04:57:42 5.2 C 95 % 4.47 C
506 10-02-2009 05:09:42 5.3 C 95 % 4.57 C
507 10-02-2009 05:21:42 5.7 C 95 % 4.96 C
508 10-02-2009 05:33:40 5.7 C 95 % 4.96 C
509 10-02-2009 05:45:40 5.9 C 95 % 5.16 C
510 10-02-2009 05:57:40 6.2 C 95 % 5.46 C
511 10-02-2009 06:09:41 6.4 C 95 % 5.66 C
512 10-02-2009 06:21:40 6.4 C 95 % 5.66 C
513 10-02-2009 06:33:40 6.4 C 94 % 5.51 C
514 10-02-2009 06:45:39 6.4 C 94 % 5.51 C
515 10-02-2009 06:57:39 6.5 C 94 % 5.61 C
516 10-02-2009 07:09:40 6.5 C 93 % 5.45 C
517 10-02-2009 07:21:40 6.4 C 93 % 5.35 C
518 10-02-2009 07:33:39 6.3 C 93 % 5.25 C
519 10-02-2009 07:45:39 6.5 C 92 % 5.3 C
520 10-02-2009 07:57:39 6.5 C 92 % 5.3 C
521 10-02-2009 08:09:39 6.5 C 90 % 4.98 C
522 10-02-2009 08:21:39 6.4 C 90 % 4.88 C
523 10-02-2009 08:33:38 6.4 C 90 % 4.88 C
524 10-02-2009 08:45:39 6.4 C 90 % 4.88 C
525 10-02-2009 08:57:39 6.6 C 89 % 4.92 C
Sensor: Nr:Datum:Temp:Feuchte:Taupunkt:
Aussen-T/F 526 10-02-2009 09:09:39 6.6 C 88 % 4.76 C
527 10-02-2009 09:21:38 6.6 C 86 % 4.43 C
528 10-02-2009 09:33:38 6.6 C 86 % 4.43 C
529 10-02-2009 09:45:38 6.8 C 86 % 4.63 C
530 10-02-2009 09:57:38 6.8 C 86 % 4.63 C
531 10-02-2009 10:09:38 6.9 C 86 % 4.72 C
532 10-02-2009 10:21:37 7.1 C 84 % 4.58 C
533 10-02-2009 10:33:38 7.5 C 80 % 4.28 C
534 10-02-2009 10:45:37 7.6 C 74 % 3.27 C
535 10-02-2009 10:57:37 7.2 C 68 % 1.7 C
536 10-02-2009 11:09:37 6.7 C 69 % 1.43 C
537 10-02-2009 11:21:38 6.1 C 67 % 0.44 C
538 10-02-2009 11:33:37 5.7 C 69 % 0.47 C
539 10-02-2009 11:45:37 6 C 63 % -0.5 C
540 10-02-2009 11:57:37 6.1 C 63 % -0.4 C
541 10-02-2009 12:09:37 6.4 C 61 % -0.56 C
542 10-02-2009 12:21:37 6.3 C 59 % -1.11 C
543 10-02-2009 12:33:36 5.8 C 60 % -1.35 C
544 10-02-2009 12:45:37 5.2 C 61 % -1.69 C
545 10-02-2009 12:57:37 5 C 62 % -1.66 C
546 10-02-2009 13:09:36 4.7 C 64 % -1.51 C
547 10-02-2009 13:21:36 4.4 C 68 % -0.98 C
548 10-02-2009 13:33:36 4.4 C 67 % -1.18 C
549 10-02-2009 13:45:36 4.4 C 67 % -1.18 C
550 10-02-2009 13:57:36 4.3 C 66 % -1.48 C
Sensor: Nr:Datum:Temp:Feuchte:Taupunkt:
Aussen-T/F 551 10-02-2009 14:09:36 4.4 C 66 % -1.38 C
552 10-02-2009 14:21:35 4.4 C 66 % -1.38 C
553 10-02-2009 14:33:36 4.4 C 65 % -1.59 C
554 10-02-2009 14:45:35 4.4 C 64 % -1.8 C
555 10-02-2009 14:57:35 4.3 C 64 % -1.89 C
556 10-02-2009 15:09:35 4.3 C 64 % -1.89 C
557 10-02-2009 15:21:35 4.2 C 64 % -1.99 C
558 10-02-2009 15:33:35 4.1 C 61 % -2.73 C
559 10-02-2009 15:45:34 3.7 C 62 % -2.89 C
560 10-02-2009 15:57:34 3.7 C 63 % -2.68 C
561 10-02-2009 16:09:34 3.3 C 66 % -2.43 C
562 10-02-2009 16:21:35 2.7 C 73 % -1.64 C
563 10-02-2009 16:33:34 2.1 C 79 % -1.15 C
564 10-02-2009 16:45:34 1.9 C 83 % -0.67 C
565 10-02-2009 16:57:34 1.9 C 84 % -0.51 C
566 10-02-2009 17:09:34 1.9 C 84 % -0.51 C
567 10-02-2009 17:21:34 2 C 83 % -0.58 C
568 10-02-2009 17:33:33 2 C 82 % -0.74 C
569 10-02-2009 17:45:34 2.1 C 83 % -0.48 C
570 10-02-2009 17:57:34 2.1 C 84 % -0.31 C
571 10-02-2009 18:09:33 2.2 C 83 % -0.38 C
572 10-02-2009 18:21:33 2.3 C 82 % -0.45 C
573 10-02-2009 18:33:33 2.5 C 79 % -0.76 C
574 10-02-2009 18:45:33 2.5 C 79 % -0.76 C
575 10-02-2009 18:57:33 2.6 C 78 % -0.84 C
Sensor: Nr:Datum:Temp:Feuchte:Taupunkt:
Aussen-T/F 576 10-02-2009 19:09:33 2.5 C 78 % -0.94 C
577 10-02-2009 19:21:32 2.6 C 77 % -1.02 C
578 10-02-2009 19:33:33 2.6 C 77 % -1.02 C
579 10-02-2009 19:45:32 2.5 C 77 % -1.11 C
580 10-02-2009 19:57:32 2.4 C 79 % -0.86 C
581 10-02-2009 20:09:32 2.6 C 77 % -1.02 C
582 10-02-2009 20:21:32 2.9 C 73 % -1.45 C
583 10-02-2009 20:33:32 2.9 C 70 % -2.02 C
584 10-02-2009 20:45:32 3 C 67 % -2.51 C
585 10-02-2009 20:57:32 3 C 66 % -2.72 C
586 10-02-2009 21:09:31 3.1 C 66 % -2.62 C
587 10-02-2009 21:22:32 3 C 66 % -2.72 C
588 10-02-2009 21:34:32 3.1 C 65 % -2.83 C
589 10-02-2009 21:46:32 2.7 C 69 % -2.4 C
590 10-02-2009 21:58:32 2.1 C 76 % -1.68 C
591 10-02-2009 22:10:32 2 C 80 % -1.08 C
592 10-02-2009 22:22:32 2.1 C 79 % -1.15 C
593 10-02-2009 22:34:32 2.1 C 78 % -1.33 C
594 10-02-2009 22:46:32 2.3 C 76 % -1.48 C
595 10-02-2009 22:58:32 2.4 C 74 % -1.75 C
596 10-02-2009 23:10:32 2.5 C 71 % -2.21 C
597 10-02-2009 23:22:32 2.6 C 71 % -2.12 C
598 10-02-2009 23:34:32 2.8 C 69 % -2.31 C
599 10-02-2009 23:46:32 2.8 C 68 % -2.51 C
600 10-02-2009 23:58:32 2.8 C 67 % -2.7 C
Sensor: Nr:Datum:Temp:Feuchte:Taupunkt:
Aussen-T/F 601 11-02-2009 00:10:32 2.9 C 66 % -2.81 C
602 11-02-2009 00:22:32 2.8 C 65 % -3.11 C
603 11-02-2009 00:34:32 2.8 C 65 % -3.11 C
604 11-02-2009 00:46:32 2.8 C 65 % -3.11 C
605 11-02-2009 00:58:32 2.7 C 64 % -3.41 C
606 11-02-2009 01:10:33 2.7 C 63 % -3.62 C
607 11-02-2009 01:22:33 2.6 C 64 % -3.51 C
608 11-02-2009 01:34:33 2.5 C 63 % -3.81 C
609 11-02-2009 01:46:33 2.4 C 62 % -4.12 C
610 11-02-2009 01:58:33 2.5 C 63 % -3.81 C
611 11-02-2009 02:10:33 2.5 C 64 % -3.6 C
612 11-02-2009 02:22:33 2.5 C 66 % -3.19 C
613 11-02-2009 02:34:33 2.6 C 66 % -3.1 C
614 11-02-2009 02:46:33 2.5 C 65 % -3.4 C
615 11-02-2009 02:58:33 2.3 C 65 % -3.59 C
616 11-02-2009 03:10:33 2.3 C 66 % -3.38 C
617 11-02-2009 03:22:33 2.2 C 66 % -3.48 C
618 11-02-2009 03:34:33 2.3 C 68 % -2.98 C
619 11-02-2009 03:46:33 2.4 C 67 % -3.09 C
620 11-02-2009 03:58:33 2.5 C 67 % -2.99 C
621 11-02-2009 04:10:33 2.4 C 68 % -2.89 C
622 11-02-2009 04:22:33 2.3 C 69 % -2.79 C
623 11-02-2009 04:34:33 2.2 C 71 % -2.5 C
624 11-02-2009 04:46:33 2.2 C 72 % -2.31 C
625 11-02-2009 04:58:34 2.2 C 72 % -2.31 C
Sensor: Nr:Datum:Temp:Feuchte:Taupunkt:
Aussen-T/F 626 11-02-2009 05:10:34 2.2 C 71 % -2.5 C
627 11-02-2009 05:22:34 2.2 C 70 % -2.69 C
628 11-02-2009 05:34:34 2.1 C 70 % -2.79 C
629 11-02-2009 05:46:34 2.2 C 69 % -2.88 C
630 11-02-2009 05:58:34 2.1 C 69 % -2.98 C
631 11-02-2009 06:10:34 2.1 C 69 % -2.98 C
632 11-02-2009 06:22:34 2.2 C 67 % -3.28 C
633 11-02-2009 06:34:34 2.2 C 66 % -3.48 C
634 11-02-2009 06:46:34 2.1 C 67 % -3.37 C
635 11-02-2009 06:58:34 2.1 C 67 % -3.37 C
636 11-02-2009 07:10:32 2 C 67 % -3.47 C
637 11-02-2009 07:22:32 2.1 C 66 % -3.57 C
638 11-02-2009 07:34:32 2.1 C 65 % -3.78 C
639 11-02-2009 07:46:32 2 C 65 % -3.87 C
640 11-02-2009 07:58:32 2 C 65 % -3.87 C
641 11-02-2009 08:10:31 2 C 64 % -4.08 C
642 11-02-2009 08:22:32 2.1 C 65 % -3.78 C
643 11-02-2009 08:34:31 2 C 64 % -4.08 C
644 11-02-2009 08:46:31 1.7 C 66 % -3.95 C
645 11-02-2009 08:58:31 1.7 C 66 % -3.95 C
646 11-02-2009 09:10:31 1.9 C 67 % -3.56 C
647 11-02-2009 09:22:31 1.8 C 66 % -3.86 C
648 11-02-2009 09:34:31 1.8 C 66 % -3.86 C
649 11-02-2009 09:46:31 1.7 C 67 % -3.75 C
650 11-02-2009 09:58:31 2.4 C 65 % -3.49 C
Sensor: Nr:Datum:Temp:Feuchte:Taupunkt:
Aussen-T/F 651 11-02-2009 10:10:31 2.9 C 62 % -3.65 C
652 11-02-2009 10:22:30 3 C 59 % -4.21 C
653 11-02-2009 10:34:30 3.2 C 57 % -4.48 C
654 11-02-2009 10:46:30 3.2 C 56 % -4.71 C
655 11-02-2009 10:58:30 3.7 C 55 % -4.49 C
656 11-02-2009 11:10:30 3.8 C 53 % -4.88 C
657 11-02-2009 11:22:29 3.8 C 52 % -5.13 C
658 11-02-2009 11:34:30 4 C 48 % -6 C
659 11-02-2009 11:46:29 4.5 C 46 % -6.09 C
660 11-02-2009 11:58:29 4.6 C 43 % -6.88 C
661 11-02-2009 12:10:29 4.6 C 43 % -6.88 C
662 11-02-2009 12:22:29 4.5 C 42 % -7.27 C
663 11-02-2009 12:34:29 3.6 C 51 % -5.57 C
664 11-02-2009 12:46:29 3.7 C 56 % -4.25 C
665 11-02-2009 12:58:29 3.4 C 56 % -4.53 C
666 11-02-2009 13:10:28 3.3 C 60 % -3.71 C
667 11-02-2009 13:22:29 3.6 C 64 % -2.56 C
668 11-02-2009 13:34:28 3.7 C 63 % -2.68 C
669 11-02-2009 13:46:28 3.7 C 59 % -3.55 C
670 11-02-2009 13:58:28 4.4 C 56 % -3.59 C
671 11-02-2009 14:10:28 5.2 C 44 % -6.04 C
672 11-02-2009 14:22:28 6.5 C 36 % -7.47 C
673 11-02-2009 14:34:28 6.2 C 35 % -8.1 C
674 11-02-2009 14:46:28 5.9 C 32 % -9.5 C
675 11-02-2009 14:58:28 5.6 C 30 % -10.58 C
Sensor: Nr:Datum:Temp:Feuchte:Taupunkt:
Aussen-T/F 676 11-02-2009 15:10:28 5.6 C 32 % -9.77 C
677 11-02-2009 15:22:27 5.3 C 31 % -10.43 C
678 11-02-2009 15:34:27 5 C 36 % -8.8 C
679 11-02-2009 15:46:27 4.7 C 41 % -7.4 C
680 11-02-2009 15:58:27 4.6 C 41 % -7.49 C
681 11-02-2009 16:10:27 4.6 C 41 % -7.49 C
682 11-02-2009 16:22:26 4.3 C 42 % -7.46 C
683 11-02-2009 16:34:27 4.2 C 43 % -7.24 C
684 11-02-2009 16:46:26 4 C 45 % -6.84 C
685 11-02-2009 16:58:26 3.8 C 48 % -6.18 C
686 11-02-2009 17:10:26 3.7 C 50 % -5.74 C
687 11-02-2009 17:22:27 3.6 C 50 % -5.83 C
688 11-02-2009 17:34:26 3.5 C 52 % -5.41 C
689 11-02-2009 17:46:26 3.4 C 52 % -5.5 C
690 11-02-2009 17:58:26 3.4 C 53 % -5.25 C
691 11-02-2009 18:10:26 3.4 C 55 % -4.77 C
692 11-02-2009 18:22:26 3.2 C 56 % -4.71 C
693 11-02-2009 18:34:25 3.1 C 58 % -4.34 C
694 11-02-2009 18:46:26 3.1 C 58 % -4.34 C
695 11-02-2009 18:58:26 3 C 58 % -4.44 C
696 11-02-2009 19:10:25 2.9 C 60 % -4.08 C
697 11-02-2009 19:22:25 2.9 C 60 % -4.08 C
698 11-02-2009 19:34:25 3 C 58 % -4.44 C
699 11-02-2009 19:46:25 3 C 58 % -4.44 C
700 11-02-2009 19:58:25 3 C 58 % -4.44 C
Sensor: Nr:Datum:Temp:Feuchte:Taupunkt:
Aussen-T/F 701 11-02-2009 20:10:25 2.9 C 59 % -4.31 C
702 11-02-2009 20:22:24 2.9 C 60 % -4.08 C
703 11-02-2009 20:34:25 2.8 C 60 % -4.18 C
704 11-02-2009 20:46:24 2.8 C 61 % -3.96 C
705 11-02-2009 20:58:24 2.6 C 63 % -3.72 C
706 11-02-2009 21:10:24 2.4 C 68 % -2.89 C
707 11-02-2009 21:23:26 2.2 C 70 % -2.69 C
708 11-02-2009 21:35:26 2.1 C 71 % -2.6 C
709 11-02-2009 21:47:26 1.8 C 75 % -2.15 C
710 11-02-2009 21:59:26 1.6 C 79 % -1.64 C
711 11-02-2009 22:11:26 1.5 C 81 % -1.4 C
712 11-02-2009 22:23:26 1.1 C 84 % -1.29 C
713 11-02-2009 22:35:26 1.1 C 86 % -0.97 C
714 11-02-2009 22:47:26 1 C 87 % -0.91 C
715 11-02-2009 22:59:26 1.1 C 88 % -0.66 C
716 11-02-2009 23:11:26 1.3 C 89 % -0.31 C
717 11-02-2009 23:23:26 1.3 C 89 % -0.31 C
718 11-02-2009 23:35:26 1.3 C 88 % -0.46 C
719 11-02-2009 23:47:26 1.4 C 88 % -0.36 C
720 11-02-2009 23:59:26 1.4 C 86 % -0.68 C
721 12-02-2009 00:11:26 1.3 C 86 % -0.78 C
722 12-02-2009 00:23:26 1 C 86 % -1.07 C
723 12-02-2009 00:35:27 1.1 C 86 % -0.97 C
724 12-02-2009 00:47:27 1.2 C 85 % -1.03 C
725 12-02-2009 00:59:27 1.1 C 84 % -1.29 C
Sensor: Nr:Datum:Temp:Feuchte:Taupunkt:
Aussen-T/F 726 12-02-2009 01:11:27 1 C 84 % -1.39 C
727 12-02-2009 01:23:27 1 C 85 % -1.23 C
728 12-02-2009 01:35:27 1 C 84 % -1.39 C
729 12-02-2009 01:47:27 1.1 C 82 % -1.62 C
730 12-02-2009 01:59:27 1.2 C 80 % -1.86 C
731 12-02-2009 02:11:27 1.1 C 79 % -2.12 C
732 12-02-2009 02:23:27 1.1 C 79 % -2.12 C
733 12-02-2009 02:35:27 1.1 C 79 % -2.12 C
734 12-02-2009 02:47:27 1.1 C 79 % -2.12 C
735 12-02-2009 02:59:27 0.8 C 81 % -2.08 C
736 12-02-2009 03:11:27 0.8 C 82 % -1.91 C
737 12-02-2009 03:23:27 0.8 C 84 % -1.59 C
738 12-02-2009 03:35:27 0.8 C 84 % -1.59 C
739 12-02-2009 03:47:27 1 C 81 % -1.88 C
740 12-02-2009 03:59:27 1 C 77 % -2.57 C
741 12-02-2009 04:11:27 0.6 C 76 % -3.13 C
742 12-02-2009 04:23:27 0.5 C 76 % -3.23 C
743 12-02-2009 04:35:28 0.2 C 76 % -3.52 C
744 12-02-2009 04:47:28 -0.1 C 75 % -3.99 C
745 12-02-2009 04:59:28 -0.4 C 76 % -4.1 C
746 12-02-2009 05:11:28 -0.5 C 75 % -4.38 C
747 12-02-2009 05:23:28 -0.6 C 75 % -4.47 C
748 12-02-2009 05:35:28 -0.8 C 75 % -4.67 C
749 12-02-2009 05:47:28 -0.7 C 75 % -4.57 C
750 12-02-2009 05:59:28 -0.7 C 75 % -4.57 C
Sensor: Nr:Datum:Temp:Feuchte:Taupunkt:
Aussen-T/F 751 12-02-2009 06:11:28 -0.5 C 73 % -4.73 C
752 12-02-2009 06:23:28 -0.5 C 73 % -4.73 C
753 12-02-2009 06:35:28 -0.4 C 73 % -4.64 C
754 12-02-2009 06:47:26 -0.3 C 73 % -4.54 C
755 12-02-2009 06:59:26 -0.4 C 73 % -4.64 C
756 12-02-2009 07:11:25 -0.3 C 75 % -4.18 C
757 12-02-2009 07:23:25 -0.2 C 76 % -3.91 C
758 12-02-2009 07:35:24 -0.2 C 76 % -3.91 C
759 12-02-2009 07:47:25 -0.2 C 74 % -4.26 C
760 12-02-2009 07:59:25 -0.1 C 75 % -3.99 C
761 12-02-2009 08:11:24 0 C 75 % -3.89 C
762 12-02-2009 08:23:24 0.1 C 75 % -3.79 C
763 12-02-2009 08:35:25 0.1 C 74 % -3.97 C
764 12-02-2009 08:47:24 0.1 C 74 % -3.97 C
765 12-02-2009 08:59:24 0.2 C 74 % -3.87 C
766 12-02-2009 09:11:24 0.4 C 73 % -3.86 C
767 12-02-2009 09:23:24 0.4 C 74 % -3.68 C
768 12-02-2009 09:35:24 0.6 C 74 % -3.49 C
769 12-02-2009 09:47:23 0.8 C 75 % -3.11 C
770 12-02-2009 09:59:23 1 C 73 % -3.28 C
771 12-02-2009 10:11:23 0.9 C 74 % -3.2 C
772 12-02-2009 10:23:23 1 C 74 % -3.1 C
773 12-02-2009 10:35:23 1.3 C 71 % -3.36 C
774 12-02-2009 10:47:22 1.4 C 70 % -3.46 C
775 12-02-2009 10:59:22 1.6 C 68 % -3.65 C
Sensor: Nr:Datum:Temp:Feuchte:Taupunkt:
Aussen-T/F 776 12-02-2009 11:11:23 1.8 C 66 % -3.86 C
777 12-02-2009 11:23:23 2.1 C 65 % -3.78 C
778 12-02-2009 11:35:22 1.7 C 66 % -3.95 C
779 12-02-2009 11:47:23 1.6 C 68 % -3.65 C
780 12-02-2009 11:59:23 2 C 63 % -4.29 C
781 12-02-2009 12:11:22 2.4 C 57 % -5.23 C
782 12-02-2009 12:23:22 2.5 C 59 % -4.68 C
783 12-02-2009 12:35:21 2.6 C 61 % -4.15 C
784 12-02-2009 12:47:22 2.9 C 57 % -4.76 C
785 12-02-2009 12:59:22 3 C 60 % -3.99 C
786 12-02-2009 13:11:21 3.6 C 58 % -3.87 C
787 12-02-2009 13:23:21 3.6 C 56 % -4.34 C
788 12-02-2009 13:35:22 2.7 C 58 % -4.72 C
789 12-02-2009 13:47:21 1.4 C 68 % -3.84 C
790 12-02-2009 13:59:21 1 C 75 % -2.92 C
791 12-02-2009 14:11:21 0.9 C 79 % -2.32 C
792 12-02-2009 14:23:21 1.9 C 79 % -1.35 C
793 12-02-2009 14:35:21 2.1 C 74 % -2.04 C
794 12-02-2009 14:47:20 2.5 C 72 % -2.02 C
795 12-02-2009 14:59:20 2.4 C 71 % -2.31 C
796 12-02-2009 15:11:21 2.2 C 70 % -2.69 C
797 12-02-2009 15:23:21 1.8 C 72 % -2.7 C
798 12-02-2009 15:35:20 2.6 C 72 % -1.93 C
799 12-02-2009 15:47:20 2.7 C 68 % -2.6 C
800 12-02-2009 15:59:20 2.6 C 67 % -2.9 C
Sensor: Nr:Datum:Temp:Feuchte:Taupunkt:
Aussen-T/F 801 12-02-2009 16:11:20 3.2 C 63 % -3.15 C
802 12-02-2009 16:23:20 3.1 C 61 % -3.67 C
803 12-02-2009 16:35:19 2.8 C 62 % -3.74 C
804 12-02-2009 16:47:20 2.3 C 64 % -3.79 C
805 12-02-2009 16:59:20 1.2 C 71 % -3.46 C
806 12-02-2009 17:11:19 0.9 C 76 % -2.84 C
807 12-02-2009 17:23:19 0.8 C 78 % -2.59 C
808 12-02-2009 17:35:19 0.6 C 80 % -2.44 C
809 12-02-2009 17:47:19 0.3 C 82 % -2.4 C
810 12-02-2009 17:59:19 0.2 C 84 % -2.18 C
811 12-02-2009 18:11:19 0.1 C 85 % -2.11 C
812 12-02-2009 18:23:18 0.1 C 85 % -2.11 C
813 12-02-2009 18:35:19 0.1 C 85 % -2.11 C
814 12-02-2009 18:47:18 0 C 85 % -2.21 C
815 12-02-2009 18:59:18 0 C 86 % -2.05 C
816 12-02-2009 19:11:18 0.1 C 86 % -1.96 C
817 12-02-2009 19:23:18 0.1 C 86 % -1.96 C
818 12-02-2009 19:35:18 0.2 C 87 % -1.7 C
819 12-02-2009 19:47:17 0.1 C 87 % -1.8 C
820 12-02-2009 19:59:17 -0.2 C 87 % -2.1 C
821 12-02-2009 20:11:18 -0.3 C 87 % -2.2 C
822 12-02-2009 20:23:18 -0.4 C 87 % -2.29 C
823 12-02-2009 20:35:17 -0.6 C 87 % -2.49 C
824 12-02-2009 20:47:18 -0.5 C 86 % -2.55 C
825 12-02-2009 20:59:18 -0.4 C 86 % -2.45 C
Sensor: Nr:Datum:Temp:Feuchte:Taupunkt:
Aussen-T/F 826 12-02-2009 21:11:17 -0.5 C 86 % -2.55 C
827 12-02-2009 21:23:17 -0.6 C 86 % -2.65 C
828 12-02-2009 21:35:16 -0.7 C 86 % -2.74 C
829 12-02-2009 21:47:17 -0.7 C 86 % -2.74 C
830 12-02-2009 21:59:17 -0.6 C 87 % -2.49 C
831 12-02-2009 22:11:16 -0.6 C 87 % -2.49 C
832 12-02-2009 22:23:16 -0.5 C 87 % -2.39 C
833 12-02-2009 22:36:17 -0.7 C 87 % -2.59 C
834 12-02-2009 22:48:17 -1 C 87 % -2.88 C
835 12-02-2009 23:00:17 -1.3 C 86 % -3.33 C
836 12-02-2009 23:12:17 -1.5 C 87 % -3.38 C
837 12-02-2009 23:24:17 -1.6 C 87 % -3.48 C
838 12-02-2009 23:36:17 -1.5 C 87 % -3.38 C
839 12-02-2009 23:48:17 -1.5 C 88 % -3.22 C
840 13-02-2009 00:00:17 -1.5 C 88 % -3.22 C
841 13-02-2009 00:12:17 -1.6 C 88 % -3.32 C
842 13-02-2009 00:24:17 -1.2 C 89 % -2.78 C
843 13-02-2009 00:36:17 -1.1 C 89 % -2.68 C
844 13-02-2009 00:48:18 -1 C 89 % -2.58 C
845 13-02-2009 01:00:18 -0.9 C 89 % -2.48 C
846 13-02-2009 01:12:18 -0.7 C 89 % -2.28 C
847 13-02-2009 01:24:18 -0.5 C 89 % -2.09 C
848 13-02-2009 01:36:18 -0.4 C 89 % -1.99 C
849 13-02-2009 01:48:18 -0.4 C 89 % -1.99 C
850 13-02-2009 02:00:18 -0.4 C 89 % -1.99 C
Sensor: Nr:Datum:Temp:Feuchte:Taupunkt:
Aussen-T/F 851 13-02-2009 02:12:18 -0.3 C 89 % -1.89 C
852 13-02-2009 02:24:18 -0.3 C 89 % -1.89 C
853 13-02-2009 02:36:18 -0.3 C 89 % -1.89 C
854 13-02-2009 02:48:18 -0.2 C 89 % -1.79 C
855 13-02-2009 03:00:18 -0.3 C 88 % -2.04 C
856 13-02-2009 03:12:18 -0.3 C 88 % -2.04 C
857 13-02-2009 03:24:18 -0.3 C 88 % -2.04 C
858 13-02-2009 03:36:18 -0.3 C 88 % -2.04 C
859 13-02-2009 03:48:18 -0.3 C 88 % -2.04 C
860 13-02-2009 04:00:18 -0.3 C 88 % -2.04 C
861 13-02-2009 04:12:18 -0.3 C 88 % -2.04 C
862 13-02-2009 04:24:18 -0.4 C 87 % -2.29 C
863 13-02-2009 04:36:19 -0.4 C 87 % -2.29 C
864 13-02-2009 04:48:19 -0.4 C 87 % -2.29 C
865 13-02-2009 05:00:19 -0.4 C 87 % -2.29 C
866 13-02-2009 05:12:19 -0.5 C 86 % -2.55 C
867 13-02-2009 05:24:19 -0.6 C 86 % -2.65 C
868 13-02-2009 05:36:19 -0.6 C 85 % -2.8 C
869 13-02-2009 05:48:19 -0.5 C 85 % -2.71 C
870 13-02-2009 06:00:19 -0.4 C 84 % -2.77 C
871 13-02-2009 06:12:19 -0.4 C 84 % -2.77 C
872 13-02-2009 06:24:19 -0.3 C 83 % -2.83 C
873 13-02-2009 06:36:19 -0.4 C 83 % -2.93 C
874 13-02-2009 06:48:19 -0.4 C 82 % -3.09 C
875 13-02-2009 07:00:08 -0.4 C 82 % -3.09 C
Sensor: Nr:Datum:Temp:Feuchte:Taupunkt:
Aussen-T/F 876 13-02-2009 07:12:17 -0.5 C 82 % -3.19 C
877 13-02-2009 07:24:18 -0.5 C 82 % -3.19 C
878 13-02-2009 07:36:17 -0.5 C 83 % -3.03 C
879 13-02-2009 07:48:17 -0.5 C 82 % -3.19 C
880 13-02-2009 08:00:16 -0.5 C 82 % -3.19 C
881 13-02-2009 08:12:16 -0.5 C 82 % -3.19 C
882 13-02-2009 08:24:17 -0.5 C 82 % -3.19 C
883 13-02-2009 08:36:16 -0.5 C 82 % -3.19 C
884 13-02-2009 08:48:16 -0.4 C 82 % -3.09 C
885 13-02-2009 09:00:16 -0.4 C 82 % -3.09 C
886 13-02-2009 09:12:16 -0.3 C 81 % -3.16 C
887 13-02-2009 09:24:16 -0.1 C 81 % -2.96 C
888 13-02-2009 09:36:16 0.1 C 80 % -2.93 C
889 13-02-2009 09:48:16 0.1 C 80 % -2.93 C
890 13-02-2009 10:00:15 0.1 C 79 % -3.1 C
891 13-02-2009 10:12:15 0.2 C 79 % -3 C
892 13-02-2009 10:24:16 0.4 C 79 % -2.81 C
893 13-02-2009 10:36:15 0.4 C 78 % -2.98 C
894 13-02-2009 10:48:15 0.5 C 78 % -2.88 C
895 13-02-2009 11:00:15 0.6 C 78 % -2.78 C
896 13-02-2009 11:12:15 0.7 C 78 % -2.69 C
897 13-02-2009 11:24:15 0.9 C 78 % -2.49 C
898 13-02-2009 11:36:15 1.1 C 77 % -2.47 C
899 13-02-2009 11:48:15 1.2 C 76 % -2.55 C
900 13-02-2009 12:00:15 1.3 C 77 % -2.28 C
Sensor: Nr:Datum:Temp:Feuchte:Taupunkt:
Aussen-T/F 901 13-02-2009 12:12:15 1.4 C 77 % -2.18 C
902 13-02-2009 12:24:14 1.6 C 76 % -2.16 C
903 13-02-2009 12:36:14 1.8 C 75 % -2.15 C
904 13-02-2009 12:48:14 1.8 C 74 % -2.33 C
905 13-02-2009 13:00:14 1.8 C 75 % -2.15 C
906 13-02-2009 13:12:14 1.7 C 76 % -2.07 C
907 13-02-2009 13:24:13 1.5 C 78 % -1.91 C
908 13-02-2009 13:36:14 1.7 C 79 % -1.54 C
909 13-02-2009 13:48:13 1.8 C 78 % -1.62 C
910 13-02-2009 14:00:13 2.1 C 76 % -1.68 C
911 13-02-2009 14:12:13 2.3 C 75 % -1.66 C
912 13-02-2009 14:24:14 2.3 C 75 % -1.66 C
913 13-02-2009 14:36:13 2.3 C 75 % -1.66 C
914 13-02-2009 14:48:13 2.4 C 75 % -1.57 C
915 13-02-2009 15:00:12 2.2 C 76 % -1.58 C
916 13-02-2009 15:12:12 2.2 C 77 % -1.4 C
917 13-02-2009 15:24:13 2 C 77 % -1.6 C
918 13-02-2009 15:36:12 2 C 79 % -1.25 C
919 13-02-2009 15:48:12 2 C 79 % -1.25 C
920 13-02-2009 16:00:12 1.8 C 79 % -1.44 C
921 13-02-2009 16:12:12 1.7 C 79 % -1.54 C
922 13-02-2009 16:24:12 1.7 C 79 % -1.54 C
923 13-02-2009 16:36:12 1.5 C 79 % -1.74 C
924 13-02-2009 16:48:12 1.4 C 80 % -1.66 C
925 13-02-2009 17:00:12 1.4 C 81 % -1.49 C
Sensor: Nr:Datum:Temp:Feuchte:Taupunkt:
Aussen-T/F 926 13-02-2009 17:12:12 1.4 C 80 % -1.66 C
927 13-02-2009 17:24:11 1.4 C 80 % -1.66 C
928 13-02-2009 17:36:12 1.2 C 79 % -2.03 C
929 13-02-2009 17:48:11 1.2 C 79 % -2.03 C
930 13-02-2009 18:00:11 1.2 C 78 % -2.2 C
931 13-02-2009 18:12:11 1.2 C 77 % -2.37 C
932 13-02-2009 18:24:11 1.2 C 77 % -2.37 C
933 13-02-2009 18:36:11 1.2 C 76 % -2.55 C
934 13-02-2009 18:48:10 1.3 C 74 % -2.81 C
935 13-02-2009 19:00:10 1.4 C 72 % -3.08 C
936 13-02-2009 19:12:10 1.4 C 72 % -3.08 C
937 13-02-2009 19:24:11 1.2 C 71 % -3.46 C
938 13-02-2009 19:36:10 1.3 C 69 % -3.75 C
939 13-02-2009 19:48:10 1.2 C 68 % -4.04 C
940 13-02-2009 20:00:10 1.2 C 68 % -4.04 C
941 13-02-2009 20:12:10 1.1 C 69 % -3.94 C
942 13-02-2009 20:24:10 1 C 70 % -3.84 C
943 13-02-2009 20:36:10 1 C 72 % -3.47 C
944 13-02-2009 20:48:09 0.9 C 74 % -3.2 C
945 13-02-2009 21:00:09 0.9 C 73 % -3.38 C
946 13-02-2009 21:12:09 1 C 72 % -3.47 C
947 13-02-2009 21:24:09 0.9 C 74 % -3.2 C
948 13-02-2009 21:36:09 0.7 C 78 % -2.69 C
949 13-02-2009 21:48:08 0.6 C 80 % -2.44 C
950 13-02-2009 22:01:09 0.6 C 81 % -2.28 C
Sensor: Nr:Datum:Temp:Feuchte:Taupunkt:
Aussen-T/F 951 13-02-2009 22:13:09 0.6 C 82 % -2.11 C
952 13-02-2009 22:25:09 0.4 C 83 % -2.14 C
953 13-02-2009 22:37:09 0.4 C 85 % -1.82 C
954 13-02-2009 22:49:09 0.4 C 85 % -1.82 C
955 13-02-2009 23:01:10 0.4 C 86 % -1.66 C
956 13-02-2009 23:13:10 0.4 C 86 % -1.66 C
957 13-02-2009 23:25:10 0.4 C 86 % -1.66 C
958 13-02-2009 23:37:10 0.5 C 86 % -1.56 C
959 13-02-2009 23:49:10 0.6 C 85 % -1.62 C
960 14-02-2009 00:01:10 0.4 C 84 % -1.98 C
961 14-02-2009 00:13:10 0.4 C 84 % -1.98 C
962 14-02-2009 00:25:10 0.5 C 84 % -1.88 C
963 14-02-2009 00:37:10 0.6 C 83 % -1.95 C
964 14-02-2009 00:49:10 0.5 C 83 % -2.04 C
965 14-02-2009 01:01:10 0.5 C 83 % -2.04 C
966 14-02-2009 01:13:10 0.5 C 83 % -2.04 C
967 14-02-2009 01:25:10 0.4 C 83 % -2.14 C
968 14-02-2009 01:37:10 0.5 C 82 % -2.21 C
969 14-02-2009 01:49:10 0.5 C 81 % -2.37 C
970 14-02-2009 02:01:10 0.6 C 80 % -2.44 C
971 14-02-2009 02:13:10 0.5 C 79 % -2.71 C
972 14-02-2009 02:25:10 0.3 C 81 % -2.57 C
973 14-02-2009 02:37:10 0.2 C 83 % -2.34 C
974 14-02-2009 02:49:11 0.2 C 85 % -2.02 C
975 14-02-2009 03:01:11 0.2 C 85 % -2.02 C
Sensor: Nr:Datum:Temp:Feuchte:Taupunkt:
Aussen-T/F 976 14-02-2009 03:13:11 0.3 C 85 % -1.92 C
977 14-02-2009 03:25:11 0.2 C 85 % -2.02 C
978 14-02-2009 03:37:11 0.1 C 85 % -2.11 C
979 14-02-2009 03:49:11 0.1 C 86 % -1.96 C
980 14-02-2009 04:01:11 0.2 C 86 % -1.86 C
981 14-02-2009 04:13:11 0.2 C 87 % -1.7 C
982 14-02-2009 04:25:11 0.2 C 87 % -1.7 C
983 14-02-2009 04:37:11 0.2 C 88 % -1.55 C
984 14-02-2009 04:49:11 0.2 C 88 % -1.55 C
985 14-02-2009 05:01:11 0.2 C 88 % -1.55 C
986 14-02-2009 05:13:11 0.1 C 88 % -1.65 C
987 14-02-2009 05:25:11 0.2 C 88 % -1.55 C
988 14-02-2009 05:37:11 0.2 C 88 % -1.55 C
989 14-02-2009 05:49:11 0.2 C 88 % -1.55 C
990 14-02-2009 06:01:11 0.2 C 88 % -1.55 C
991 14-02-2009 06:13:11 0.2 C 87 % -1.7 C
992 14-02-2009 06:25:11 0.2 C 87 % -1.7 C
993 14-02-2009 06:37:12 0.2 C 86 % -1.86 C
994 14-02-2009 06:49:12 0.2 C 86 % -1.86 C
995 14-02-2009 07:01:12 0.2 C 86 % -1.86 C
996 14-02-2009 07:13:12 0.1 C 86 % -1.96 C
997 14-02-2009 07:25:12 0.1 C 86 % -1.96 C
998 14-02-2009 07:37:12 0.2 C 86 % -1.86 C
999 14-02-2009 07:49:10 0.3 C 86 % -1.76 C
1000 14-02-2009 08:01:09 0.4 C 85 % -1.82 C
Sensor: Nr:Datum:Temp:Feuchte:Taupunkt:
Aussen-T/F 1001 14-02-2009 08:13:09 0.5 C 83 % -2.04 C
1002 14-02-2009 08:25:09 0.4 C 82 % -2.3 C
1003 14-02-2009 08:37:09 0.3 C 80 % -2.73 C
1004 14-02-2009 08:49:09 0.2 C 79 % -3 C
1005 14-02-2009 09:01:08 0.2 C 78 % -3.17 C
1006 14-02-2009 09:13:08 0.2 C 78 % -3.17 C
1007 14-02-2009 09:25:08 0.4 C 78 % -2.98 C
1008 14-02-2009 09:37:09 0.3 C 78 % -3.07 C
1009 14-02-2009 09:49:08 0.3 C 78 % -3.07 C
1010 14-02-2009 10:01:08 0.4 C 77 % -3.15 C
1011 14-02-2009 10:13:08 0.2 C 75 % -3.69 C
1012 14-02-2009 10:25:08 0.1 C 74 % -3.97 C
1013 14-02-2009 10:37:08 0.3 C 72 % -4.14 C
1014 14-02-2009 10:49:07 0.6 C 70 % -4.23 C
1015 14-02-2009 11:01:08 0.8 C 66 % -4.81 C
1016 14-02-2009 11:13:08 0.6 C 67 % -4.81 C
1017 14-02-2009 11:25:07 0.9 C 67 % -4.52 C
1018 14-02-2009 11:37:07 0.8 C 64 % -5.22 C
1019 14-02-2009 11:49:07 0.8 C 63 % -5.42 C
1020 14-02-2009 12:01:07 0.9 C 61 % -5.75 C
1021 14-02-2009 12:13:07 0.9 C 62 % -5.54 C
1022 14-02-2009 12:25:07 1.4 C 59 % -5.72 C
1023 14-02-2009 12:37:06 1.5 C 57 % -6.07 C
1024 14-02-2009 12:49:07 2 C 55 % -6.07 C
1025 14-02-2009 13:01:06 1.8 C 52 % -6.99 C
Sensor: Nr:Datum:Temp:Feuchte:Taupunkt:
Aussen-T/F 1026 14-02-2009 13:13:06 2.4 C 51 % -6.68 C
1027 14-02-2009 13:25:06 2.6 C 49 % -7.02 C
1028 14-02-2009 13:37:06 2.9 C 46 % -7.56 C
1029 14-02-2009 13:49:06 3.1 C 44 % -7.95 C
1030 14-02-2009 14:01:05 3.4 C 42 % -8.27 C
1031 14-02-2009 14:13:05 3.7 C 41 % -8.31 C
1032 14-02-2009 14:25:06 3.7 C 42 % -8 C
1033 14-02-2009 14:37:06 3.8 C 43 % -7.61 C
1034 14-02-2009 14:49:05 3.6 C 44 % -7.49 C
1035 14-02-2009 15:01:06 4.1 C 42 % -7.64 C
1036 14-02-2009 15:13:06 4.2 C 40 % -8.17 C
1037 14-02-2009 15:25:05 3.6 C 43 % -7.79 C
1038 14-02-2009 15:37:05 3.3 C 44 % -7.76 C
1039 14-02-2009 15:49:05 2.9 C 45 % -7.84 C
1040 14-02-2009 16:01:05 2.9 C 45 % -7.84 C
1041 14-02-2009 16:13:05 3.2 C 44 % -7.85 C
1042 14-02-2009 16:25:04 3.3 C 41 % -8.67 C
1043 14-02-2009 16:37:04 3.9 C 42 % -7.82 C
1044 14-02-2009 16:49:04 3.9 C 39 % -8.77 C
1045 14-02-2009 17:01:04 3.3 C 40 % -8.98 C
1046 14-02-2009 17:13:04 2.6 C 44 % -8.4 C
1047 14-02-2009 17:25:04 2.2 C 46 % -8.2 C
1048 14-02-2009 17:37:04 1.5 C 47 % -8.56 C
1049 14-02-2009 17:49:04 0.8 C 49 % -8.68 C
1050 14-02-2009 18:01:03 0.4 C 52 % -8.29 C
Sensor: Nr:Datum:Temp:Feuchte:Taupunkt:
Aussen-T/F 1051 14-02-2009 18:13:03 0.2 C 52 % -8.47 C
1052 14-02-2009 18:25:04 0.2 C 50 % -8.97 C
1053 14-02-2009 18:37:03 -0.1 C 50 % -9.26 C
1054 14-02-2009 18:49:03 -0.3 C 51 % -9.2 C
1055 14-02-2009 19:01:03 -0.3 C 51 % -9.2 C
1056 14-02-2009 19:13:03 -0.8 C 54 % -8.93 C
1057 14-02-2009 19:25:03 -0.9 C 56 % -8.56 C
1058 14-02-2009 19:37:03 -1 C 59 % -7.99 C
1059 14-02-2009 19:49:03 -1.2 C 60 % -7.96 C
1060 14-02-2009 20:01:03 -1.3 C 62 % -7.63 C
1061 14-02-2009 20:13:03 -1.4 C 63 % -7.52 C
1062 14-02-2009 20:25:02 -1.6 C 64 % -7.51 C
1063 14-02-2009 20:37:02 -1.8 C 65 % -7.5 C
1064 14-02-2009 20:49:02 -2 C 66 % -7.49 C
1065 14-02-2009 21:01:01 -2.1 C 66 % -7.59 C
1066 14-02-2009 21:13:01 -2.3 C 66 % -7.78 C
1067 14-02-2009 21:25:02 -2.4 C 67 % -7.68 C
1068 14-02-2009 21:37:02 -2.6 C 68 % -7.68 C
1069 14-02-2009 21:49:01 -2.3 C 70 % -7.02 C
1070 14-02-2009 22:01:02 -2.2 C 70 % -6.92 C
1071 14-02-2009 22:13:02 -2.3 C 70 % -7.02 C
1072 14-02-2009 22:25:01 -2.4 C 70 % -7.11 C
1073 14-02-2009 22:37:01 -2.3 C 71 % -6.83 C
1074 14-02-2009 22:49:01 -2.3 C 70 % -7.02 C
1075 14-02-2009 23:01:01 -2.2 C 70 % -6.92 C
Sensor: Nr:Datum:Temp:Feuchte:Taupunkt:
Aussen-T/F 1076 14-02-2009 23:13:02 -2.5 C 70 % -7.21 C
1077 14-02-2009 23:25:00 -2.6 C 70 % -7.31 C
1078 14-02-2009 23:37:00 -2.8 C 71 % -7.31 C
1079 14-02-2009 23:49:00 -2.9 C 71 % -7.41 C
1080 15-02-2009 00:01:00 -2.9 C 72 % -7.23 C
1081 15-02-2009 00:13:00 -3.1 C 72 % -7.42 C
1082 15-02-2009 00:25:00 -3.3 C 72 % -7.62 C
1083 15-02-2009 00:37:00 -3.5 C 72 % -7.81 C
1084 15-02-2009 00:49:59 -3.5 C 73 % -7.63 C
1085 15-02-2009 01:12:59 -3.6 C 74 % -7.55 C
1086 15-02-2009 01:13:00 -3.7 C 74 % -7.65 C
1087 15-02-2009 01:25:00 -3.8 C 74 % -7.75 C
1088 15-02-2009 01:37:59 -3.9 C 75 % -7.67 C
1089 15-02-2009 01:49:59 -4 C 75 % -7.77 C
1090 15-02-2009 02:01:59 -4 C 76 % -7.59 C
1091 15-02-2009 02:13:59 -4.1 C 76 % -7.69 C
1092 15-02-2009 02:26:00 -4.2 C 77 % -7.62 C
1093 15-02-2009 02:37:58 -4.2 C 77 % -7.62 C
1094 15-02-2009 02:51:01 -4.4 C 77 % -7.81 C
1095 15-02-2009 03:03:01 -4.5 C 77 % -7.91 C
1096 15-02-2009 03:15:01 -4.6 C 78 % -7.84 C
1097 15-02-2009 03:27:01 -4.7 C 78 % -7.94 C
1098 15-02-2009 03:39:01 -4.7 C 78 % -7.94 C
1099 15-02-2009 03:51:01 -4.8 C 78 % -8.04 C
1100 15-02-2009 04:03:02 -4.9 C 78 % -8.13 C
Sensor: Nr:Datum:Temp:Feuchte:Taupunkt:
Aussen-T/F 1101 15-02-2009 04:15:01 -5 C 78 % -8.23 C
1102 15-02-2009 04:27:01 -5.2 C 78 % -8.43 C
1103 15-02-2009 04:39:02 -5.2 C 78 % -8.43 C
1104 15-02-2009 04:51:02 -5.5 C 78 % -8.72 C
1105 15-02-2009 05:02:59 -5.6 C 78 % -8.82 C
1106 15-02-2009 05:14:59 -5.4 C 78 % -8.62 C
1107 15-02-2009 05:26:59 -5.5 C 79 % -8.56 C
1108 15-02-2009 05:38:58 -5.6 C 78 % -8.82 C
1109 15-02-2009 05:50:58 -5.7 C 78 % -8.91 C
1110 15-02-2009 06:02:59 -5.7 C 79 % -8.75 C
1111 15-02-2009 06:14:59 -5.8 C 79 % -8.85 C
1112 15-02-2009 06:26:59 -5.8 C 79 % -8.85 C
1113 15-02-2009 06:38:58 -6 C 79 % -9.04 C
1114 15-02-2009 06:50:59 -6 C 79 % -9.04 C
1115 15-02-2009 07:02:58 -6.1 C 79 % -9.14 C
1116 15-02-2009 07:14:58 -6.1 C 79 % -9.14 C
1117 15-02-2009 07:26:59 -6.2 C 79 % -9.24 C
1118 15-02-2009 07:38:57 -6.3 C 79 % -9.33 C
1119 15-02-2009 07:50:58 -6.3 C 79 % -9.33 C
1120 15-02-2009 08:02:57 -6.3 C 79 % -9.33 C
1121 15-02-2009 08:14:57 -6.2 C 79 % -9.24 C
1122 15-02-2009 08:26:57 -6 C 79 % -9.04 C
1123 15-02-2009 08:38:58 -5.9 C 79 % -8.95 C
1124 15-02-2009 08:50:57 -5.6 C 79 % -8.65 C
1125 15-02-2009 09:02:57 -5.3 C 79 % -8.36 C
Sensor: Nr:Datum:Temp:Feuchte:Taupunkt:
Aussen-T/F 1126 15-02-2009 09:14:57 -5 C 79 % -8.07 C
1127 15-02-2009 09:26:57 -4.8 C 78 % -8.04 C
1128 15-02-2009 09:38:57 -4.6 C 77 % -8.01 C
1129 15-02-2009 09:50:56 -4.4 C 76 % -7.98 C
1130 15-02-2009 10:02:57 -4.2 C 75 % -7.96 C
1131 15-02-2009 10:14:56 -3.9 C 75 % -7.67 C
1132 15-02-2009 10:26:56 -3.5 C 73 % -7.63 C
1133 15-02-2009 10:38:56 -3.1 C 71 % -7.6 C
1134 15-02-2009 10:50:55 -2.9 C 70 % -7.59 C
1135 15-02-2009 11:02:56 -2.5 C 69 % -7.4 C
1136 15-02-2009 11:14:56 -2 C 67 % -7.3 C
1137 15-02-2009 11:26:56 -1.6 C 65 % -7.31 C
1138 15-02-2009 11:38:55 -1.2 C 64 % -7.13 C
1139 15-02-2009 11:50:56 -0.9 C 63 % -7.05 C
1140 15-02-2009 12:02:55 -0.4 C 62 % -6.78 C
1141 15-02-2009 12:14:55 -0.1 C 60 % -6.92 C
1142 15-02-2009 12:26:55 0.3 C 59 % -6.75 C
1143 15-02-2009 12:38:55 0.8 C 59 % -6.28 C
1144 15-02-2009 12:50:55 1 C 55 % -7.01 C
1145 15-02-2009 13:02:55 1.5 C 52 % -7.27 C
1146 15-02-2009 13:14:54 1.8 C 49 % -7.75 C
1147 15-02-2009 13:26:54 1.8 C 47 % -8.29 C
1148 15-02-2009 13:38:55 2 C 46 % -8.38 C
1149 15-02-2009 13:50:54 1.8 C 46 % -8.56 C
1150 15-02-2009 14:02:54 2 C 45 % -8.66 C
Sensor: Nr:Datum:Temp:Feuchte:Taupunkt:
Aussen-T/F 1151 15-02-2009 14:14:54 2.1 C 45 % -8.57 C
1152 15-02-2009 14:26:54 2.1 C 45 % -8.57 C
1153 15-02-2009 14:38:54 2.2 C 45 % -8.48 C
1154 15-02-2009 14:50:53 2.2 C 45 % -8.48 C
1155 15-02-2009 15:02:54 2.3 C 44 % -8.67 C
1156 15-02-2009 15:14:53 2.4 C 44 % -8.58 C
1157 15-02-2009 15:26:53 2.4 C 45 % -8.3 C
1158 15-02-2009 15:38:54 2.5 C 45 % -8.2 C
1159 15-02-2009 15:50:53 2.4 C 45 % -8.3 C
1160 15-02-2009 16:02:53 2.4 C 45 % -8.3 C
1161 15-02-2009 16:14:53 2.3 C 45 % -8.39 C
1162 15-02-2009 16:26:54 2.2 C 46 % -8.2 C
1163 15-02-2009 16:38:52 2.1 C 47 % -8.01 C
1164 15-02-2009 16:50:53 2 C 48 % -7.83 C
1165 15-02-2009 17:02:52 1.8 C 50 % -7.49 C
1166 15-02-2009 17:14:52 1.6 C 50 % -7.68 C
1167 15-02-2009 17:26:52 1.6 C 50 % -7.68 C
1168 15-02-2009 17:38:52 1.4 C 50 % -7.86 C
1169 15-02-2009 17:50:52 1.2 C 51 % -7.79 C
1170 15-02-2009 18:02:52 1.2 C 51 % -7.79 C
1171 15-02-2009 18:14:51 1.1 C 51 % -7.89 C
1172 15-02-2009 18:26:51 0.9 C 53 % -7.58 C
1173 15-02-2009 18:38:52 0.7 C 54 % -7.52 C
1174 15-02-2009 18:50:51 0.7 C 54 % -7.52 C
1175 15-02-2009 19:02:51 0.7 C 53 % -7.76 C
Sensor: Nr:Datum:Temp:Feuchte:Taupunkt:
Aussen-T/F 1176 15-02-2009 19:14:51 0.8 C 54 % -7.43 C
1177 15-02-2009 19:26:51 1 C 52 % -7.73 C
1178 15-02-2009 19:38:51 1.1 C 51 % -7.89 C
1179 15-02-2009 19:50:50 1.2 C 51 % -7.79 C
1180 15-02-2009 20:02:51 1.3 C 50 % -7.96 C
1181 15-02-2009 20:14:51 1.4 C 50 % -7.86 C
1182 15-02-2009 20:26:51 1.4 C 50 % -7.86 C
1183 15-02-2009 20:38:50 1.4 C 50 % -7.86 C
1184 15-02-2009 20:50:51 1.4 C 51 % -7.61 C
1185 15-02-2009 21:02:50 1.3 C 54 % -6.96 C
1186 15-02-2009 21:14:50 1.2 C 57 % -6.36 C
1187 15-02-2009 21:26:50 1 C 60 % -5.87 C
1188 15-02-2009 21:38:49 0.8 C 64 % -5.22 C
1189 15-02-2009 21:50:00 0.8 C 65 % -5.01 C
1190 15-02-2009 22:03:51 0.6 C 68 % -4.61 C
1191 15-02-2009 22:15:51 0.5 C 70 % -4.32 C
1192 15-02-2009 22:27:51 0.5 C 72 % -3.95 C
1193 15-02-2009 22:39:51 0.5 C 72 % -3.95 C
1194 15-02-2009 22:51:51 0.4 C 73 % -3.86 C
1195 15-02-2009 23:03:51 0.4 C 75 % -3.5 C
1196 15-02-2009 23:15:51 0.3 C 76 % -3.42 C
1197 15-02-2009 23:27:51 0.3 C 77 % -3.25 C
1198 15-02-2009 23:39:51 0.2 C 78 % -3.17 C
1199 15-02-2009 23:51:51 0.2 C 78 % -3.17 C
1200 16-02-2009 00:03:51 0.2 C 78 % -3.17 C
Sensor: Nr:Datum:Temp:Feuchte:Taupunkt:
Aussen-T/F 1201 16-02-2009 00:15:51 0.2 C 79 % -3 C
1202 16-02-2009 00:27:51 0.1 C 80 % -2.93 C
1203 16-02-2009 00:39:51 0.1 C 82 % -2.6 C
1204 16-02-2009 00:51:51 0 C 83 % -2.53 C
1205 16-02-2009 01:03:51 0 C 83 % -2.53 C
1206 16-02-2009 01:15:51 0 C 83 % -2.53 C
1207 16-02-2009 01:27:51 0 C 83 % -2.53 C
1208 16-02-2009 01:39:52 0 C 83 % -2.53 C
1209 16-02-2009 01:51:52 0 C 83 % -2.53 C
1210 16-02-2009 02:03:52 0 C 83 % -2.53 C
1211 16-02-2009 02:15:52 0.1 C 82 % -2.6 C
1212 16-02-2009 02:27:52 0.1 C 81 % -2.76 C
1213 16-02-2009 02:39:52 0.2 C 81 % -2.67 C
1214 16-02-2009 02:51:52 0.2 C 80 % -2.83 C
1215 16-02-2009 03:03:52 0.2 C 80 % -2.83 C
1216 16-02-2009 03:15:52 0.2 C 80 % -2.83 C
1217 16-02-2009 03:27:52 0.2 C 80 % -2.83 C
1218 16-02-2009 03:39:52 0.3 C 80 % -2.73 C
1219 16-02-2009 03:51:52 0.3 C 79 % -2.9 C
1220 16-02-2009 04:03:52 0.3 C 78 % -3.07 C
1221 16-02-2009 04:15:52 0.4 C 78 % -2.98 C
1222 16-02-2009 04:27:52 0.4 C 78 % -2.98 C
1223 16-02-2009 04:39:52 0.4 C 78 % -2.98 C
1224 16-02-2009 04:51:52 0.4 C 78 % -2.98 C
1225 16-02-2009 05:03:52 0.5 C 78 % -2.88 C
Sensor: Nr:Datum:Temp:Feuchte:Taupunkt:
Aussen-T/F 1226 16-02-2009 05:15:52 0.5 C 78 % -2.88 C
1227 16-02-2009 05:27:52 0.5 C 78 % -2.88 C
1228 16-02-2009 05:39:53 0.5 C 78 % -2.88 C
1229 16-02-2009 05:51:53 0.4 C 78 % -2.98 C
1230 16-02-2009 06:03:53 0.4 C 79 % -2.81 C
1231 16-02-2009 06:15:53 0.4 C 81 % -2.47 C
1232 16-02-2009 06:27:53 0.3 C 82 % -2.4 C
1233 16-02-2009 06:39:53 0.4 C 83 % -2.14 C
1234 16-02-2009 06:51:53 0.4 C 83 % -2.14 C
1235 16-02-2009 07:03:51 0.4 C 84 % -1.98 C
1236 16-02-2009 07:15:50 0.4 C 85 % -1.82 C
1237 16-02-2009 07:27:50 0.4 C 85 % -1.82 C
1238 16-02-2009 07:39:51 0.4 C 85 % -1.82 C
1239 16-02-2009 07:51:50 0.5 C 85 % -1.72 C
1240 16-02-2009 08:03:50 0.5 C 85 % -1.72 C
1241 16-02-2009 08:15:50 0.5 C 85 % -1.72 C
1242 16-02-2009 08:27:50 0.5 C 85 % -1.72 C
1243 16-02-2009 08:39:50 0.6 C 85 % -1.62 C
1244 16-02-2009 08:51:49 0.7 C 85 % -1.53 C
1245 16-02-2009 09:03:50 0.8 C 85 % -1.43 C
1246 16-02-2009 09:15:50 1 C 83 % -1.55 C
1247 16-02-2009 09:27:50 1.1 C 83 % -1.46 C
1248 16-02-2009 09:39:49 1.2 C 82 % -1.52 C
1249 16-02-2009 09:51:50 1.3 C 81 % -1.59 C
1250 16-02-2009 10:03:49 1.3 C 80 % -1.76 C
Sensor: Nr:Datum:Temp:Feuchte:Taupunkt:
Aussen-T/F 1251 16-02-2009 10:15:49 1.3 C 80 % -1.76 C
1252 16-02-2009 10:27:49 1.5 C 82 % -1.23 C
1253 16-02-2009 10:39:48 1.5 C 83 % -1.06 C
1254 16-02-2009 10:51:49 1.4 C 84 % -1 C
1255 16-02-2009 11:03:48 1.2 C 85 % -1.03 C
1256 16-02-2009 11:15:48 1.5 C 86 % -0.58 C
1257 16-02-2009 11:27:48 1.6 C 87 % -0.32 C
1258 16-02-2009 11:39:48 1.7 C 86 % -0.38 C
1259 16-02-2009 11:51:48 1.8 C 86 % -0.29 C
1260 16-02-2009 12:03:48 1.9 C 87 % -0.03 C
1261 16-02-2009 12:15:47 2.1 C 86 % 0.01 C
1262 16-02-2009 12:27:47 2.3 C 86 % 0.21 C
1263 16-02-2009 12:39:48 2.6 C 84 % 0.18 C
1264 16-02-2009 12:51:47 2.7 C 83 % 0.11 C
1265 16-02-2009 13:03:47 2.8 C 82 % 0.04 C
1266 16-02-2009 13:15:47 3 C 81 % 0.07 C
1267 16-02-2009 13:27:47 3.4 C 80 % 0.29 C
1268 16-02-2009 13:39:47 3.8 C 78 % 0.33 C
1269 16-02-2009 13:51:46 3.8 C 78 % 0.33 C
1270 16-02-2009 14:03:47 3.9 C 77 % 0.25 C
1271 16-02-2009 14:15:47 4 C 76 % 0.16 C
1272 16-02-2009 14:27:47 3.8 C 77 % 0.15 C
1273 16-02-2009 14:39:46 3.8 C 78 % 0.33 C
1274 16-02-2009 14:51:47 3.6 C 78 % 0.13 C
1275 16-02-2009 15:03:46 3.5 C 79 % 0.21 C
Sensor: Nr:Datum:Temp:Feuchte:Taupunkt:
Aussen-T/F 1276 16-02-2009 15:15:46 3.4 C 81 % 0.46 C
1277 16-02-2009 15:27:46 3.4 C 82 % 0.63 C
1278 16-02-2009 15:39:45 3.4 C 83 % 0.79 C
1279 16-02-2009 15:51:46 3.4 C 84 % 0.96 C
1280 16-02-2009 16:03:45 3.4 C 85 % 1.12 C
1281 16-02-2009 16:15:45 3.4 C 85 % 1.12 C
1282 16-02-2009 16:27:45 3.4 C 86 % 1.29 C
1283 16-02-2009 16:39:46 3.3 C 86 % 1.19 C
1284 16-02-2009 16:51:45 3.3 C 87 % 1.35 C
1285 16-02-2009 17:03:45 3.3 C 87 % 1.35 C
1286 16-02-2009 17:15:45 3.3 C 88 % 1.51 C
1287 16-02-2009 17:27:45 3.2 C 88 % 1.41 C
1288 16-02-2009 17:39:45 3.2 C 88 % 1.41 C
1289 16-02-2009 17:51:44 3.2 C 89 % 1.57 C
1290 16-02-2009 18:03:45 3.2 C 89 % 1.57 C
1291 16-02-2009 18:15:44 3.3 C 90 % 1.82 C
1292 16-02-2009 18:27:44 3.3 C 90 % 1.82 C
1293 16-02-2009 18:39:44 3.3 C 90 % 1.82 C
1294 16-02-2009 18:51:44 3.3 C 90 % 1.82 C
1295 16-02-2009 19:03:44 3.4 C 91 % 2.07 C
1296 16-02-2009 19:15:44 3.4 C 91 % 2.07 C
1297 16-02-2009 19:27:44 3.5 C 91 % 2.17 C
1298 16-02-2009 19:39:43 3.4 C 91 % 2.07 C
1299 16-02-2009 19:51:44 3.4 C 91 % 2.07 C
1300 16-02-2009 20:03:43 3.4 C 91 % 2.07 C
Sensor: Nr:Datum:Temp:Feuchte:Taupunkt:
Aussen-T/F 1301 16-02-2009 20:15:43 3.6 C 91 % 2.27 C
1302 16-02-2009 20:27:43 3.6 C 91 % 2.27 C
1303 16-02-2009 20:39:43 3.5 C 91 % 2.17 C
1304 16-02-2009 20:51:43 3.5 C 91 % 2.17 C
1305 16-02-2009 21:03:43 3.5 C 91 % 2.17 C
1306 16-02-2009 21:15:43 3.5 C 91 % 2.17 C
1307 16-02-2009 21:27:43 3.6 C 91 % 2.27 C
1308 16-02-2009 21:39:42 3.4 C 91 % 2.07 C
1309 16-02-2009 21:52:59 3.5 C 91 % 2.17 C
1310 16-02-2009 22:04:59 3.3 C 91 % 1.98 C
1311 16-02-2009 22:16:59 3.3 C 92 % 2.13 C
1312 16-02-2009 22:28:59 3.3 C 92 % 2.13 C
1313 16-02-2009 22:40:59 3.4 C 92 % 2.23 C
1314 16-02-2009 22:52:59 3.4 C 93 % 2.38 C
1315 16-02-2009 23:04:59 3.5 C 93 % 2.48 C
1316 16-02-2009 23:16:59 3.8 C 93 % 2.77 C
1317 16-02-2009 23:28:59 3.9 C 93 % 2.87 C
1318 16-02-2009 23:40:59 3.9 C 92 % 2.72 C
1319 16-02-2009 23:52:59 4 C 91 % 2.67 C
1320 17-02-2009 00:04:59 4 C 91 % 2.67 C
1321 17-02-2009 00:16:59 4 C 91 % 2.67 C
1322 17-02-2009 00:28:59 3.9 C 91 % 2.57 C
1323 17-02-2009 00:40:59 3.9 C 92 % 2.72 C
1324 17-02-2009 00:51:59 3.9 C 92 % 2.72 C
1325 17-02-2009 01:04:00 3.9 C 92 % 2.72 C
Sensor: Nr:Datum:Temp:Feuchte:Taupunkt:
Aussen-T/F 1326 17-02-2009 01:16:00 3.9 C 92 % 2.72 C
1327 17-02-2009 01:28:00 3.9 C 92 % 2.72 C
1328 17-02-2009 01:40:00 4 C 92 % 2.82 C
1329 17-02-2009 01:52:00 3.9 C 93 % 2.87 C
1330 17-02-2009 02:04:00 3.9 C 93 % 2.87 C
1331 17-02-2009 02:16:00 3.9 C 93 % 2.87 C
1332 17-02-2009 02:28:00 3.9 C 93 % 2.87 C
1333 17-02-2009 02:40:00 3.9 C 93 % 2.87 C
1334 17-02-2009 02:52:00 3.9 C 93 % 2.87 C
1335 17-02-2009 03:04:00 4 C 93 % 2.97 C
1336 17-02-2009 03:16:00 4 C 93 % 2.97 C
1337 17-02-2009 03:28:00 4 C 93 % 2.97 C
1338 17-02-2009 03:40:00 4 C 93 % 2.97 C
1339 17-02-2009 03:52:00 4 C 93 % 2.97 C
1340 17-02-2009 04:04:00 4 C 93 % 2.97 C
1341 17-02-2009 04:16:00 4.1 C 94 % 3.22 C
1342 17-02-2009 04:28:00 4.2 C 94 % 3.32 C
1343 17-02-2009 04:40:00 4.2 C 94 % 3.32 C
1344 17-02-2009 04:52:00 4.3 C 94 % 3.42 C
1345 17-02-2009 05:04:00 4.3 C 94 % 3.42 C
1346 17-02-2009 05:16:01 4.3 C 94 % 3.42 C
1347 17-02-2009 05:28:01 4.4 C 94 % 3.52 C
1348 17-02-2009 05:40:01 4.4 C 94 % 3.52 C
1349 17-02-2009 05:52:01 4.4 C 94 % 3.52 C
1350 17-02-2009 06:04:01 4.5 C 94 % 3.62 C
Sensor: Nr:Datum:Temp:Feuchte:Taupunkt:
Aussen-T/F 1351 17-02-2009 06:16:01 4.4 C 94 % 3.52 C
1352 17-02-2009 06:28:01 4.4 C 94 % 3.52 C
1353 17-02-2009 06:40:01 4.4 C 94 % 3.52 C
1354 17-02-2009 06:52:01 4.5 C 94 % 3.62 C
1355 17-02-2009 07:04:43 4.5 C 94 % 3.62 C
1356 17-02-2009 07:16:43 4.7 C 95 % 3.97 C
1357 17-02-2009 07:28:43 4.7 C 95 % 3.97 C
1358 17-02-2009 07:40:43 4.6 C 95 % 3.87 C
1359 17-02-2009 07:52:43 4.7 C 95 % 3.97 C
1360 17-02-2009 08:04:42 4.6 C 95 % 3.87 C
1361 17-02-2009 08:16:43 4.6 C 95 % 3.87 C
1362 17-02-2009 08:28:44 4.8 C 95 % 4.07 C
1363 17-02-2009 08:40:42 5 C 95 % 4.27 C
1364 17-02-2009 08:52:42 5.1 C 95 % 4.37 C
1365 17-02-2009 09:04:42 5.3 C 95 % 4.57 C
1366 17-02-2009 09:16:42 5.5 C 95 % 4.76 C
1367 17-02-2009 09:28:42 5.5 C 95 % 4.76 C
1368 17-02-2009 09:40:42 5.6 C 95 % 4.86 C
1369 17-02-2009 09:52:42 5.6 C 94 % 4.71 C
1370 17-02-2009 10:04:42 5.7 C 94 % 4.81 C
1371 17-02-2009 10:16:41 5.7 C 94 % 4.81 C
1372 17-02-2009 10:28:41 5.7 C 93 % 4.66 C
1373 17-02-2009 10:40:41 6 C 92 % 4.8 C
1374 17-02-2009 10:52:41 6 C 92 % 4.8 C
1375 17-02-2009 11:04:41 5.9 C 93 % 4.86 C
Sensor: Nr:Datum:Temp:Feuchte:Taupunkt:
Aussen-T/F 1376 17-02-2009 11:16:40 5.9 C 93 % 4.86 C
1377 17-02-2009 11:28:40 6 C 92 % 4.8 C
1378 17-02-2009 11:40:41 6 C 92 % 4.8 C
1379 17-02-2009 11:52:41 6 C 92 % 4.8 C
1380 17-02-2009 12:04:40 6.1 C 92 % 4.9 C
1381 17-02-2009 12:16:41 6.3 C 93 % 5.25 C
1382 17-02-2009 12:28:41 6.3 C 93 % 5.25 C
1383 17-02-2009 12:40:40 6.3 C 93 % 5.25 C
1384 17-02-2009 12:52:40 6.6 C 93 % 5.55 C
1385 17-02-2009 13:04:39 6.7 C 93 % 5.65 C
1386 17-02-2009 13:16:40 6.7 C 92 % 5.49 C
1387 17-02-2009 13:28:40 6.5 C 92 % 5.3 C
1388 17-02-2009 13:40:39 6.5 C 92 % 5.3 C
1389 17-02-2009 13:52:39 6.4 C 90 % 4.88 C
1390 17-02-2009 14:04:40 6.4 C 90 % 4.88 C
1391 17-02-2009 14:16:39 6.5 C 88 % 4.66 C
1392 17-02-2009 14:28:39 6.7 C 86 % 4.53 C
1393 17-02-2009 14:40:39 6.8 C 83 % 4.12 C
1394 17-02-2009 14:52:39 7 C 80 % 3.79 C
1395 17-02-2009 15:04:39 6.9 C 80 % 3.7 C
1396 17-02-2009 15:16:38 6.9 C 79 % 3.52 C
1397 17-02-2009 15:28:38 7 C 75 % 2.88 C
1398 17-02-2009 15:40:38 6.9 C 77 % 3.16 C
1399 17-02-2009 15:52:38 6.8 C 73 % 2.31 C
1400 17-02-2009 16:04:38 5.9 C 72 % 1.25 C
Sensor: Nr:Datum:Temp:Feuchte:Taupunkt:
Aussen-T/F 1401 17-02-2009 16:16:38 5.5 C 72 % 0.86 C
1402 17-02-2009 16:28:38 5.1 C 73 % 0.67 C
1403 17-02-2009 16:40:38 4.9 C 74 % 0.67 C
1404 17-02-2009 16:52:38 4.6 C 72 % 0 C
1405 17-02-2009 17:04:37 4.4 C 72 % -0.19 C
1406 17-02-2009 17:16:38 4 C 71 % -0.77 C
1407 17-02-2009 17:28:38 3.7 C 71 % -1.06 C
1408 17-02-2009 17:40:37 3.6 C 70 % -1.35 C
1409 17-02-2009 17:52:37 3.4 C 68 % -1.93 C
1410 17-02-2009 18:04:37 3.1 C 68 % -2.22 C
1411 17-02-2009 18:16:37 2.9 C 68 % -2.41 C
1412 17-02-2009 18:28:37 2.8 C 69 % -2.31 C
1413 17-02-2009 18:40:37 2.5 C 69 % -2.6 C
1414 17-02-2009 18:52:37 2.3 C 66 % -3.38 C
1415 17-02-2009 19:04:37 2.1 C 61 % -4.62 C
1416 17-02-2009 19:16:36 2.1 C 59 % -5.06 C
1417 17-02-2009 19:28:36 1.9 C 56 % -5.93 C
1418 17-02-2009 19:40:36 1.6 C 55 % -6.45 C
1419 17-02-2009 19:52:36 1.1 C 57 % -6.45 C
1420 17-02-2009 20:04:36 0.7 C 56 % -7.05 C
1421 17-02-2009 20:16:35 0.3 C 54 % -7.9 C
1422 17-02-2009 20:28:35 0 C 55 % -7.94 C
1423 17-02-2009 20:40:36 -0.3 C 56 % -8 C
1424 17-02-2009 20:52:35 -0.4 C 54 % -8.56 C
1425 17-02-2009 21:04:36 -0.5 C 55 % -8.42 C
Sensor: Nr:Datum:Temp:Feuchte:Taupunkt:
Aussen-T/F 1426 17-02-2009 21:16:35 -0.7 C 53 % -9.08 C
1427 17-02-2009 21:28:35 -0.9 C 54 % -9.03 C
1428 17-02-2009 21:41:36 -1 C 54 % -9.12 C
1429 17-02-2009 21:53:36 -1.2 C 54 % -9.31 C
1430 17-02-2009 22:05:36 -1.3 C 54 % -9.4 C
1431 17-02-2009 22:17:36 -1.5 C 57 % -8.9 C
1432 17-02-2009 22:29:36 -1.7 C 58 % -8.87 C
1433 17-02-2009 22:41:36 -1.9 C 60 % -8.62 C
1434 17-02-2009 22:53:36 -2 C 59 % -8.93 C
1435 17-02-2009 23:05:36 -2.2 C 60 % -8.9 C
1436 17-02-2009 23:17:36 -2.3 C 60 % -9 C
1437 17-02-2009 23:29:36 -2.4 C 61 % -8.88 C
1438 17-02-2009 23:41:36 -2.6 C 62 % -8.86 C
1439 17-02-2009 23:53:36 -2.6 C 62 % -8.86 C
1440 18-02-2009 00:05:36 -2.8 C 63 % -8.85 C
1441 18-02-2009 00:17:36 -2.9 C 64 % -8.74 C
1442 18-02-2009 00:29:37 -2.9 C 65 % -8.55 C
1443 18-02-2009 00:41:37 -3 C 66 % -8.45 C
1444 18-02-2009 00:53:37 -3.2 C 65 % -8.83 C
1445 18-02-2009 01:05:37 -3.3 C 65 % -8.93 C
1446 18-02-2009 01:17:37 -3.4 C 65 % -9.02 C
1447 18-02-2009 01:29:37 -3.5 C 66 % -8.92 C
1448 18-02-2009 01:41:37 -3.5 C 66 % -8.92 C
1449 18-02-2009 01:53:37 -3.6 C 66 % -9.02 C
1450 18-02-2009 02:05:37 -3.7 C 66 % -9.11 C
Sensor: Nr:Datum:Temp:Feuchte:Taupunkt:
Aussen-T/F 1451 18-02-2009 02:17:37 -3.7 C 67 % -8.92 C
1452 18-02-2009 02:29:37 -3.7 C 68 % -8.73 C
1453 18-02-2009 02:41:37 -3.8 C 68 % -8.83 C
1454 18-02-2009 02:53:37 -4 C 68 % -9.02 C
1455 18-02-2009 03:05:37 -4 C 69 % -8.83 C
1456 18-02-2009 03:17:37 -4.1 C 69 % -8.93 C
1457 18-02-2009 03:29:37 -4.3 C 69 % -9.12 C
1458 18-02-2009 03:41:37 -4.3 C 70 % -8.94 C
1459 18-02-2009 03:53:37 -4.5 C 70 % -9.13 C
1460 18-02-2009 04:05:37 -4.5 C 70 % -9.13 C
1461 18-02-2009 04:17:37 -4.7 C 70 % -9.32 C
1462 18-02-2009 04:29:37 -4.8 C 70 % -9.42 C
1463 18-02-2009 04:41:38 -4.8 C 70 % -9.42 C
1464 18-02-2009 04:53:38 -4.9 C 70 % -9.52 C
1465 18-02-2009 05:05:38 -4.9 C 70 % -9.52 C
1466 18-02-2009 05:17:38 -5.1 C 71 % -9.53 C
1467 18-02-2009 05:29:38 -5 C 72 % -9.25 C
1468 18-02-2009 05:41:38 -5.1 C 72 % -9.35 C
1469 18-02-2009 05:53:38 -5.4 C 72 % -9.64 C
1470 18-02-2009 06:05:38 -5.5 C 72 % -9.74 C
1471 18-02-2009 06:17:38 -5.6 C 72 % -9.83 C
1472 18-02-2009 06:29:38 -5.7 C 73 % -9.75 C
1473 18-02-2009 06:41:38 -5.5 C 73 % -9.56 C
1474 18-02-2009 06:53:38 -5.5 C 74 % -9.39 C
1475 18-02-2009 07:05:36 -5.7 C 74 % -9.58 C
Sensor: Nr:Datum:Temp:Feuchte:Taupunkt:
Aussen-T/F 1476 18-02-2009 07:17:35 -6.1 C 73 % -10.14 C
1477 18-02-2009 07:29:36 -6.2 C 73 % -10.24 C
1478 18-02-2009 07:41:36 -5.9 C 74 % -9.78 C
1479 18-02-2009 07:53:35 -5.8 C 75 % -9.51 C
1480 18-02-2009 08:05:35 -5.7 C 75 % -9.41 C
1481 18-02-2009 08:17:35 -5.6 C 76 % -9.15 C
1482 18-02-2009 08:29:35 -5.8 C 76 % -9.34 C
1483 18-02-2009 08:41:35 -5.9 C 76 % -9.44 C
1484 18-02-2009 08:53:34 -5.7 C 76 % -9.24 C
1485 18-02-2009 09:05:35 -5.7 C 76 % -9.24 C
1486 18-02-2009 09:17:35 -5.5 C 77 % -8.88 C
1487 18-02-2009 09:29:34 -5.4 C 77 % -8.79 C
1488 18-02-2009 09:41:34 -4.9 C 77 % -8.3 C
1489 18-02-2009 09:53:35 -4.7 C 77 % -8.11 C
1490 18-02-2009 10:05:34 -4.2 C 77 % -7.62 C
1491 18-02-2009 10:17:34 -3.5 C 75 % -7.28 C
1492 18-02-2009 10:29:34 -2.4 C 70 % -7.11 C
1493 18-02-2009 10:41:34 -1.7 C 62 % -8.01 C
1494 18-02-2009 10:53:34 -1.3 C 57 % -8.71 C
1495 18-02-2009 11:05:34 -1.5 C 54 % -9.59 C
1496 18-02-2009 11:17:33 -1.3 C 54 % -9.4 C
1497 18-02-2009 11:29:33 -1 C 52 % -9.6 C
1498 18-02-2009 11:41:33 -0.7 C 46 % -10.87 C
1499 18-02-2009 11:53:33 -0.3 C 48 % -9.97 C
1500 18-02-2009 12:05:33 0 C 48 % -9.67 C
Sensor: Nr:Datum:Temp:Feuchte:Taupunkt:
Aussen-T/F 1501 18-02-2009 12:17:32 0.2 C 48 % -9.49 C
1502 18-02-2009 12:29:33 0.5 C 46 % -9.75 C
1503 18-02-2009 12:41:33 0.7 C 45 % -9.85 C
1504 18-02-2009 12:53:32 1.1 C 40 % -10.96 C
1505 18-02-2009 13:05:32 1.9 C 38 % -10.89 C
1506 18-02-2009 13:17:33 2.3 C 36 % -11.21 C
1507 18-02-2009 13:29:32 2.7 C 35 % -11.2 C
1508 18-02-2009 13:41:32 2.8 C 31 % -12.62 C
1509 18-02-2009 13:53:32 3.6 C 25 % -14.55 C
1510 18-02-2009 14:05:32 3.6 C 25 % -14.55 C
1511 18-02-2009 14:17:32 4.4 C 20 % -16.55 C
1512 18-02-2009 14:29:31 4.8 C 20 % -16.22 C
1513 18-02-2009 14:41:31 5.5 C 20 % -15.64 C
1514 18-02-2009 14:53:32 5.7 C 20 % -15.47 C
1515 18-02-2009 15:05:31 5.9 C 20 % -15.3 C
1516 18-02-2009 15:17:31 5.5 C 20 % -15.64 C
1517 18-02-2009 15:29:31 5.7 C 20 % -15.47 C
1518 18-02-2009 15:41:31 6 C 20 % -15.22 C
1519 18-02-2009 15:53:31 6 C 20 % -15.22 C
1520 18-02-2009 16:05:31 6.7 C 20 % -14.64 C
1521 18-02-2009 16:17:30 6.9 C 20 % -14.47 C
1522 18-02-2009 16:29:31 5.1 C 20 % -15.97 C
1523 18-02-2009 16:41:31 5.5 C 20 % -15.64 C
1524 18-02-2009 16:53:30 5.7 C 20 % -15.47 C
1525 18-02-2009 17:05:30 5.4 C 20 % -15.72 C
Sensor: Nr:Datum:Temp:Feuchte:Taupunkt:
Aussen-T/F 1526 18-02-2009 17:17:30 4.7 C 25 % -13.61 C
1527 18-02-2009 17:29:30 3.2 C 30 % -12.67 C
1528 18-02-2009 17:41:30 1.9 C 37 % -11.22 C
1529 18-02-2009 17:53:30 1 C 41 % -10.75 C
1530 18-02-2009 18:05:29 0.4 C 43 % -10.69 C
1531 18-02-2009 18:17:29 -0.1 C 46 % -10.32 C
1532 18-02-2009 18:29:30 -0.4 C 48 % -10.06 C
1533 18-02-2009 18:41:30 -0.6 C 49 % -9.98 C
1534 18-02-2009 18:53:29 -0.9 C 52 % -9.51 C
1535 18-02-2009 19:05:29 -1 C 50 % -10.1 C
1536 18-02-2009 19:17:29 -1.2 C 51 % -10.03 C
1537 18-02-2009 19:29:29 -1.3 C 51 % -10.12 C
1538 18-02-2009 19:41:29 -1.4 C 53 % -9.73 C
1539 18-02-2009 19:53:28 -1.6 C 53 % -9.92 C
1540 18-02-2009 20:05:29 -1.7 C 54 % -9.77 C
1541 18-02-2009 20:17:28 -1.8 C 55 % -9.63 C
1542 18-02-2009 20:29:28 -1.9 C 55 % -9.73 C
1543 18-02-2009 20:41:28 -2 C 55 % -9.82 C
1544 18-02-2009 20:53:28 -2.1 C 53 % -10.38 C
1545 18-02-2009 21:05:28 -2.2 C 55 % -10.01 C
1546 18-02-2009 21:17:28 -2.3 C 55 % -10.1 C
1547 18-02-2009 21:29:27 -2.3 C 54 % -10.33 C
1548 18-02-2009 21:41:27 -2.4 C 53 % -10.66 C
1549 18-02-2009 21:53:28 -2.6 C 57 % -9.93 C
1550 18-02-2009 22:06:27 -2.7 C 58 % -9.81 C
Sensor: Nr:Datum:Temp:Feuchte:Taupunkt:
Aussen-T/F 1551 18-02-2009 22:18:27 -2.9 C 59 % -9.78 C
1552 18-02-2009 22:30:27 -2.9 C 60 % -9.57 C
1553 18-02-2009 22:42:27 -2.9 C 61 % -9.36 C
1554 18-02-2009 22:54:27 -3.1 C 61 % -9.55 C
1555 18-02-2009 23:06:27 -3.3 C 61 % -9.73 C
1556 18-02-2009 23:18:27 -3.2 C 62 % -9.43 C
1557 18-02-2009 23:30:27 -2.9 C 62 % -9.15 C
1558 18-02-2009 23:42:28 -2.7 C 61 % -9.17 C
1559 18-02-2009 23:54:28 -2.5 C 61 % -8.98 C
1560 19-02-2009 00:06:28 -2.5 C 63 % -8.57 C
1561 19-02-2009 00:18:28 -2.4 C 63 % -8.47 C
1562 19-02-2009 00:30:28 -2.3 C 63 % -8.38 C
1563 19-02-2009 00:42:28 -2.3 C 62 % -8.58 C
1564 19-02-2009 00:54:28 -2.2 C 62 % -8.49 C
1565 19-02-2009 01:06:28 -2.1 C 62 % -8.39 C
1566 19-02-2009 01:18:28 -2.1 C 62 % -8.39 C
1567 19-02-2009 01:30:28 -2.1 C 61 % -8.6 C
1568 19-02-2009 01:42:28 -2.1 C 61 % -8.6 C
1569 19-02-2009 01:54:28 -2.3 C 61 % -8.79 C
1570 19-02-2009 02:06:28 -2.1 C 62 % -8.39 C
1571 19-02-2009 02:18:28 -2 C 61 % -8.5 C
1572 19-02-2009 02:30:28 -2 C 61 % -8.5 C
1573 19-02-2009 02:42:28 -2 C 61 % -8.5 C
1574 19-02-2009 02:54:28 -2.1 C 61 % -8.6 C
1575 19-02-2009 03:06:28 -2.2 C 62 % -8.49 C
Sensor: Nr:Datum:Temp:Feuchte:Taupunkt:
Aussen-T/F 1576 19-02-2009 03:18:28 -2.3 C 62 % -8.58 C
1577 19-02-2009 03:30:29 -2.3 C 63 % -8.38 C
1578 19-02-2009 03:42:29 -2.1 C 63 % -8.19 C
1579 19-02-2009 03:54:29 -2.1 C 63 % -8.19 C
1580 19-02-2009 04:06:29 -2.1 C 63 % -8.19 C
1581 19-02-2009 04:18:29 -2.2 C 62 % -8.49 C
1582 19-02-2009 04:30:29 -2.1 C 63 % -8.19 C
1583 19-02-2009 04:42:29 -2.1 C 63 % -8.19 C
1584 19-02-2009 04:54:29 -2.1 C 63 % -8.19 C
1585 19-02-2009 05:06:29 -2.1 C 63 % -8.19 C
1586 19-02-2009 05:18:29 -2.1 C 63 % -8.19 C
1587 19-02-2009 05:30:27 -2.2 C 63 % -8.28 C
1588 19-02-2009 05:42:27 -2.3 C 63 % -8.38 C
1589 19-02-2009 05:54:27 -2.3 C 64 % -8.17 C
1590 19-02-2009 06:06:27 -2.3 C 64 % -8.17 C
1591 19-02-2009 06:18:27 -2.3 C 64 % -8.17 C
1592 19-02-2009 06:30:27 -2.2 C 64 % -8.08 C
1593 19-02-2009 06:42:27 -2.2 C 64 % -8.08 C
1594 19-02-2009 06:54:27 -2.1 C 63 % -8.19 C
1595 19-02-2009 07:06:27 -2.1 C 61 % -8.6 C
1596 19-02-2009 07:18:02 -2 C 61 % -8.5 C
1597 19-02-2009 07:30:02 -2 C 60 % -8.72 C
1598 19-02-2009 07:42:02 -2 C 61 % -8.5 C
1599 19-02-2009 07:54:01 -2 C 62 % -8.3 C
1600 19-02-2009 08:06:01 -1.9 C 62 % -8.2 C
Sensor: Nr:Datum:Temp:Feuchte:Taupunkt:
Aussen-T/F 1601 19-02-2009 08:18:02 -1.9 C 62 % -8.2 C
1602 19-02-2009 08:30:02 -1.6 C 62 % -7.92 C
1603 19-02-2009 08:42:01 -1.3 C 61 % -7.84 C
1604 19-02-2009 08:54:01 -1 C 60 % -7.77 C
1605 19-02-2009 09:06:01 -0.8 C 57 % -8.24 C
1606 19-02-2009 09:18:01 -0.9 C 56 % -8.56 C
1607 19-02-2009 09:30:01 -0.7 C 56 % -8.38 C
1608 19-02-2009 09:42:00 -0.7 C 55 % -8.61 C
1609 19-02-2009 09:54:01 -0.6 C 55 % -8.51 C
1610 19-02-2009 10:06:01 -0.4 C 55 % -8.33 C
1611 19-02-2009 10:18:00 -0.1 C 53 % -8.52 C
1612 19-02-2009 10:30:00 0.1 C 52 % -8.56 C
1613 19-02-2009 10:42:00 0.5 C 51 % -8.44 C
1614 19-02-2009 10:54:00 0.5 C 49 % -8.95 C
1615 19-02-2009 11:06:00 0.8 C 49 % -8.68 C
1616 19-02-2009 11:18:59 1 C 47 % -9.02 C
1617 19-02-2009 11:29:59 0.9 C 48 % -8.85 C
1618 19-02-2009 11:41:59 1 C 47 % -9.02 C
1619 19-02-2009 11:54:59 1.1 C 46 % -9.2 C
1620 19-02-2009 12:06:59 1.2 C 46 % -9.11 C
1621 19-02-2009 12:29:59 1.6 C 44 % -9.31 C
1622 19-02-2009 12:30:59 2 C 40 % -10.15 C
1623 19-02-2009 12:42:59 2.4 C 37 % -10.77 C
1624 19-02-2009 12:54:59 3 C 33 % -11.67 C
1625 19-02-2009 13:06:58 3.5 C 31 % -12 C
Sensor: Nr:Datum:Temp:Feuchte:Taupunkt:
Aussen-T/F 1626 19-02-2009 13:18:59 3.9 C 31 % -11.65 C
1627 19-02-2009 13:30:58 4.5 C 28 % -12.39 C
1628 19-02-2009 13:42:58 4.2 C 28 % -12.65 C
1629 19-02-2009 13:54:58 4.3 C 28 % -12.57 C
1630 19-02-2009 14:06:59 4.9 C 27 % -12.5 C
1631 19-02-2009 14:18:58 5.7 C 25 % -12.76 C
1632 19-02-2009 14:30:58 5.8 C 20 % -15.39 C
1633 19-02-2009 14:42:58 6.5 C 20 % -14.8 C
1634 19-02-2009 14:54:58 6.8 C 20 % -14.55 C
1635 19-02-2009 15:06:58 7.1 C 20 % -14.3 C
1636 19-02-2009 15:18:57 6.6 C 20 % -14.72 C
1637 19-02-2009 15:30:57 6.3 C 20 % -14.97 C
1638 19-02-2009 15:42:57 6.7 C 20 % -14.64 C
1639 19-02-2009 15:54:57 7.1 C 20 % -14.3 C
1640 19-02-2009 16:06:57 7.1 C 20 % -14.3 C
1641 19-02-2009 16:18:57 7.4 C 20 % -14.05 C
1642 19-02-2009 16:30:54 7 C 20 % -14.39 C
1643 19-02-2009 16:42:54 6.5 C 23 % -13.1 C
1644 19-02-2009 16:54:57 5.8 C 25 % -12.67 C
1645 19-02-2009 17:06:02 5.4 C 30 % -10.75 C
1646 19-02-2009 17:18:02 4.8 C 31 % -10.87 C
1647 19-02-2009 17:30:02 4.4 C 33 % -10.43 C
1648 19-02-2009 17:42:02 4 C 36 % -9.69 C
1649 19-02-2009 17:54:02 3.7 C 39 % -8.95 C
1650 19-02-2009 18:06:02 3.5 C 40 % -8.8 C
Sensor: Nr:Datum:Temp:Feuchte:Taupunkt:
Aussen-T/F 1651 19-02-2009 18:18:02 3.4 C 41 % -8.58 C
1652 19-02-2009 18:30:02 3.3 C 40 % -8.98 C
1653 19-02-2009 18:42:01 3.2 C 41 % -8.76 C
1654 19-02-2009 18:54:01 3.1 C 41 % -8.85 C
1655 19-02-2009 19:06:01 2.9 C 42 % -8.72 C
1656 19-02-2009 19:18:01 2.9 C 44 % -8.13 C
1657 19-02-2009 19:30:01 3 C 42 % -8.63 C
1658 19-02-2009 19:42:01 2.9 C 44 % -8.13 C
1659 19-02-2009 19:54:00 2.8 C 45 % -7.93 C
1660 19-02-2009 20:06:01 2.7 C 46 % -7.74 C
1661 19-02-2009 20:18:01 2.9 C 45 % -7.84 C
1662 19-02-2009 20:30:01 2.5 C 52 % -6.34 C
1663 19-02-2009 20:42:00 2 C 61 % -4.71 C
1664 19-02-2009 20:54:01 1.9 C 65 % -3.97 C
1665 19-02-2009 21:06:00 1.8 C 68 % -3.46 C
1666 19-02-2009 21:18:00 1.7 C 70 % -3.17 C
1667 19-02-2009 21:30:00 1.6 C 72 % -2.89 C
1668 19-02-2009 21:42:00 1.5 C 74 % -2.62 C
1669 19-02-2009 21:54:00 1.3 C 75 % -2.63 C
1670 19-02-2009 22:06:59 1.3 C 76 % -2.45 C
1671 19-02-2009 22:29:59 1.3 C 77 % -2.28 C
1672 19-02-2009 22:30:59 1.3 C 78 % -2.1 C
1673 19-02-2009 22:42:59 1.3 C 78 % -2.1 C
1674 19-02-2009 22:54:59 1.3 C 78 % -2.1 C
1675 19-02-2009 23:06:58 1.2 C 78 % -2.2 C
Sensor: Nr:Datum:Temp:Feuchte:Taupunkt:
Aussen-T/F 1676 19-02-2009 23:18:59 1.3 C 78 % -2.1 C
1677 19-02-2009 23:30:59 1.3 C 78 % -2.1 C
1678 19-02-2009 23:42:59 1.3 C 77 % -2.28 C
1679 19-02-2009 23:54:58 1.4 C 76 % -2.36 C
1680 20-02-2009 00:06:59 1.6 C 76 % -2.16 C
1681 20-02-2009 00:18:59 1.6 C 74 % -2.52 C
1682 20-02-2009 00:30:58 1.6 C 74 % -2.52 C
1683 20-02-2009 00:42:58 1.6 C 74 % -2.52 C
1684 20-02-2009 00:54:58 1.7 C 74 % -2.42 C
1685 20-02-2009 01:06:58 1.7 C 74 % -2.42 C
1686 20-02-2009 01:18:58 1.7 C 74 % -2.42 C
1687 20-02-2009 01:30:57 1.7 C 74 % -2.42 C
1688 20-02-2009 01:42:57 1.6 C 76 % -2.16 C
1689 20-02-2009 01:54:57 1.5 C 77 % -2.08 C
1690 20-02-2009 02:06:57 1.5 C 78 % -1.91 C
1691 20-02-2009 02:18:57 1.5 C 79 % -1.74 C
1692 20-02-2009 02:30:57 1.5 C 81 % -1.4 C
1693 20-02-2009 02:42:57 1.5 C 80 % -1.57 C
1694 20-02-2009 02:55:01 1.6 C 79 % -1.64 C
1695 20-02-2009 03:07:01 1.7 C 78 % -1.71 C
1696 20-02-2009 03:19:01 1.8 C 78 % -1.62 C
1697 20-02-2009 03:31:01 1.7 C 77 % -1.89 C
1698 20-02-2009 03:43:01 1.7 C 77 % -1.89 C
1699 20-02-2009 03:55:02 1.8 C 78 % -1.62 C
1700 20-02-2009 04:07:01 1.7 C 78 % -1.71 C
Sensor: Nr:Datum:Temp:Feuchte:Taupunkt:
Aussen-T/F 1701 20-02-2009 04:19:01 1.7 C 78 % -1.71 C
1702 20-02-2009 04:31:02 1.8 C 78 % -1.62 C
1703 20-02-2009 04:43:02 1.9 C 78 % -1.52 C
1704 20-02-2009 04:55:02 1.9 C 77 % -1.69 C
1705 20-02-2009 05:07:01 1.9 C 77 % -1.69 C
1706 20-02-2009 05:19:01 1.9 C 76 % -1.87 C
1707 20-02-2009 05:31:02 2 C 75 % -1.95 C
1708 20-02-2009 05:43:02 2 C 75 % -1.95 C
1709 20-02-2009 05:55:01 2.1 C 75 % -1.86 C
1710 20-02-2009 06:07:01 2.1 C 75 % -1.86 C
1711 20-02-2009 06:19:02 2.1 C 76 % -1.68 C
1712 20-02-2009 06:31:01 2.1 C 76 % -1.68 C
1713 20-02-2009 06:43:01 2 C 77 % -1.6 C
1714 20-02-2009 06:55:02 1.8 C 82 % -0.94 C
1715 20-02-2009 07:07:01 1.8 C 84 % -0.61 C
1716 20-02-2009 07:19:02 1.8 C 85 % -0.45 C
1717 20-02-2009 07:31:01 1.8 C 86 % -0.29 C
1718 20-02-2009 07:43:01 1.8 C 86 % -0.29 C
1719 20-02-2009 07:55:02 1.9 C 86 % -0.19 C
1720 20-02-2009 08:07:01 1.9 C 86 % -0.19 C
1721 20-02-2009 08:19:01 2 C 84 % -0.41 C
1722 20-02-2009 08:31:02 2.3 C 83 % -0.28 C
1723 20-02-2009 08:43:02 2.4 C 82 % -0.35 C
1724 20-02-2009 08:55:01 2.4 C 82 % -0.35 C
1725 20-02-2009 09:07:02 2.3 C 83 % -0.28 C
Sensor: Nr:Datum:Temp:Feuchte:Taupunkt:
Aussen-T/F 1726 20-02-2009 09:19:01 2.3 C 84 % -0.12 C
1727 20-02-2009 09:31:02 2.4 C 85 % 0.14 C
1728 20-02-2009 09:43:02 2.5 C 86 % 0.4 C
1729 20-02-2009 09:55:01 2.8 C 85 % 0.54 C
1730 20-02-2009 10:07:02 2.8 C 84 % 0.37 C
1731 20-02-2009 10:19:01 3 C 83 % 0.4 C
1732 20-02-2009 10:31:01 3.2 C 82 % 0.43 C
1733 20-02-2009 10:43:01 3.2 C 81 % 0.26 C
1734 20-02-2009 10:55:01 3.3 C 81 % 0.36 C
1735 20-02-2009 11:07:01 3.4 C 80 % 0.29 C
1736 20-02-2009 11:19:02 3.5 C 80 % 0.38 C
1737 20-02-2009 11:31:01 3.5 C 81 % 0.55 C
1738 20-02-2009 11:43:01 3.4 C 82 % 0.63 C
1739 20-02-2009 11:55:02 3.4 C 83 % 0.79 C
1740 20-02-2009 12:07:01 3.3 C 83 % 0.7 C
1741 20-02-2009 12:19:02 3.3 C 84 % 0.86 C
1742 20-02-2009 12:31:01 3.5 C 86 % 1.38 C
1743 20-02-2009 12:43:01 3.7 C 86 % 1.58 C
1744 20-02-2009 12:55:02 3.8 C 86 % 1.68 C
1745 20-02-2009 13:07:01 4.1 C 85 % 1.81 C
1746 20-02-2009 13:19:01 4.4 C 84 % 1.94 C
1747 20-02-2009 13:31:02 4.5 C 83 % 1.87 C
1748 20-02-2009 13:43:02 4.7 C 83 % 2.07 C
1749 20-02-2009 13:55:01 4.9 C 82 % 2.09 C
1750 20-02-2009 14:07:02 5.2 C 80 % 2.04 C
Sensor: Nr:Datum:Temp:Feuchte:Taupunkt:
Aussen-T/F 1751 20-02-2009 14:19:01 5.4 C 77 % 1.7 C
1752 20-02-2009 14:31:02 5.5 C 76 % 1.62 C
1753 20-02-2009 14:43:02 5.7 C 74 % 1.44 C
1754 20-02-2009 14:55:01 5.7 C 73 % 1.25 C
1755 20-02-2009 15:07:02 5.8 C 73 % 1.34 C
1756 20-02-2009 15:19:01 5.7 C 72 % 1.06 C
1757 20-02-2009 15:31:01 5.5 C 71 % 0.67 C
1758 20-02-2009 15:43:01 5.4 C 73 % 0.96 C
1759 20-02-2009 15:55:01 5.5 C 73 % 1.06 C
1760 20-02-2009 16:07:01 5.6 C 75 % 1.53 C
1761 20-02-2009 16:19:01 5.6 C 75 % 1.53 C
1762 20-02-2009 16:31:01 5.4 C 75 % 1.33 C
1763 20-02-2009 16:43:01 5.3 C 77 % 1.6 C
1764 20-02-2009 16:55:01 5.1 C 79 % 1.77 C
1765 20-02-2009 17:07:01 5 C 81 % 2.02 C
1766 20-02-2009 17:19:01 4.9 C 84 % 2.43 C
1767 20-02-2009 17:31:01 4.8 C 86 % 2.66 C
1768 20-02-2009 17:43:01 4.7 C 87 % 2.73 C
1769 20-02-2009 17:55:01 4.7 C 88 % 2.89 C
1770 20-02-2009 18:07:01 4.6 C 87 % 2.63 C
1771 20-02-2009 18:19:02 4.6 C 87 % 2.63 C
1772 20-02-2009 18:31:01 4.6 C 87 % 2.63 C
1773 20-02-2009 18:43:01 4.7 C 87 % 2.73 C
1774 20-02-2009 18:55:02 4.6 C 88 % 2.79 C
1775 20-02-2009 19:07:01 4.6 C 88 % 2.79 C
Sensor: Nr:Datum:Temp:Feuchte:Taupunkt:
Aussen-T/F 1776 20-02-2009 19:19:02 4.5 C 89 % 2.85 C
1777 20-02-2009 19:31:01 4.5 C 89 % 2.85 C
1778 20-02-2009 19:43:01 4.6 C 90 % 3.1 C
1779 20-02-2009 19:54:01 4.5 C 90 % 3.01 C
1780 20-02-2009 20:06:02 4.5 C 90 % 3.01 C
1781 20-02-2009 20:18:01 4.6 C 91 % 3.26 C
1782 20-02-2009 20:30:01 4.6 C 91 % 3.26 C
1783 20-02-2009 20:42:02 4.6 C 91 % 3.26 C
1784 20-02-2009 20:54:01 4.6 C 91 % 3.26 C
1785 20-02-2009 21:06:01 4.7 C 91 % 3.36 C
1786 20-02-2009 21:18:01 4.8 C 90 % 3.3 C
1787 20-02-2009 21:30:01 4.8 C 90 % 3.3 C
1788 20-02-2009 21:42:01 4.8 C 89 % 3.14 C
1789 20-02-2009 21:54:01 4.7 C 88 % 2.89 C
1790 20-02-2009 22:06:01 4.6 C 88 % 2.79 C
1791 20-02-2009 22:19:03 4.6 C 88 % 2.79 C
1792 20-02-2009 22:31:03 4.5 C 88 % 2.69 C
1793 20-02-2009 22:43:03 4.5 C 88 % 2.69 C
1794 20-02-2009 22:55:03 4.5 C 88 % 2.69 C
1795 20-02-2009 23:07:03 4.4 C 88 % 2.59 C
1796 20-02-2009 23:19:03 4.4 C 88 % 2.59 C
1797 20-02-2009 23:31:03 4.3 C 88 % 2.49 C
1798 20-02-2009 23:43:03 4.3 C 88 % 2.49 C
1799 20-02-2009 23:55:03 4.3 C 88 % 2.49 C
1800 21-02-2009 00:07:03 4.2 C 88 % 2.39 C
Sensor: Nr:Datum:Temp:Feuchte:Taupunkt:
Aussen-T/F 1801 21-02-2009 00:19:03 4.2 C 87 % 2.23 C
1802 21-02-2009 00:31:03 4.1 C 87 % 2.14 C
1803 21-02-2009 00:43:03 4.1 C 86 % 1.97 C
1804 21-02-2009 00:55:03 4.1 C 85 % 1.81 C
1805 21-02-2009 01:07:03 4 C 85 % 1.71 C
1806 21-02-2009 01:19:03 4 C 85 % 1.71 C
1807 21-02-2009 01:31:03 4 C 84 % 1.55 C
1808 21-02-2009 01:43:04 4 C 84 % 1.55 C
1809 21-02-2009 01:55:04 4 C 84 % 1.55 C
1810 21-02-2009 02:07:04 4 C 83 % 1.38 C
1811 21-02-2009 02:19:04 4 C 83 % 1.38 C
1812 21-02-2009 02:31:04 4 C 83 % 1.38 C
1813 21-02-2009 02:43:04 3.9 C 84 % 1.45 C
1814 21-02-2009 02:55:04 3.9 C 84 % 1.45 C
1815 21-02-2009 03:07:04 3.9 C 84 % 1.45 C
1816 21-02-2009 03:19:04 3.8 C 84 % 1.35 C
1817 21-02-2009 03:31:04 3.8 C 84 % 1.35 C
1818 21-02-2009 03:43:04 3.8 C 84 % 1.35 C
1819 21-02-2009 03:55:04 3.8 C 84 % 1.35 C
1820 21-02-2009 04:07:04 3.8 C 84 % 1.35 C
1821 21-02-2009 04:19:04 3.8 C 84 % 1.35 C
1822 21-02-2009 04:31:04 3.7 C 84 % 1.25 C
1823 21-02-2009 04:43:04 3.7 C 84 % 1.25 C
1824 21-02-2009 04:55:04 3.7 C 85 % 1.42 C
1825 21-02-2009 05:07:04 3.6 C 85 % 1.32 C
Sensor: Nr:Datum:Temp:Feuchte:Taupunkt:
Aussen-T/F 1826 21-02-2009 05:19:04 3.6 C 85 % 1.32 C
1827 21-02-2009 05:31:04 3.7 C 86 % 1.58 C
1828 21-02-2009 05:43:05 3.8 C 86 % 1.68 C
1829 21-02-2009 05:55:05 3.7 C 86 % 1.58 C
1830 21-02-2009 06:07:05 3.7 C 86 % 1.58 C
1831 21-02-2009 06:19:05 3.7 C 87 % 1.74 C
1832 21-02-2009 06:31:05 3.8 C 87 % 1.84 C
1833 21-02-2009 06:43:05 3.8 C 87 % 1.84 C
1834 21-02-2009 06:55:05 3.8 C 87 % 1.84 C
1835 21-02-2009 07:07:05 3.8 C 88 % 2 C
1836 21-02-2009 07:19:05 3.7 C 88 % 1.9 C
1837 21-02-2009 07:31:05 3.7 C 88 % 1.9 C
1838 21-02-2009 07:43:05 3.7 C 88 % 1.9 C
1839 21-02-2009 07:55:05 3.6 C 88 % 1.8 C
1840 21-02-2009 08:07:03 3.6 C 88 % 1.8 C
1841 21-02-2009 08:19:03 3.6 C 88 % 1.8 C
1842 21-02-2009 08:31:02 3.6 C 88 % 1.8 C
1843 21-02-2009 08:43:02 3.8 C 88 % 2 C
1844 21-02-2009 08:55:03 3.9 C 88 % 2.1 C
1845 21-02-2009 09:07:02 4 C 88 % 2.2 C
1846 21-02-2009 09:19:02 4 C 87 % 2.04 C
1847 21-02-2009 09:31:02 4.1 C 87 % 2.14 C
1848 21-02-2009 09:43:02 4.4 C 87 % 2.43 C
1849 21-02-2009 09:55:02 4.4 C 86 % 2.27 C
1850 21-02-2009 10:07:01 4.5 C 84 % 2.04 C
Sensor: Nr:Datum:Temp:Feuchte:Taupunkt:
Aussen-T/F 1851 21-02-2009 10:19:02 4.7 C 82 % 1.9 C
1852 21-02-2009 10:31:02 5.1 C 80 % 1.94 C
1853 21-02-2009 10:43:02 5.3 C 78 % 1.78 C
1854 21-02-2009 10:55:01 5.5 C 74 % 1.24 C
1855 21-02-2009 11:07:02 5.5 C 73 % 1.06 C
1856 21-02-2009 11:19:01 5.7 C 72 % 1.06 C
1857 21-02-2009 11:31:01 6 C 69 % 0.76 C
1858 21-02-2009 11:43:01 6 C 68 % 0.55 C
1859 21-02-2009 11:55:01 6.4 C 66 % 0.52 C
1860 21-02-2009 12:07:01 6.7 C 64 % 0.38 C
1861 21-02-2009 12:19:00 6.2 C 61 % -0.75 C
1862 21-02-2009 12:31:00 6.4 C 62 % -0.34 C
1863 21-02-2009 12:43:00 6.4 C 62 % -0.34 C
1864 21-02-2009 12:55:00 6.4 C 61 % -0.56 C
1865 21-02-2009 13:07:00 6.5 C 59 % -0.92 C
1866 21-02-2009 13:19:00 6.6 C 56 % -1.54 C
1867 21-02-2009 13:31:00 6.8 C 56 % -1.35 C
1868 21-02-2009 13:43:00 6.7 C 54 % -1.94 C
1869 21-02-2009 13:55:59 6.5 C 54 % -2.12 C
1870 21-02-2009 14:07:00 6.5 C 54 % -2.12 C
1871 21-02-2009 14:19:00 6.5 C 54 % -2.12 C
1872 21-02-2009 14:31:59 6.8 C 53 % -2.09 C
1873 21-02-2009 14:43:59 6.7 C 53 % -2.19 C
1874 21-02-2009 14:54:59 6.5 C 53 % -2.37 C
1875 21-02-2009 15:07:59 6.5 C 53 % -2.37 C
Sensor: Nr:Datum:Temp:Feuchte:Taupunkt:
Aussen-T/F 1876 21-02-2009 15:19:59 6.4 C 52 % -2.72 C
1877 21-02-2009 15:31:59 6.3 C 51 % -3.08 C
1878 21-02-2009 15:43:59 6.2 C 51 % -3.17 C
1879 21-02-2009 15:55:59 6.2 C 53 % -2.65 C
1880 21-02-2009 16:07:59 6.1 C 55 % -2.25 C
1881 21-02-2009 16:19:58 6 C 56 % -2.1 C
1882 21-02-2009 16:31:58 5.8 C 58 % -1.81 C
1883 21-02-2009 16:43:58 5.8 C 58 % -1.81 C
1884 21-02-2009 16:55:58 5.7 C 59 % -1.67 C
1885 21-02-2009 17:07:58 5.7 C 59 % -1.67 C
1886 21-02-2009 17:19:57 5.7 C 58 % -1.9 C
1887 21-02-2009 17:31:58 5.6 C 60 % -1.54 C
1888 21-02-2009 17:43:58 5.4 C 61 % -1.5 C
1889 21-02-2009 17:55:57 5.3 C 61 % -1.6 C
1890 21-02-2009 18:07:57 5.1 C 62 % -1.57 C
1891 21-02-2009 18:19:58 4.9 C 65 % -1.11 C
1892 21-02-2009 18:31:57 4.7 C 67 % -0.89 C
1893 21-02-2009 18:43:57 4.6 C 67 % -0.99 C
1894 21-02-2009 18:55:57 4.5 C 67 % -1.08 C
1895 21-02-2009 19:07:57 4.4 C 68 % -0.98 C
1896 21-02-2009 19:19:57 4.2 C 67 % -1.37 C
1897 21-02-2009 19:31:56 4.1 C 67 % -1.46 C
1898 21-02-2009 19:43:56 4.2 C 67 % -1.37 C
1899 21-02-2009 19:55:57 4.3 C 67 % -1.27 C
1900 21-02-2009 20:07:56 4.3 C 68 % -1.07 C
Sensor: Nr:Datum:Temp:Feuchte:Taupunkt:
Aussen-T/F 1901 21-02-2009 20:19:56 4.3 C 68 % -1.07 C
1902 21-02-2009 20:31:56 4.3 C 68 % -1.07 C
1903 21-02-2009 20:43:56 4.3 C 68 % -1.07 C
1904 21-02-2009 20:55:56 4.2 C 68 % -1.17 C
1905 21-02-2009 21:07:55 4.2 C 69 % -0.97 C
1906 21-02-2009 21:19:56 4.2 C 69 % -0.97 C
1907 21-02-2009 21:31:56 4.3 C 69 % -0.87 C
1908 21-02-2009 21:43:56 4.3 C 69 % -0.87 C
1909 21-02-2009 21:55:55 4.3 C 69 % -0.87 C
1910 21-02-2009 22:07:56 4.3 C 69 % -0.87 C
1911 21-02-2009 22:19:55 4.2 C 69 % -0.97 C
1912 21-02-2009 22:31:55 4.2 C 69 % -0.97 C
1913 21-02-2009 22:43:56 4.2 C 69 % -0.97 C
1914 21-02-2009 22:56:57 4.2 C 69 % -0.97 C
1915 21-02-2009 23:08:57 4.4 C 67 % -1.18 C
1916 21-02-2009 23:20:57 4.5 C 67 % -1.08 C
1917 21-02-2009 23:32:57 4.6 C 66 % -1.19 C
1918 21-02-2009 23:44:57 4.6 C 66 % -1.19 C
1919 21-02-2009 23:56:57 4.6 C 66 % -1.19 C
1920 22-02-2009 00:08:57 4.4 C 68 % -0.98 C
1921 22-02-2009 00:20:57 4.2 C 69 % -0.97 C
1922 22-02-2009 00:32:57 4 C 72 % -0.58 C
1923 22-02-2009 00:44:57 3.7 C 76 % -0.13 C
1924 22-02-2009 00:56:57 3.7 C 78 % 0.23 C
1925 22-02-2009 01:08:57 3.7 C 78 % 0.23 C
Sensor: Nr:Datum:Temp:Feuchte:Taupunkt:
Aussen-T/F 1926 22-02-2009 01:20:57 3.7 C 78 % 0.23 C
1927 22-02-2009 01:32:57 3.8 C 79 % 0.5 C
1928 22-02-2009 01:44:58 3.6 C 80 % 0.48 C
1929 22-02-2009 01:56:58 3.6 C 80 % 0.48 C
1930 22-02-2009 02:08:58 3.5 C 82 % 0.72 C
1931 22-02-2009 02:20:58 3.4 C 82 % 0.63 C
1932 22-02-2009 02:32:58 3.4 C 83 % 0.79 C
1933 22-02-2009 02:44:58 3.5 C 84 % 1.06 C
1934 22-02-2009 02:56:58 3.5 C 84 % 1.06 C
1935 22-02-2009 03:08:58 3.5 C 84 % 1.06 C
1936 22-02-2009 03:20:58 3.4 C 84 % 0.96 C
1937 22-02-2009 03:32:58 3.3 C 85 % 1.03 C
1938 22-02-2009 03:44:58 3.3 C 86 % 1.19 C
1939 22-02-2009 03:56:58 3.3 C 87 % 1.35 C
1940 22-02-2009 04:08:58 3.2 C 87 % 1.25 C
1941 22-02-2009 04:20:58 3.2 C 88 % 1.41 C
1942 22-02-2009 04:32:58 3.3 C 89 % 1.67 C
1943 22-02-2009 04:44:58 3.3 C 89 % 1.67 C
1944 22-02-2009 04:56:58 3.3 C 89 % 1.67 C
1945 22-02-2009 05:08:58 3.3 C 89 % 1.67 C
1946 22-02-2009 05:20:58 3.4 C 89 % 1.76 C
1947 22-02-2009 05:32:59 3.5 C 90 % 2.02 C
1948 22-02-2009 05:44:59 3.5 C 89 % 1.86 C
1949 22-02-2009 05:56:59 3.6 C 89 % 1.96 C
1950 22-02-2009 06:08:59 3.7 C 89 % 2.06 C
Sensor: Nr:Datum:Temp:Feuchte:Taupunkt:
Aussen-T/F 1951 22-02-2009 06:20:59 3.7 C 89 % 2.06 C
1952 22-02-2009 06:32:59 3.8 C 89 % 2.16 C
1953 22-02-2009 06:44:59 3.8 C 89 % 2.16 C
1954 22-02-2009 06:56:59 3.8 C 89 % 2.16 C
1955 22-02-2009 07:08:56 3.9 C 88 % 2.1 C
1956 22-02-2009 07:20:56 4 C 88 % 2.2 C
1957 22-02-2009 07:32:56 4 C 88 % 2.2 C
1958 22-02-2009 07:44:56 4 C 88 % 2.2 C
1959 22-02-2009 07:56:56 4.1 C 88 % 2.3 C
1960 22-02-2009 08:08:56 4.1 C 88 % 2.3 C
1961 22-02-2009 08:20:55 4.2 C 88 % 2.39 C
1962 22-02-2009 08:32:55 4.3 C 88 % 2.49 C
1963 22-02-2009 08:44:55 4.3 C 87 % 2.33 C
1964 22-02-2009 08:56:55 4.3 C 87 % 2.33 C
1965 22-02-2009 09:08:55 4.5 C 87 % 2.53 C
1966 22-02-2009 09:20:55 4.5 C 87 % 2.53 C
1967 22-02-2009 09:32:55 4.6 C 87 % 2.63 C
1968 22-02-2009 09:44:55 4.6 C 86 % 2.47 C
1969 22-02-2009 09:56:55 4.6 C 87 % 2.63 C
1970 22-02-2009 10:08:54 4.7 C 87 % 2.73 C
1971 22-02-2009 10:20:55 4.8 C 87 % 2.82 C
1972 22-02-2009 10:32:54 4.9 C 87 % 2.92 C
1973 22-02-2009 10:44:55 5 C 86 % 2.86 C
1974 22-02-2009 10:56:55 5.1 C 85 % 2.79 C
1975 22-02-2009 11:08:54 5.2 C 85 % 2.89 C
Sensor: Nr:Datum:Temp:Feuchte:Taupunkt:
Aussen-T/F 1976 22-02-2009 11:20:55 5.4 C 86 % 3.25 C
1977 22-02-2009 11:32:54 5.4 C 86 % 3.25 C
1978 22-02-2009 11:44:54 5.8 C 85 % 3.48 C
1979 22-02-2009 11:56:54 6.1 C 84 % 3.61 C
1980 22-02-2009 12:08:54 6.2 C 84 % 3.7 C
1981 22-02-2009 12:20:54 6.2 C 84 % 3.7 C
1982 22-02-2009 12:32:54 6.3 C 84 % 3.8 C
1983 22-02-2009 12:44:54 6.5 C 83 % 3.83 C
1984 22-02-2009 12:56:54 6.9 C 80 % 3.7 C
1985 22-02-2009 13:08:54 7.1 C 76 % 3.16 C
1986 22-02-2009 13:20:53 7.1 C 75 % 2.98 C
1987 22-02-2009 13:32:53 7.2 C 73 % 2.69 C
1988 22-02-2009 13:44:53 7.2 C 73 % 2.69 C
1989 22-02-2009 13:56:53 7.3 C 72 % 2.6 C
1990 22-02-2009 14:08:53 7.5 C 71 % 2.59 C
1991 22-02-2009 14:20:52 7.6 C 70 % 2.49 C
1992 22-02-2009 14:32:53 7.5 C 69 % 2.19 C
1993 22-02-2009 14:44:52 7.5 C 70 % 2.39 C
1994 22-02-2009 14:56:52 7.4 C 71 % 2.5 C
1995 22-02-2009 15:08:52 7.3 C 73 % 2.79 C
1996 22-02-2009 15:20:53 7.1 C 77 % 3.35 C
1997 22-02-2009 15:32:52 7 C 81 % 3.97 C
1998 22-02-2009 15:44:52 7 C 83 % 4.32 C
1999 22-02-2009 15:56:52 6.9 C 85 % 4.56 C
2000 22-02-2009 16:08:52 6.9 C 87 % 4.89 C
Sensor: Nr:Datum:Temp:Feuchte:Taupunkt:
Aussen-T/F 2001 22-02-2009 16:20:52 6.8 C 87 % 4.79 C
2002 22-02-2009 16:32:52 6.8 C 88 % 4.96 C
2003 22-02-2009 16:44:51 6.8 C 88 % 4.96 C
2004 22-02-2009 16:56:51 6.7 C 88 % 4.86 C
2005 22-02-2009 17:08:51 6.7 C 89 % 5.02 C
2006 22-02-2009 17:20:51 6.7 C 89 % 5.02 C
2007 22-02-2009 17:32:51 6.6 C 88 % 4.76 C
2008 22-02-2009 17:44:51 6.6 C 87 % 4.6 C
2009 22-02-2009 17:56:51 6.6 C 86 % 4.43 C
2010 22-02-2009 18:08:51 6.6 C 86 % 4.43 C
2011 22-02-2009 18:20:50 6.6 C 85 % 4.26 C
2012 22-02-2009 18:32:51 6.5 C 84 % 4 C
2013 22-02-2009 18:44:50 6.6 C 83 % 3.92 C
2014 22-02-2009 18:56:50 6.4 C 83 % 3.73 C
2015 22-02-2009 19:08:50 6.3 C 84 % 3.8 C
2016 22-02-2009 19:20:50 6.2 C 86 % 4.04 C
2017 22-02-2009 19:32:50 6.1 C 86 % 3.94 C
2018 22-02-2009 19:44:49 6 C 86 % 3.84 C
2019 22-02-2009 19:56:49 5.9 C 86 % 3.74 C
2020 22-02-2009 20:08:50 5.9 C 85 % 3.58 C
2021 22-02-2009 20:20:50 5.9 C 84 % 3.41 C
2022 22-02-2009 20:32:49 5.9 C 84 % 3.41 C
2023 22-02-2009 20:44:50 6 C 82 % 3.17 C
2024 22-02-2009 20:56:50 6.2 C 80 % 3.01 C
2025 22-02-2009 21:08:49 6.1 C 79 % 2.74 C
Sensor: Nr:Datum:Temp:Feuchte:Taupunkt:
Aussen-T/F 2026 22-02-2009 21:20:49 6 C 80 % 2.82 C
2027 22-02-2009 21:32:49 5.9 C 81 % 2.9 C
2028 22-02-2009 21:44:49 5.9 C 82 % 3.07 C
2029 22-02-2009 21:56:49 5.9 C 82 % 3.07 C
2030 22-02-2009 22:08:48 5.9 C 83 % 3.24 C
2031 22-02-2009 22:20:49 5.9 C 83 % 3.24 C
2032 22-02-2009 22:33:49 5.8 C 84 % 3.31 C
2033 22-02-2009 22:45:49 5.7 C 85 % 3.38 C
2034 22-02-2009 22:57:49 5.7 C 85 % 3.38 C
2035 22-02-2009 23:09:49 5.6 C 85 % 3.28 C
2036 22-02-2009 23:21:49 5.6 C 84 % 3.12 C
2037 22-02-2009 23:33:50 5.7 C 82 % 2.87 C
2038 22-02-2009 23:45:50 5.7 C 81 % 2.7 C
2039 22-02-2009 23:57:50 5.8 C 80 % 2.62 C
2040 23-02-2009 00:09:50 5.8 C 78 % 2.27 C
2041 23-02-2009 00:21:50 5.9 C 76 % 2 C
2042 23-02-2009 00:33:50 5.8 C 75 % 1.72 C
2043 23-02-2009 00:45:50 5.8 C 74 % 1.53 C
2044 23-02-2009 00:57:50 5.6 C 72 % 0.96 C
2045 23-02-2009 01:09:50 5.2 C 72 % 0.58 C
2046 23-02-2009 01:21:50 5 C 72 % 0.38 C
2047 23-02-2009 01:33:50 5.1 C 70 % 0.09 C
2048 23-02-2009 01:45:50 5.2 C 68 % -0.21 C
2049 23-02-2009 01:57:50 5.2 C 67 % -0.41 C
2050 23-02-2009 02:09:50 5.2 C 66 % -0.62 C
Sensor: Nr:Datum:Temp:Feuchte:Taupunkt:
Aussen-T/F 2051 23-02-2009 02:21:50 5.2 C 65 % -0.83 C
2052 23-02-2009 02:33:50 5.3 C 64 % -0.94 C
2053 23-02-2009 02:45:50 5.3 C 63 % -1.16 C
2054 23-02-2009 02:57:50 5.3 C 62 % -1.38 C
2055 23-02-2009 03:09:50 5.4 C 61 % -1.5 C
2056 23-02-2009 03:21:51 5.6 C 57 % -2.23 C
2057 23-02-2009 03:33:51 5.4 C 57 % -2.42 C
2058 23-02-2009 03:45:51 5.3 C 58 % -2.28 C
2059 23-02-2009 03:57:51 5.3 C 58 % -2.28 C
2060 23-02-2009 04:09:51 5.3 C 57 % -2.51 C
2061 23-02-2009 04:21:51 5.2 C 56 % -2.84 C
2062 23-02-2009 04:33:51 5.2 C 56 % -2.84 C
2063 23-02-2009 04:45:51 5.2 C 57 % -2.61 C
2064 23-02-2009 04:57:51 5.3 C 56 % -2.75 C
2065 23-02-2009 05:09:51 5.4 C 58 % -2.18 C
2066 23-02-2009 05:21:51 5.4 C 59 % -1.95 C
2067 23-02-2009 05:33:51 5.4 C 59 % -1.95 C
2068 23-02-2009 05:45:51 5.3 C 59 % -2.05 C
2069 23-02-2009 05:57:51 5 C 62 % -1.66 C
2070 23-02-2009 06:09:51 4.2 C 72 % -0.39 C
2071 23-02-2009 06:21:51 4.2 C 76 % 0.36 C
2072 23-02-2009 06:33:51 4 C 79 % 0.7 C
2073 23-02-2009 06:45:51 3.9 C 82 % 1.12 C
2074 23-02-2009 06:57:51 3.8 C 83 % 1.19 C
2075 23-02-2009 07:09:52 3.9 C 84 % 1.45 C
Sensor: Nr:Datum:Temp:Feuchte:Taupunkt:
Aussen-T/F 2076 23-02-2009 07:21:52 4 C 83 % 1.38 C
2077 23-02-2009 07:33:52 4 C 83 % 1.38 C
2078 23-02-2009 07:45:52 4.3 C 81 % 1.34 C
2079 23-02-2009 07:57:52 4.7 C 77 % 1.02 C
2080 23-02-2009 08:09:52 4.8 C 74 % 0.57 C
2081 23-02-2009 08:21:52 4.9 C 73 % 0.48 C
2082 23-02-2009 08:33:52 5 C 71 % 0.19 C
2083 23-02-2009 08:45:52 5.1 C 70 % 0.09 C
2084 23-02-2009 08:57:52 5.2 C 69 % -0.01 C
2085 23-02-2009 09:09:52 5 C 72 % 0.38 C
2086 23-02-2009 09:21:52 4.9 C 75 % 0.85 C
2087 23-02-2009 09:33:49 5 C 74 % 0.76 C
2088 23-02-2009 09:45:48 5.2 C 71 % 0.38 C
2089 23-02-2009 09:57:48 5.2 C 71 % 0.38 C
2090 23-02-2009 10:09:49 5.3 C 70 % 0.28 C
2091 23-02-2009 10:21:49 5.6 C 68 % 0.17 C
2092 23-02-2009 10:33:48 5.8 C 68 % 0.36 C
2093 23-02-2009 10:45:48 6 C 66 % 0.14 C
2094 23-02-2009 10:57:48 6.3 C 65 % 0.22 C
2095 23-02-2009 11:09:48 6.7 C 63 % 0.17 C
2096 23-02-2009 11:21:48 6.6 C 62 % -0.15 C
2097 23-02-2009 11:33:48 6.6 C 62 % -0.15 C
2098 23-02-2009 11:45:47 6.6 C 62 % -0.15 C
2099 23-02-2009 11:57:47 6.7 C 61 % -0.28 C
2100 23-02-2009 12:09:48 6.7 C 62 % -0.05 C
Sensor: Nr:Datum:Temp:Feuchte:Taupunkt:
Aussen-T/F 2101 23-02-2009 12:21:47 6.8 C 61 % -0.18 C
2102 23-02-2009 12:33:47 6.9 C 60 % -0.31 C
2103 23-02-2009 12:45:47 7 C 59 % -0.45 C
2104 23-02-2009 12:57:47 7.3 C 58 % -0.4 C
2105 23-02-2009 13:09:47 7.3 C 59 % -0.17 C
2106 23-02-2009 13:21:47 6.4 C 66 % 0.52 C
2107 23-02-2009 13:33:47 5.9 C 74 % 1.63 C
2108 23-02-2009 13:45:47 5.9 C 75 % 1.82 C
2109 23-02-2009 13:57:47 6.1 C 75 % 2.01 C
2110 23-02-2009 14:09:46 6.2 C 73 % 1.73 C
2111 23-02-2009 14:21:47 6.4 C 73 % 1.92 C
2112 23-02-2009 14:33:46 6.3 C 70 % 1.24 C
2113 23-02-2009 14:45:46 5.9 C 73 % 1.44 C
2114 23-02-2009 14:57:46 5.7 C 77 % 1.99 C
2115 23-02-2009 15:09:46 5.8 C 78 % 2.27 C
2116 23-02-2009 15:21:46 6 C 77 % 2.28 C
2117 23-02-2009 15:33:46 6.5 C 73 % 2.02 C
2118 23-02-2009 15:45:45 6.9 C 71 % 2.02 C
2119 23-02-2009 15:57:45 6.8 C 64 % 0.48 C
2120 23-02-2009 16:09:46 6.3 C 67 % 0.64 C
2121 23-02-2009 16:21:45 6 C 70 % 0.95 C
2122 23-02-2009 16:33:45 5.8 C 72 % 1.15 C
2123 23-02-2009 16:45:45 5.9 C 72 % 1.25 C
2124 23-02-2009 16:57:45 5.9 C 70 % 0.86 C
2125 23-02-2009 17:09:45 5.9 C 70 % 0.86 C
Sensor: Nr:Datum:Temp:Feuchte:Taupunkt:
Aussen-T/F 2126 23-02-2009 17:21:44 5.7 C 71 % 0.86 C
2127 23-02-2009 17:33:45 5.7 C 70 % 0.67 C
2128 23-02-2009 17:45:44 5.7 C 69 % 0.47 C
2129 23-02-2009 17:57:44 5.7 C 69 % 0.47 C
2130 23-02-2009 18:09:03 5.7 C 68 % 0.27 C
2131 23-02-2009 18:21:02 5.6 C 69 % 0.37 C
2132 23-02-2009 18:33:02 5.4 C 69 % 0.18 C
2133 23-02-2009 18:45:02 5.3 C 70 % 0.28 C
2134 23-02-2009 18:57:02 5.3 C 70 % 0.28 C
2135 23-02-2009 19:09:02 5.4 C 70 % 0.38 C
2136 23-02-2009 19:21:01 5.4 C 70 % 0.38 C
2137 23-02-2009 19:33:02 5.4 C 66 % -0.43 C
2138 23-02-2009 19:45:01 5.6 C 63 % -0.87 C
2139 23-02-2009 19:57:01 5.6 C 61 % -1.31 C
2140 23-02-2009 20:09:01 5.6 C 61 % -1.31 C
2141 23-02-2009 20:21:01 5.6 C 59 % -1.77 C
2142 23-02-2009 20:33:01 5.6 C 58 % -2 C
2143 23-02-2009 20:45:00 5.6 C 58 % -2 C
2144 23-02-2009 20:57:00 5.6 C 57 % -2.23 C
2145 23-02-2009 21:09:01 5.6 C 57 % -2.23 C
2146 23-02-2009 21:21:00 5.7 C 56 % -2.38 C
2147 23-02-2009 21:34:01 5.5 C 57 % -2.33 C
2148 23-02-2009 21:46:01 5.6 C 57 % -2.23 C
2149 23-02-2009 21:58:01 5.5 C 57 % -2.33 C
2150 23-02-2009 22:10:01 5.3 C 59 % -2.05 C
Sensor: Nr:Datum:Temp:Feuchte:Taupunkt:
Aussen-T/F 2151 23-02-2009 22:22:01 5.1 C 61 % -1.79 C
2152 23-02-2009 22:34:01 5 C 63 % -1.44 C
2153 23-02-2009 22:46:01 4.9 C 65 % -1.11 C
2154 23-02-2009 22:58:01 4.6 C 68 % -0.78 C
2155 23-02-2009 23:10:01 4.6 C 69 % -0.58 C
2156 23-02-2009 23:22:01 4.6 C 69 % -0.58 C
2157 23-02-2009 23:34:01 4.6 C 69 % -0.58 C
2158 23-02-2009 23:46:01 4.6 C 68 % -0.78 C
2159 23-02-2009 23:58:01 4.7 C 68 % -0.69 C
2160 24-02-2009 00:10:01 4.7 C 68 % -0.69 C
2161 24-02-2009 00:22:01 4.7 C 67 % -0.89 C
2162 24-02-2009 00:34:01 4.7 C 68 % -0.69 C
2163 24-02-2009 00:46:01 4.7 C 67 % -0.89 C
2164 24-02-2009 00:58:01 4.7 C 67 % -0.89 C
2165 24-02-2009 01:10:02 4.6 C 67 % -0.99 C
2166 24-02-2009 01:22:02 4.6 C 67 % -0.99 C
2167 24-02-2009 01:34:02 4.5 C 68 % -0.88 C
2168 24-02-2009 01:46:02 4.5 C 68 % -0.88 C
2169 24-02-2009 01:58:02 4.5 C 68 % -0.88 C
2170 24-02-2009 02:10:02 4.4 C 69 % -0.78 C
2171 24-02-2009 02:22:02 4.3 C 71 % -0.48 C
2172 24-02-2009 02:34:02 4.2 C 72 % -0.39 C
2173 24-02-2009 02:46:02 4.3 C 72 % -0.29 C
2174 24-02-2009 02:58:02 4.3 C 71 % -0.48 C
2175 24-02-2009 03:10:02 4.2 C 71 % -0.58 C
Sensor: Nr:Datum:Temp:Feuchte:Taupunkt:
Aussen-T/F 2176 24-02-2009 03:22:02 4.2 C 71 % -0.58 C
2177 24-02-2009 03:34:02 4.2 C 71 % -0.58 C
2178 24-02-2009 03:46:02 4.1 C 71 % -0.67 C
2179 24-02-2009 03:58:02 4.1 C 71 % -0.67 C
2180 24-02-2009 04:10:02 4.2 C 70 % -0.77 C
2181 24-02-2009 04:22:02 4.1 C 70 % -0.87 C
2182 24-02-2009 04:34:02 4.1 C 69 % -1.06 C
2183 24-02-2009 04:46:02 4.1 C 69 % -1.06 C
2184 24-02-2009 04:58:02 4.1 C 68 % -1.26 C
2185 24-02-2009 05:10:03 4.1 C 68 % -1.26 C
2186 24-02-2009 05:22:03 4.1 C 68 % -1.26 C
2187 24-02-2009 05:34:03 4 C 68 % -1.36 C
2188 24-02-2009 05:46:03 4 C 68 % -1.36 C
2189 24-02-2009 05:58:03 4.1 C 68 % -1.26 C
2190 24-02-2009 06:10:03 4.1 C 68 % -1.26 C
2191 24-02-2009 06:22:03 4.1 C 68 % -1.26 C
2192 24-02-2009 06:34:03 4 C 68 % -1.36 C
2193 24-02-2009 06:46:03 4.1 C 67 % -1.46 C
2194 24-02-2009 06:58:03 4 C 68 % -1.36 C
2195 24-02-2009 07:10:01 4 C 68 % -1.36 C
2196 24-02-2009 07:22:01 4 C 68 % -1.36 C
2197 24-02-2009 07:34:01 4 C 68 % -1.36 C
2198 24-02-2009 07:46:01 4 C 68 % -1.36 C
2199 24-02-2009 07:58:01 4 C 67 % -1.56 C
2200 24-02-2009 08:10:00 4.1 C 67 % -1.46 C
Sensor: Nr:Datum:Temp:Feuchte:Taupunkt:
Aussen-T/F 2201 24-02-2009 08:22:01 4.1 C 67 % -1.46 C
2202 24-02-2009 08:34:00 4.1 C 67 % -1.46 C
2203 24-02-2009 08:46:00 4.2 C 67 % -1.37 C
2204 24-02-2009 08:58:01 4.2 C 67 % -1.37 C
2205 24-02-2009 09:09:59 4.3 C 67 % -1.27 C
2206 24-02-2009 09:22:00 4.4 C 66 % -1.38 C
2207 24-02-2009 09:34:59 4.6 C 65 % -1.4 C
2208 24-02-2009 09:46:00 4.8 C 65 % -1.21 C
2209 24-02-2009 09:58:00 4.7 C 64 % -1.51 C
2210 24-02-2009 10:10:59 4.9 C 63 % -1.54 C
2211 24-02-2009 10:22:59 5 C 62 % -1.66 C
2212 24-02-2009 10:34:59 5.1 C 62 % -1.57 C
2213 24-02-2009 10:46:59 5.3 C 62 % -1.38 C
2214 24-02-2009 10:59:00 5.1 C 62 % -1.57 C
2215 24-02-2009 11:10:58 5.1 C 62 % -1.57 C
2216 24-02-2009 11:22:59 5.4 C 63 % -1.06 C
2217 24-02-2009 11:34:59 5.4 C 61 % -1.5 C
2218 24-02-2009 11:46:58 5.7 C 61 % -1.22 C
2219 24-02-2009 11:58:58 5.9 C 55 % -2.43 C
2220 24-02-2009 12:10:59 6.1 C 52 % -3 C
2221 24-02-2009 12:22:58 6 C 51 % -3.35 C
2222 24-02-2009 12:34:58 6.1 C 52 % -3 C
2223 24-02-2009 12:46:58 6.3 C 54 % -2.31 C
2224 24-02-2009 12:58:58 6 C 53 % -2.84 C
2225 24-02-2009 13:10:58 6.2 C 52 % -2.91 C
Sensor: Nr:Datum:Temp:Feuchte:Taupunkt:
Aussen-T/F 2226 24-02-2009 13:22:57 6.3 C 51 % -3.08 C
2227 24-02-2009 13:34:57 6.4 C 51 % -2.98 C
2228 24-02-2009 13:46:57 6.7 C 50 % -2.97 C
2229 24-02-2009 13:58:57 6.8 C 48 % -3.42 C
2230 24-02-2009 14:10:57 6.9 C 46 % -3.9 C
2231 24-02-2009 14:22:57 6.4 C 49 % -3.52 C
2232 24-02-2009 14:34:57 6.7 C 49 % -3.24 C
2233 24-02-2009 14:46:56 6.9 C 49 % -3.06 C
2234 24-02-2009 14:58:56 7.1 C 46 % -3.72 C
2235 24-02-2009 15:10:56 7 C 44 % -4.4 C
2236 24-02-2009 15:22:57 6.9 C 44 % -4.49 C
2237 24-02-2009 15:34:56 6.9 C 43 % -4.79 C
2238 24-02-2009 15:46:56 7.5 C 43 % -4.25 C
2239 24-02-2009 15:58:56 7.6 C 41 % -4.79 C
2240 24-02-2009 16:10:56 8.1 C 39 % -5 C
2241 24-02-2009 16:22:56 8.1 C 36 % -6.05 C
2242 24-02-2009 16:34:55 7.9 C 37 % -5.87 C
2243 24-02-2009 16:46:56 8.4 C 36 % -5.78 C
2244 24-02-2009 16:58:57 7.8 C 38 % -5.61 C
2245 24-02-2009 17:10:55 7.2 C 40 % -5.47 C
2246 24-02-2009 17:22:55 6.6 C 42 % -5.37 C
2247 24-02-2009 17:34:55 6.5 C 42 % -5.46 C
2248 24-02-2009 17:46:55 6.5 C 45 % -4.56 C
2249 24-02-2009 17:58:55 6.3 C 46 % -4.45 C
2250 24-02-2009 18:10:55 6.2 C 44 % -5.13 C
Sensor: Nr:Datum:Temp:Feuchte:Taupunkt:
Aussen-T/F 2251 24-02-2009 18:22:54 6.1 C 45 % -4.92 C
2252 24-02-2009 18:34:55 5.9 C 49 % -3.98 C
2253 24-02-2009 18:46:54 5.8 C 50 % -3.8 C
2254 24-02-2009 18:58:54 5.6 C 52 % -3.46 C
2255 24-02-2009 19:10:54 5.4 C 54 % -3.14 C
2256 24-02-2009 19:22:54 5 C 54 % -3.52 C
2257 24-02-2009 19:34:54 4.4 C 57 % -3.36 C
2258 24-02-2009 19:46:53 3.9 C 57 % -3.82 C
2259 24-02-2009 19:58:53 3.5 C 59 % -3.74 C
2260 24-02-2009 20:10:54 3.4 C 59 % -3.84 C
2261 24-02-2009 20:22:54 3.4 C 61 % -3.39 C
2262 24-02-2009 20:34:53 3.5 C 64 % -2.65 C
2263 24-02-2009 20:46:54 3.4 C 67 % -2.13 C
2264 24-02-2009 20:58:54 3.3 C 68 % -2.03 C
2265 24-02-2009 21:10:53 3.1 C 69 % -2.02 C
2266 24-02-2009 21:22:53 2.8 C 71 % -1.92 C
2267 24-02-2009 21:34:52 2.7 C 72 % -1.83 C
2268 24-02-2009 21:46:53 2.8 C 73 % -1.55 C
2269 24-02-2009 21:58:53 2.7 C 72 % -1.83 C
2270 24-02-2009 22:10:52 3 C 73 % -1.35 C
2271 24-02-2009 22:22:52 2.8 C 72 % -1.73 C
2272 24-02-2009 22:34:53 2.6 C 73 % -1.74 C
2273 24-02-2009 22:46:53 2.6 C 73 % -1.74 C
2274 24-02-2009 22:58:53 2.6 C 74 % -1.56 C
2275 24-02-2009 23:10:53 2.6 C 73 % -1.74 C
Sensor: Nr:Datum:Temp:Feuchte:Taupunkt:
Aussen-T/F 2276 24-02-2009 23:22:53 2.4 C 74 % -1.75 C
2277 24-02-2009 23:34:53 2.3 C 74 % -1.85 C
2278 24-02-2009 23:46:53 2 C 75 % -1.95 C
2279 24-02-2009 23:58:53 1.8 C 76 % -1.97 C
2280 25-02-2009 00:10:53 1.7 C 77 % -1.89 C
2281 25-02-2009 00:22:52 1.7 C 77 % -1.89 C
2282 25-02-2009 00:34:52 1.5 C 78 % -1.91 C
2283 25-02-2009 00:46:51 1.3 C 79 % -1.93 C
2284 25-02-2009 00:58:51 1.1 C 79 % -2.12 C
2285 25-02-2009 01:10:52 1.1 C 80 % -1.96 C
2286 25-02-2009 01:22:52 0.9 C 81 % -1.98 C
2287 25-02-2009 01:34:51 0.7 C 82 % -2.01 C
2288 25-02-2009 01:46:51 0.7 C 82 % -2.01 C
2289 25-02-2009 01:58:51 0.6 C 83 % -1.95 C
2290 25-02-2009 02:10:51 0.5 C 83 % -2.04 C
2291 25-02-2009 02:22:51 0.2 C 83 % -2.34 C
2292 25-02-2009 02:34:50 0 C 83 % -2.53 C
2293 25-02-2009 02:47:53 -0.3 C 83 % -2.83 C
2294 25-02-2009 02:59:53 -0.3 C 83 % -2.83 C
2295 25-02-2009 03:11:52 -0.4 C 84 % -2.77 C
2296 25-02-2009 03:23:52 -0.5 C 84 % -2.86 C
2297 25-02-2009 03:35:52 -0.4 C 84 % -2.77 C
2298 25-02-2009 03:47:52 -0.7 C 84 % -3.06 C
2299 25-02-2009 03:59:52 -0.7 C 84 % -3.06 C
2300 25-02-2009 04:11:52 -0.8 C 84 % -3.16 C
Sensor: Nr:Datum:Temp:Feuchte:Taupunkt:
Aussen-T/F 2301 25-02-2009 04:23:52 -0.8 C 84 % -3.16 C
2302 25-02-2009 04:35:51 -0.8 C 85 % -3 C
2303 25-02-2009 04:47:51 -0.9 C 86 % -2.94 C
2304 25-02-2009 04:59:51 -0.7 C 87 % -2.59 C
2305 25-02-2009 05:11:51 -0.7 C 87 % -2.59 C
2306 25-02-2009 05:23:52 -0.6 C 88 % -2.34 C
2307 25-02-2009 05:35:51 -0.7 C 89 % -2.28 C
2308 25-02-2009 05:47:51 -0.6 C 89 % -2.18 C
2309 25-02-2009 05:59:51 -0.6 C 89 % -2.18 C
2310 25-02-2009 06:11:51 -0.7 C 89 % -2.28 C
2311 25-02-2009 06:23:50 -0.9 C 89 % -2.48 C
2312 25-02-2009 06:35:51 -0.8 C 90 % -2.23 C
2313 25-02-2009 06:47:50 -0.9 C 90 % -2.33 C
2314 25-02-2009 06:59:50 -0.8 C 90 % -2.23 C
2315 25-02-2009 07:11:50 -0.7 C 90 % -2.13 C
2316 25-02-2009 07:23:50 -0.7 C 90 % -2.13 C
2317 25-02-2009 07:35:50 -0.6 C 90 % -2.03 C
2318 25-02-2009 07:47:49 -0.7 C 90 % -2.13 C
2319 25-02-2009 07:59:49 -0.8 C 90 % -2.23 C
2320 25-02-2009 08:11:50 -0.8 C 90 % -2.23 C
2321 25-02-2009 08:23:50 -0.9 C 89 % -2.48 C
2322 25-02-2009 08:35:49 -0.9 C 89 % -2.48 C
2323 25-02-2009 08:47:49 -0.8 C 89 % -2.38 C
2324 25-02-2009 08:59:49 -0.3 C 89 % -1.89 C
2325 25-02-2009 09:11:49 -0.1 C 89 % -1.69 C
Sensor: Nr:Datum:Temp:Feuchte:Taupunkt:
Aussen-T/F 2326 25-02-2009 09:23:49 -0.2 C 88 % -1.94 C
2327 25-02-2009 09:35:48 -0.2 C 87 % -2.1 C
2328 25-02-2009 09:47:49 -0.2 C 87 % -2.1 C
2329 25-02-2009 09:59:49 -0.1 C 87 % -2 C
2330 25-02-2009 10:11:48 0.1 C 87 % -1.8 C
2331 25-02-2009 10:23:48 0.3 C 87 % -1.6 C
2332 25-02-2009 10:35:49 1 C 86 % -1.07 C
2333 25-02-2009 10:47:48 1.1 C 83 % -1.46 C
2334 25-02-2009 10:59:48 1.4 C 82 % -1.33 C
2335 25-02-2009 11:11:48 2 C 80 % -1.08 C
2336 25-02-2009 11:23:48 1.7 C 78 % -1.71 C
2337 25-02-2009 11:35:48 2.3 C 77 % -1.31 C
2338 25-02-2009 11:47:47 3.2 C 74 % -0.98 C
2339 25-02-2009 11:59:47 3.5 C 73 % -0.87 C
2340 25-02-2009 12:11:48 3.9 C 72 % -0.68 C
2341 25-02-2009 12:23:47 4.8 C 70 % -0.2 C
2342 25-02-2009 12:35:47 5.8 C 63 % -0.69 C
2343 25-02-2009 12:47:47 6.4 C 53 % -2.47 C
2344 25-02-2009 12:59:47 6.9 C 45 % -4.19 C
2345 25-02-2009 13:11:47 7.4 C 40 % -5.29 C
2346 25-02-2009 13:23:46 7.5 C 40 % -5.2 C
2347 25-02-2009 13:35:46 7.6 C 40 % -5.11 C
2348 25-02-2009 13:47:47 7.8 C 38 % -5.61 C
2349 25-02-2009 13:59:47 7.9 C 38 % -5.52 C
2350 25-02-2009 14:11:46 8 C 38 % -5.43 C
Sensor: Nr:Datum:Temp:Feuchte:Taupunkt:
Aussen-T/F 2351 25-02-2009 14:23:46 8.1 C 38 % -5.34 C
2352 25-02-2009 14:35:46 8.4 C 37 % -5.42 C
2353 25-02-2009 14:47:46 8.7 C 36 % -5.52 C
2354 25-02-2009 14:59:46 8.6 C 35 % -5.97 C
2355 25-02-2009 15:11:45 8.6 C 36 % -5.6 C
2356 25-02-2009 15:23:46 8.7 C 36 % -5.52 C
2357 25-02-2009 15:35:46 8.9 C 35 % -5.71 C
2358 25-02-2009 15:47:45 8.6 C 36 % -5.6 C
2359 25-02-2009 15:59:45 8.4 C 37 % -5.42 C
2360 25-02-2009 16:11:46 8.5 C 38 % -4.98 C
2361 25-02-2009 16:23:45 8.6 C 39 % -4.55 C
2362 25-02-2009 16:35:45 8.6 C 38 % -4.89 C
2363 25-02-2009 16:47:44 8.4 C 40 % -4.4 C
2364 25-02-2009 16:59:44 8.1 C 40 % -4.66 C
2365 25-02-2009 17:11:45 7.8 C 42 % -4.29 C
2366 25-02-2009 17:23:44 7.5 C 45 % -3.65 C
2367 25-02-2009 17:35:44 7.2 C 45 % -3.92 C
2368 25-02-2009 17:47:44 6.9 C 47 % -3.61 C
2369 25-02-2009 17:59:44 6.6 C 47 % -3.89 C
2370 25-02-2009 18:11:44 6.4 C 47 % -4.07 C
2371 25-02-2009 18:23:44 6.2 C 49 % -3.7 C
2372 25-02-2009 18:35:43 6.2 C 50 % -3.43 C
2373 25-02-2009 18:47:44 6 C 50 % -3.62 C
2374 25-02-2009 18:59:44 5.8 C 51 % -3.54 C
2375 25-02-2009 19:11:43 5.6 C 51 % -3.72 C
Sensor: Nr:Datum:Temp:Feuchte:Taupunkt:
Aussen-T/F 2376 25-02-2009 19:23:43 5.4 C 51 % -3.91 C
2377 25-02-2009 19:35:43 5.4 C 51 % -3.91 C
2378 25-02-2009 19:47:43 5.4 C 51 % -3.91 C
2379 25-02-2009 19:59:43 5.3 C 51 % -4 C
2380 25-02-2009 20:11:42 5.1 C 52 % -3.93 C
2381 25-02-2009 20:23:43 5 C 52 % -4.02 C
2382 25-02-2009 20:35:43 5.2 C 52 % -3.83 C
2383 25-02-2009 20:47:42 5.3 C 51 % -4 C
2384 25-02-2009 20:59:42 5.3 C 52 % -3.74 C
2385 25-02-2009 21:11:42 5.5 C 50 % -4.08 C
2386 25-02-2009 21:23:42 5.6 C 50 % -3.99 C
2387 25-02-2009 21:35:42 5.5 C 50 % -4.08 C
2388 25-02-2009 21:47:42 5.5 C 50 % -4.08 C
2389 25-02-2009 21:59:42 5.6 C 50 % -3.99 C
2390 25-02-2009 22:11:41 5.7 C 49 % -4.16 C
2391 25-02-2009 22:23:42 5.7 C 49 % -4.16 C
2392 25-02-2009 22:36:43 5.7 C 49 % -4.16 C
2393 25-02-2009 22:48:43 5.7 C 49 % -4.16 C
2394 25-02-2009 23:00:43 5.7 C 49 % -4.16 C
2395 25-02-2009 23:12:43 5.7 C 49 % -4.16 C
2396 25-02-2009 23:24:43 5.8 C 49 % -4.07 C
2397 25-02-2009 23:36:43 5.7 C 49 % -4.16 C
2398 25-02-2009 23:48:43 5.6 C 50 % -3.99 C
2399 26-02-2009 00:00:43 5.6 C 50 % -3.99 C
2400 26-02-2009 00:12:43 5.5 C 51 % -3.81 C
Sensor: Nr:Datum:Temp:Feuchte:Taupunkt:
Aussen-T/F 2401 26-02-2009 00:24:43 5.6 C 51 % -3.72 C
2402 26-02-2009 00:36:43 5.6 C 52 % -3.46 C
2403 26-02-2009 00:48:43 5.6 C 52 % -3.46 C
2404 26-02-2009 01:00:43 5.6 C 52 % -3.46 C
2405 26-02-2009 01:12:43 5.4 C 53 % -3.39 C
2406 26-02-2009 01:24:43 5.3 C 53 % -3.49 C
2407 26-02-2009 01:36:43 5.3 C 53 % -3.49 C
2408 26-02-2009 01:48:44 5.2 C 54 % -3.33 C
2409 26-02-2009 02:00:44 5.2 C 55 % -3.09 C
2410 26-02-2009 02:12:44 5.2 C 55 % -3.09 C
2411 26-02-2009 02:24:44 5.2 C 56 % -2.84 C
2412 26-02-2009 02:36:44 5.2 C 56 % -2.84 C
2413 26-02-2009 02:48:44 5.1 C 56 % -2.94 C
2414 26-02-2009 03:00:44 5.1 C 57 % -2.7 C
2415 26-02-2009 03:12:44 5 C 57 % -2.79 C
2416 26-02-2009 03:24:44 5 C 58 % -2.56 C
2417 26-02-2009 03:36:44 5.1 C 58 % -2.47 C
2418 26-02-2009 03:48:44 5 C 58 % -2.56 C
2419 26-02-2009 04:00:44 5 C 58 % -2.56 C
2420 26-02-2009 04:12:44 5 C 58 % -2.56 C
2421 26-02-2009 04:24:44 5.2 C 60 % -1.92 C
2422 26-02-2009 04:36:44 5.3 C 62 % -1.38 C
2423 26-02-2009 04:48:44 5.4 C 62 % -1.28 C
2424 26-02-2009 05:00:44 5.5 C 62 % -1.19 C
2425 26-02-2009 05:12:44 5.5 C 62 % -1.19 C
Sensor: Nr:Datum:Temp:Feuchte:Taupunkt:
Aussen-T/F 2426 26-02-2009 05:24:44 5.4 C 62 % -1.28 C
2427 26-02-2009 05:36:44 5.4 C 62 % -1.28 C
2428 26-02-2009 05:48:45 5.4 C 62 % -1.28 C
2429 26-02-2009 06:00:45 5.4 C 62 % -1.28 C
2430 26-02-2009 06:12:45 5.4 C 62 % -1.28 C
2431 26-02-2009 06:24:45 5.3 C 62 % -1.38 C
2432 26-02-2009 06:36:45 5.2 C 63 % -1.25 C
2433 26-02-2009 06:48:45 5.2 C 64 % -1.04 C
2434 26-02-2009 07:00:42 5.2 C 64 % -1.04 C
2435 26-02-2009 07:12:42 5.2 C 65 % -0.83 C
2436 26-02-2009 07:24:42 5.2 C 65 % -0.83 C
2437 26-02-2009 07:36:42 5.3 C 65 % -0.73 C
2438 26-02-2009 07:48:41 5.3 C 65 % -0.73 C
2439 26-02-2009 08:00:42 5.3 C 66 % -0.52 C
2440 26-02-2009 08:12:42 5.3 C 66 % -0.52 C
2441 26-02-2009 08:24:41 5.3 C 67 % -0.32 C
2442 26-02-2009 08:36:41 5.4 C 67 % -0.22 C
2443 26-02-2009 08:48:41 5.4 C 67 % -0.22 C
2444 26-02-2009 09:00:41 5.5 C 67 % -0.13 C
2445 26-02-2009 09:12:41 5.6 C 68 % 0.17 C
2446 26-02-2009 09:24:41 5.6 C 69 % 0.37 C
2447 26-02-2009 09:36:41 5.5 C 72 % 0.86 C
2448 26-02-2009 09:48:41 5.4 C 74 % 1.15 C
2449 26-02-2009 10:00:40 5.3 C 76 % 1.42 C
2450 26-02-2009 10:12:40 5.4 C 77 % 1.7 C
Sensor: Nr:Datum:Temp:Feuchte:Taupunkt:
Aussen-T/F 2451 26-02-2009 10:24:40 5.4 C 76 % 1.52 C
2452 26-02-2009 10:36:40 5.5 C 76 % 1.62 C
2453 26-02-2009 10:48:40 5.6 C 75 % 1.53 C
2454 26-02-2009 11:00:39 5.7 C 75 % 1.62 C
2455 26-02-2009 11:12:39 5.9 C 74 % 1.63 C
2456 26-02-2009 11:24:40 6.3 C 72 % 1.63 C
2457 26-02-2009 11:36:40 6.8 C 68 % 1.32 C
2458 26-02-2009 11:48:39 7.1 C 65 % 0.98 C
2459 26-02-2009 12:00:40 7.3 C 64 % 0.95 C
2460 26-02-2009 12:12:40 7.8 C 62 % 0.99 C
2461 26-02-2009 12:24:39 7.8 C 60 % 0.53 C
2462 26-02-2009 12:36:39 8 C 58 % 0.25 C
2463 26-02-2009 12:48:39 8 C 58 % 0.25 C
2464 26-02-2009 13:00:39 7.9 C 59 % 0.4 C
2465 26-02-2009 13:12:40 7.9 C 60 % 0.63 C
2466 26-02-2009 13:24:38 8 C 59 % 0.49 C
2467 26-02-2009 13:36:38 8.2 C 58 % 0.44 C
2468 26-02-2009 13:48:38 8.3 C 58 % 0.54 C
2469 26-02-2009 14:00:38 8.6 C 57 % 0.58 C
2470 26-02-2009 14:12:38 8.9 C 54 % 0.11 C
2471 26-02-2009 14:24:38 8.8 C 52 % -0.5 C
2472 26-02-2009 14:36:38 9.2 C 44 % -2.4 C
2473 26-02-2009 14:48:38 9.6 C 40 % -3.32 C
2474 26-02-2009 15:00:37 9.5 C 40 % -3.41 C
2475 26-02-2009 15:12:37 9.5 C 40 % -3.41 C
Sensor: Nr:Datum:Temp:Feuchte:Taupunkt:
Aussen-T/F 2476 26-02-2009 15:24:38 9.6 C 39 % -3.65 C
2477 26-02-2009 15:36:37 9.4 C 38 % -4.18 C
2478 26-02-2009 15:48:37 9.4 C 40 % -3.5 C
2479 26-02-2009 16:00:37 9.3 C 39 % -3.92 C
2480 26-02-2009 16:12:37 9.4 C 41 % -3.17 C
2481 26-02-2009 16:24:37 9.2 C 41 % -3.35 C
2482 26-02-2009 16:36:37 9 C 41 % -3.53 C
2483 26-02-2009 16:48:37 9 C 41 % -3.53 C
2484 26-02-2009 17:00:37 8.8 C 41 % -3.71 C
2485 26-02-2009 17:12:37 8.6 C 42 % -3.57 C
2486 26-02-2009 17:24:36 8.6 C 43 % -3.25 C
2487 26-02-2009 17:36:36 8.3 C 44 % -3.22 C
2488 26-02-2009 17:48:36 8.2 C 45 % -3.01 C
2489 26-02-2009 18:00:36 8.1 C 45 % -3.1 C
2490 26-02-2009 18:12:36 8 C 46 % -2.9 C
2491 26-02-2009 18:24:35 7.9 C 46 % -2.99 C
2492 26-02-2009 18:36:02 7.8 C 47 % -2.79 C
2493 26-02-2009 18:48:01 7.8 C 47 % -2.79 C
2494 26-02-2009 19:00:01 7.7 C 48 % -2.6 C
2495 26-02-2009 19:12:01 7.6 C 48 % -2.69 C
2496 26-02-2009 19:24:01 7.6 C 49 % -2.41 C
2497 26-02-2009 19:36:01 7.5 C 51 % -1.97 C
2498 26-02-2009 19:48:00 7.5 C 53 % -1.44 C
2499 26-02-2009 20:00:00 7.4 C 54 % -1.28 C
2500 26-02-2009 20:12:01 7.4 C 55 % -1.03 C
Sensor: Nr:Datum:Temp:Feuchte:Taupunkt:
Aussen-T/F 2501 26-02-2009 20:24:00 7.5 C 53 % -1.44 C
2502 26-02-2009 20:36:00 7.5 C 53 % -1.44 C
2503 26-02-2009 20:48:00 7.4 C 54 % -1.28 C
2504 26-02-2009 21:00:00 7.3 C 55 % -1.13 C
2505 26-02-2009 21:12:00 7.2 C 55 % -1.22 C
2506 26-02-2009 21:24:00 7.2 C 55 % -1.22 C
2507 26-02-2009 21:36:00 7.2 C 55 % -1.22 C
2508 26-02-2009 22:00:00 7.2 C 54 % -1.47 C
2509 26-02-2009 22:00:00 7.2 C 55 % -1.22 C
2510 26-02-2009 22:12:00 7.2 C 55 % -1.22 C
2511 26-02-2009 22:25:00 7.2 C 55 % -1.22 C
2512 26-02-2009 22:37:00 7.1 C 54 % -1.56 C
2513 26-02-2009 22:49:00 7.1 C 54 % -1.56 C
2514 26-02-2009 23:01:00 7.2 C 54 % -1.47 C
2515 26-02-2009 23:13:00 7.2 C 53 % -1.72 C
2516 26-02-2009 23:25:00 7.2 C 54 % -1.47 C
2517 26-02-2009 23:37:01 7.1 C 54 % -1.56 C
2518 26-02-2009 23:49:01 7.3 C 52 % -1.89 C
2519 27-02-2009 00:01:01 7.2 C 52 % -1.98 C
2520 27-02-2009 00:13:01 7.2 C 53 % -1.72 C
2521 27-02-2009 00:25:01 7.2 C 52 % -1.98 C
2522 27-02-2009 00:37:01 7.2 C 53 % -1.72 C
2523 27-02-2009 00:49:01 7.2 C 53 % -1.72 C
2524 27-02-2009 01:01:01 7.2 C 54 % -1.47 C
2525 27-02-2009 01:13:01 7.2 C 54 % -1.47 C
Sensor: Nr:Datum:Temp:Feuchte:Taupunkt:
Aussen-T/F 2526 27-02-2009 01:25:01 7.3 C 54 % -1.38 C
2527 27-02-2009 01:37:01 7.2 C 55 % -1.22 C
2528 27-02-2009 01:49:01 7.2 C 55 % -1.22 C
2529 27-02-2009 02:01:01 7.2 C 55 % -1.22 C
2530 27-02-2009 02:13:01 7.1 C 58 % -0.59 C
2531 27-02-2009 02:25:01 7 C 59 % -0.45 C
2532 27-02-2009 02:37:01 7 C 60 % -0.22 C
2533 27-02-2009 02:49:01 7 C 60 % -0.22 C
2534 27-02-2009 03:01:01 7 C 60 % -0.22 C
2535 27-02-2009 03:13:02 7 C 60 % -0.22 C
2536 27-02-2009 03:25:02 6.9 C 63 % 0.36 C
2537 27-02-2009 03:37:02 6.4 C 70 % 1.34 C
2538 27-02-2009 03:49:02 6 C 74 % 1.73 C
2539 27-02-2009 04:01:02 5.9 C 78 % 2.37 C
2540 27-02-2009 04:13:02 6.1 C 77 % 2.38 C
2541 27-02-2009 04:25:02 5.9 C 79 % 2.54 C
2542 27-02-2009 04:37:02 5.9 C 80 % 2.72 C
2543 27-02-2009 04:49:02 5.9 C 81 % 2.9 C
2544 27-02-2009 05:01:02 5.7 C 82 % 2.87 C
2545 27-02-2009 05:13:02 5.6 C 84 % 3.12 C
2546 27-02-2009 05:25:02 5.6 C 85 % 3.28 C
2547 27-02-2009 05:37:02 5.6 C 86 % 3.45 C
2548 27-02-2009 05:49:02 5.6 C 86 % 3.45 C
2549 27-02-2009 06:01:02 5.6 C 86 % 3.45 C
2550 27-02-2009 06:13:02 5.6 C 85 % 3.28 C
Sensor: Nr:Datum:Temp:Feuchte:Taupunkt:
Aussen-T/F 2551 27-02-2009 06:25:02 5.6 C 85 % 3.28 C
2552 27-02-2009 06:37:02 5.6 C 84 % 3.12 C
2553 27-02-2009 06:49:02 5.6 C 84 % 3.12 C
2554 27-02-2009 07:01:00 5.6 C 83 % 2.95 C
2555 27-02-2009 07:13:00 5.7 C 82 % 2.87 C
2556 27-02-2009 07:25:00 5.9 C 80 % 2.72 C
2557 27-02-2009 07:37:00 6.1 C 77 % 2.38 C
2558 27-02-2009 07:49:00 6.1 C 75 % 2.01 C
2559 27-02-2009 08:01:59 6.2 C 73 % 1.73 C
2560 27-02-2009 08:13:59 6.4 C 71 % 1.54 C
2561 27-02-2009 08:25:00 6.5 C 69 % 1.23 C
2562 27-02-2009 08:37:00 6.6 C 68 % 1.13 C
2563 27-02-2009 08:49:59 6.7 C 67 % 1.02 C
2564 27-02-2009 09:00:59 6.8 C 66 % 0.9 C
2565 27-02-2009 09:12:59 6.9 C 66 % 1 C
2566 27-02-2009 09:25:59 7 C 64 % 0.67 C
2567 27-02-2009 09:37:59 7.2 C 63 % 0.64 C
2568 27-02-2009 09:49:58 7.7 C 61 % 0.67 C
2569 27-02-2009 10:01:59 7.9 C 59 % 0.4 C
2570 27-02-2009 10:13:59 8 C 57 % 0.01 C
2571 27-02-2009 10:25:58 8.1 C 56 % -0.13 C
2572 27-02-2009 10:37:58 8.6 C 56 % 0.33 C
2573 27-02-2009 10:49:58 8.6 C 53 % -0.42 C
2574 27-02-2009 11:01:58 8.7 C 53 % -0.33 C
2575 27-02-2009 11:13:58 8.7 C 52 % -0.59 C
Sensor: Nr:Datum:Temp:Feuchte:Taupunkt:
Aussen-T/F 2576 27-02-2009 11:25:57 8.7 C 54 % -0.07 C
2577 27-02-2009 11:37:58 8.5 C 55 % -0.01 C
2578 27-02-2009 11:49:58 8.3 C 59 % 0.77 C
2579 27-02-2009 12:01:57 8 C 62 % 1.18 C
2580 27-02-2009 12:13:57 7.7 C 67 % 1.97 C
2581 27-02-2009 12:25:58 7.4 C 70 % 2.3 C
2582 27-02-2009 12:37:57 7.2 C 73 % 2.69 C
2583 27-02-2009 12:49:57 7 C 77 % 3.25 C
2584 27-02-2009 13:01:56 6.8 C 80 % 3.6 C
2585 27-02-2009 13:13:56 6.8 C 82 % 3.95 C
2586 27-02-2009 13:25:57 7 C 82 % 4.14 C
2587 27-02-2009 13:37:56 7.1 C 82 % 4.24 C
2588 27-02-2009 13:49:56 7.1 C 80 % 3.89 C
2589 27-02-2009 14:01:57 7.1 C 79 % 3.71 C
2590 27-02-2009 14:13:57 7.3 C 78 % 3.73 C
2591 27-02-2009 14:25:56 7.5 C 78 % 3.92 C
2592 27-02-2009 14:37:56 7.5 C 78 % 3.92 C
2593 27-02-2009 14:49:56 7.7 C 77 % 3.93 C
2594 27-02-2009 15:01:56 7.5 C 74 % 3.17 C
2595 27-02-2009 15:13:56 7.6 C 73 % 3.08 C
2596 27-02-2009 15:25:56 7.5 C 72 % 2.79 C
2597 27-02-2009 15:37:55 7.7 C 71 % 2.78 C
2598 27-02-2009 15:49:56 7.9 C 70 % 2.78 C
2599 27-02-2009 16:01:55 8 C 67 % 2.26 C
2600 27-02-2009 16:13:55 8 C 66 % 2.05 C
Sensor: Nr:Datum:Temp:Feuchte:Taupunkt:
Aussen-T/F 2601 27-02-2009 16:25:55 8 C 66 % 2.05 C
2602 27-02-2009 16:37:55 8 C 64 % 1.62 C
2603 27-02-2009 16:49:54 7.9 C 66 % 1.95 C
2604 27-02-2009 17:01:54 7.9 C 66 % 1.95 C
2605 27-02-2009 17:13:54 7.9 C 66 % 1.95 C
2606 27-02-2009 17:25:55 7.8 C 68 % 2.27 C
2607 27-02-2009 17:37:54 7.6 C 70 % 2.49 C
2608 27-02-2009 17:49:54 7.5 C 71 % 2.59 C
2609 27-02-2009 18:01:54 7.5 C 71 % 2.59 C
2610 27-02-2009 18:13:54 7.6 C 71 % 2.69 C
2611 27-02-2009 18:25:54 7.6 C 70 % 2.49 C
2612 27-02-2009 18:37:53 7.6 C 70 % 2.49 C
2613 27-02-2009 18:49:54 7.6 C 70 % 2.49 C
2614 27-02-2009 19:01:53 7.6 C 69 % 2.29 C
2615 27-02-2009 19:13:53 7.7 C 69 % 2.38 C
2616 27-02-2009 19:25:53 7.8 C 69 % 2.48 C
2617 27-02-2009 19:37:54 7.8 C 68 % 2.27 C
2618 27-02-2009 19:49:53 7.9 C 68 % 2.37 C
2619 27-02-2009 20:01:53 7.8 C 68 % 2.27 C
2620 27-02-2009 20:13:53 7.8 C 68 % 2.27 C
2621 27-02-2009 20:25:53 7.7 C 70 % 2.58 C
2622 27-02-2009 20:37:53 7.7 C 70 % 2.58 C
2623 27-02-2009 20:49:52 7.5 C 72 % 2.79 C
2624 27-02-2009 21:01:53 7.2 C 75 % 3.07 C
2625 27-02-2009 21:13:54 7 C 78 % 3.43 C
Sensor: Nr:Datum:Temp:Feuchte:Taupunkt:
Aussen-T/F 2626 27-02-2009 21:25:52 7 C 80 % 3.79 C
2627 27-02-2009 21:37:52 6.9 C 82 % 4.05 C
2628 27-02-2009 21:49:52 6.8 C 84 % 4.29 C
2629 27-02-2009 22:01:52 6.7 C 84 % 4.19 C
2630 27-02-2009 22:13:52 6.7 C 85 % 4.36 C
2631 27-02-2009 22:25:52 6.8 C 84 % 4.29 C
2632 27-02-2009 22:37:51 6.9 C 84 % 4.39 C
2633 27-02-2009 22:49:52 6.9 C 83 % 4.22 C
2634 27-02-2009 23:01:51 6.9 C 82 % 4.05 C
2635 27-02-2009 23:13:51 6.9 C 81 % 3.87 C
2636 27-02-2009 23:25:51 6.9 C 82 % 4.05 C
2637 27-02-2009 23:37:51 6.8 C 82 % 3.95 C
2638 27-02-2009 23:50:52 6.9 C 82 % 4.05 C
2639 28-02-2009 00:02:52 6.9 C 82 % 4.05 C
2640 28-02-2009 00:14:52 6.9 C 81 % 3.87 C
2641 28-02-2009 00:26:53 6.9 C 81 % 3.87 C
2642 28-02-2009 00:38:53 6.9 C 80 % 3.7 C
2643 28-02-2009 00:50:53 6.9 C 80 % 3.7 C
2644 28-02-2009 01:02:53 6.9 C 79 % 3.52 C
2645 28-02-2009 01:14:53 6.9 C 79 % 3.52 C
2646 28-02-2009 01:26:53 6.9 C 79 % 3.52 C
2647 28-02-2009 01:38:53 7 C 77 % 3.25 C
2648 28-02-2009 01:50:53 7 C 77 % 3.25 C
2649 28-02-2009 02:02:53 7.1 C 76 % 3.16 C
2650 28-02-2009 02:14:53 7.1 C 76 % 3.16 C
Sensor: Nr:Datum:Temp:Feuchte:Taupunkt:
Aussen-T/F 2651 28-02-2009 02:26:53 7.3 C 75 % 3.17 C
2652 28-02-2009 02:38:53 7.4 C 74 % 3.08 C
2653 28-02-2009 02:50:53 7.5 C 73 % 2.98 C
2654 28-02-2009 03:02:53 7.5 C 73 % 2.98 C
2655 28-02-2009 03:14:53 7.5 C 73 % 2.98 C
2656 28-02-2009 03:26:53 7.5 C 73 % 2.98 C
2657 28-02-2009 03:38:53 7.5 C 73 % 2.98 C
2658 28-02-2009 03:50:53 7.5 C 73 % 2.98 C
2659 28-02-2009 04:02:54 7.6 C 73 % 3.08 C
2660 28-02-2009 04:14:54 7.6 C 73 % 3.08 C
2661 28-02-2009 04:26:54 7.6 C 72 % 2.88 C
2662 28-02-2009 04:38:54 7.6 C 72 % 2.88 C
2663 28-02-2009 04:50:54 7.7 C 72 % 2.98 C
2664 28-02-2009 05:02:54 7.7 C 72 % 2.98 C
2665 28-02-2009 05:14:54 7.8 C 71 % 2.88 C
2666 28-02-2009 05:26:54 7.8 C 71 % 2.88 C
2667 28-02-2009 05:38:54 7.8 C 71 % 2.88 C
2668 28-02-2009 05:50:54 7.7 C 71 % 2.78 C
2669 28-02-2009 06:02:54 7.6 C 72 % 2.88 C
2670 28-02-2009 06:14:54 7.6 C 72 % 2.88 C
2671 28-02-2009 06:26:54 7.5 C 72 % 2.79 C
2672 28-02-2009 06:38:54 7.5 C 73 % 2.98 C
2673 28-02-2009 06:50:54 7.4 C 73 % 2.89 C
2674 28-02-2009 07:02:54 7.4 C 73 % 2.89 C
2675 28-02-2009 07:14:54 7.4 C 74 % 3.08 C
Sensor: Nr:Datum:Temp:Feuchte:Taupunkt:
Aussen-T/F 2676 28-02-2009 07:26:54 7.3 C 74 % 2.98 C
2677 28-02-2009 07:38:54 7.3 C 75 % 3.17 C
2678 28-02-2009 07:50:55 7.4 C 75 % 3.27 C
2679 28-02-2009 08:02:51 7.5 C 74 % 3.17 C
2680 28-02-2009 08:14:51 7.6 C 74 % 3.27 C
2681 28-02-2009 08:26:51 7.6 C 73 % 3.08 C
2682 28-02-2009 08:38:51 7.9 C 73 % 3.37 C
2683 28-02-2009 08:50:51 8 C 72 % 3.27 C
2684 28-02-2009 09:02:51 8.1 C 71 % 3.17 C
2685 28-02-2009 09:14:51 8.2 C 71 % 3.26 C
2686 28-02-2009 09:26:51 9 C 67 % 3.21 C
2687 28-02-2009 09:38:51 9.5 C 64 % 3.04 C
2688 28-02-2009 09:50:51 9.3 C 64 % 2.85 C
2689 28-02-2009 10:02:51 9.3 C 64 % 2.85 C
2690 28-02-2009 10:14:50 9.7 C 63 % 3.01 C
2691 28-02-2009 10:26:50 9.8 C 62 % 2.88 C
2692 28-02-2009 10:38:50 9.7 C 63 % 3.01 C
2693 28-02-2009 10:50:50 9.8 C 62 % 2.88 C
2694 28-02-2009 11:02:50 9.9 C 62 % 2.97 C
2695 28-02-2009 11:14:49 10.1 C 61 % 2.93 C
2696 28-02-2009 11:26:49 10.8 C 59 % 3.12 C
2697 28-02-2009 11:38:50 11.2 C 57 % 3.01 C
2698 28-02-2009 11:50:49 10.7 C 59 % 3.03 C
2699 28-02-2009 12:02:49 10.3 C 60 % 2.89 C
2700 28-02-2009 12:14:50 10.3 C 61 % 3.12 C
Sensor: Nr:Datum:Temp:Feuchte:Taupunkt:
Aussen-T/F 2701 28-02-2009 12:26:50 11 C 58 % 3.07 C
2702 28-02-2009 12:38:49 11.4 C 56 % 2.95 C
2703 28-02-2009 12:50:49 12 C 54 % 2.99 C
2704 28-02-2009 13:02:49 12.2 C 52 % 2.65 C
2705 28-02-2009 13:14:49 12.4 C 50 % 2.28 C
2706 28-02-2009 13:26:49 12.7 C 50 % 2.56 C
2707 28-02-2009 13:38:49 13.5 C 47 % 2.42 C
2708 28-02-2009 13:50:49 13.9 C 45 % 2.18 C
2709 28-02-2009 14:02:48 14.2 C 42 % 1.49 C
2710 28-02-2009 14:14:48 14.3 C 42 % 1.58 C
2711 28-02-2009 14:26:49 14 C 43 % 1.63 C
2712 28-02-2009 14:38:47 14.2 C 41 % 1.15 C
2713 28-02-2009 14:50:48 14.9 C 38 % 0.73 C
2714 28-02-2009 15:02:47 15.3 C 36 % 0.34 C
2715 28-02-2009 15:14:47 16.1 C 35 % 0.65 C
2716 28-02-2009 15:26:47 16.8 C 34 % 0.87 C
2717 28-02-2009 15:38:48 18 C 31 % 0.64 C
2718 28-02-2009 15:50:47 18.1 C 31 % 0.73 C
2719 28-02-2009 16:02:47 17.6 C 33 % 1.16 C
2720 28-02-2009 16:14:47 16.8 C 36 % 1.66 C
2721 28-02-2009 16:26:47 16.6 C 37 % 1.87 C
2722 28-02-2009 16:38:47 16.1 C 38 % 1.79 C
2723 28-02-2009 16:50:47 15.6 C 40 % 2.06 C
2724 28-02-2009 17:02:48 15.2 C 41 % 2.05 C
2725 28-02-2009 17:14:46 15 C 42 % 2.21 C
Sensor: Nr:Datum:Temp:Feuchte:Taupunkt:
Aussen-T/F 2726 28-02-2009 17:26:46 14.7 C 46 % 3.22 C
2727 28-02-2009 17:38:47 14.3 C 47 % 3.15 C
2728 28-02-2009 17:50:46 13.8 C 49 % 3.28 C
2729 28-02-2009 18:02:46 13.4 C 50 % 3.2 C
2730 28-02-2009 18:14:46 12.9 C 52 % 3.29 C
2731 28-02-2009 18:26:46 12.2 C 54 % 3.18 C
2732 28-02-2009 18:38:46 12 C 55 % 3.25 C
2733 28-02-2009 18:50:45 11.7 C 56 % 3.23 C
2734 28-02-2009 19:02:45 11.6 C 56 % 3.13 C
2735 28-02-2009 19:14:46 11.4 C 56 % 2.95 C
2736 28-02-2009 19:26:46 11.2 C 57 % 3.01 C
2737 28-02-2009 19:38:45 11.1 C 57 % 2.92 C
2738 28-02-2009 19:50:44 11 C 57 % 2.82 C
2739 28-02-2009 20:02:45 10.7 C 59 % 3.03 C
2740 28-02-2009 20:14:45 10.2 C 60 % 2.79 C
2741 28-02-2009 20:26:45 10 C 61 % 2.84 C
2742 28-02-2009 20:38:44 9.7 C 63 % 3.01 C
2743 28-02-2009 20:50:45 9.6 C 63 % 2.91 C
2744 28-02-2009 21:02:44 9.5 C 64 % 3.04 C
2745 28-02-2009 21:14:45 9.4 C 65 % 3.16 C
2746 28-02-2009 21:26:45 9.2 C 65 % 2.97 C
2747 28-02-2009 21:38:44 9.1 C 66 % 3.09 C
2748 28-02-2009 21:50:44 8.8 C 67 % 3.02 C
2749 28-02-2009 22:02:44 8.7 C 68 % 3.13 C
2750 28-02-2009 22:14:44 8.7 C 69 % 3.34 C
Sensor: Nr:Datum:Temp:Feuchte:Taupunkt:
Aussen-T/F 2751 28-02-2009 22:26:44 8.7 C 69 % 3.34 C
2752 28-02-2009 22:38:43 8.4 C 69 % 3.05 C
2753 28-02-2009 22:51:44 8.2 C 70 % 3.06 C
2754 28-02-2009 23:03:44 7.9 C 72 % 3.17 C
2755 28-02-2009 23:15:44 7.7 C 72 % 2.98 C
2756 28-02-2009 23:27:44 7.5 C 73 % 2.98 C
2757 28-02-2009 23:39:44 7.4 C 74 % 3.08 C
2758 28-02-2009 23:51:45 7.2 C 74 % 2.89 C
2759 01-03-2009 00:03:45 7.1 C 75 % 2.98 C
2760 01-03-2009 00:15:45 7 C 75 % 2.88 C
2761 01-03-2009 00:27:45 7.4 C 77 % 3.64 C
2762 01-03-2009 00:39:45 7.7 C 76 % 3.75 C
2763 01-03-2009 00:51:45 7.7 C 75 % 3.56 C
2764 01-03-2009 01:03:45 7.5 C 74 % 3.17 C
2765 01-03-2009 01:15:45 7.6 C 74 % 3.27 C
2766 01-03-2009 01:27:45 7.7 C 74 % 3.37 C
2767 01-03-2009 01:39:45 7.8 C 74 % 3.46 C
2768 01-03-2009 01:51:45 7.9 C 74 % 3.56 C
2769 01-03-2009 02:03:45 7.8 C 73 % 3.27 C
2770 01-03-2009 02:15:45 7.8 C 73 % 3.27 C
2771 01-03-2009 02:27:45 7.9 C 73 % 3.37 C
2772 01-03-2009 02:39:45 7.7 C 73 % 3.18 C
2773 01-03-2009 02:51:45 7.6 C 73 % 3.08 C
2774 01-03-2009 03:03:45 7.5 C 73 % 2.98 C
2775 01-03-2009 03:15:45 7.2 C 74 % 2.89 C
Sensor: Nr:Datum:Temp:Feuchte:Taupunkt:
Aussen-T/F 2776 01-03-2009 03:27:45 6.8 C 75 % 2.69 C
2777 01-03-2009 03:39:46 6.7 C 77 % 2.96 C
2778 01-03-2009 03:51:46 6.5 C 78 % 2.95 C
2779 01-03-2009 04:03:46 6.5 C 78 % 2.95 C
2780 01-03-2009 04:15:46 6.3 C 78 % 2.75 C
2781 01-03-2009 04:27:46 6.2 C 78 % 2.66 C
2782 01-03-2009 04:39:46 6.2 C 79 % 2.84 C
2783 01-03-2009 04:51:46 6 C 78 % 2.46 C
2784 01-03-2009 05:03:46 6 C 79 % 2.64 C
2785 01-03-2009 05:15:46 6.4 C 80 % 3.21 C
2786 01-03-2009 05:27:46 6.4 C 80 % 3.21 C
2787 01-03-2009 05:39:46 6.4 C 79 % 3.03 C
2788 01-03-2009 05:51:46 6.3 C 78 % 2.75 C
2789 01-03-2009 06:03:46 6.3 C 79 % 2.93 C
2790 01-03-2009 06:15:46 6.5 C 79 % 3.13 C
2791 01-03-2009 06:27:46 6.6 C 79 % 3.23 C
2792 01-03-2009 06:39:46 6.7 C 79 % 3.32 C
2793 01-03-2009 06:51:46 6.8 C 79 % 3.42 C
2794 01-03-2009 07:03:46 6.8 C 79 % 3.42 C
2795 01-03-2009 07:15:46 6.9 C 78 % 3.34 C
2796 01-03-2009 07:27:47 6.8 C 78 % 3.24 C
2797 01-03-2009 07:39:47 6.9 C 78 % 3.34 C
2798 01-03-2009 07:51:47 7 C 77 % 3.25 C
2799 01-03-2009 08:03:47 7.2 C 77 % 3.45 C
2800 01-03-2009 08:15:47 7.4 C 76 % 3.45 C
Sensor: Nr:Datum:Temp:Feuchte:Taupunkt:
Aussen-T/F 2801 01-03-2009 08:27:47 7.6 C 75 % 3.46 C
2802 01-03-2009 08:39:47 7.8 C 75 % 3.65 C
2803 01-03-2009 08:51:47 7.9 C 73 % 3.37 C
2804 01-03-2009 09:03:43 8 C 71 % 3.07 C
2805 01-03-2009 09:15:44 8.1 C 69 % 2.77 C
2806 01-03-2009 09:27:44 8.4 C 69 % 3.05 C
2807 01-03-2009 09:39:44 8.6 C 67 % 2.83 C
2808 01-03-2009 09:51:43 8.7 C 65 % 2.5 C
2809 01-03-2009 10:03:43 9.1 C 64 % 2.66 C
2810 01-03-2009 10:15:43 9.3 C 63 % 2.63 C
2811 01-03-2009 10:27:43 9.6 C 61 % 2.46 C
2812 01-03-2009 10:39:43 10 C 58 % 2.13 C
2813 01-03-2009 10:51:43 10.1 C 58 % 2.22 C
2814 01-03-2009 11:03:43 10.7 C 55 % 2.04 C
2815 01-03-2009 11:15:42 10.5 C 56 % 2.11 C
2816 01-03-2009 11:27:42 10.6 C 55 % 1.95 C
2817 01-03-2009 11:39:42 10.9 C 54 % 1.97 C
2818 01-03-2009 11:51:42 11.5 C 53 % 2.27 C
2819 01-03-2009 12:03:42 11.7 C 51 % 1.91 C
2820 01-03-2009 12:15:42 11.8 C 50 % 1.73 C
2821 01-03-2009 12:27:42 11.6 C 50 % 1.54 C
2822 01-03-2009 12:39:42 12.1 C 48 % 1.44 C
2823 01-03-2009 12:51:42 12.8 C 46 % 1.48 C
2824 01-03-2009 13:03:41 13.3 C 44 % 1.32 C
2825 01-03-2009 13:15:42 13.5 C 43 % 1.18 C
Sensor: Nr:Datum:Temp:Feuchte:Taupunkt:
Aussen-T/F 2826 01-03-2009 13:27:42 13.8 C 43 % 1.45 C
2827 01-03-2009 13:39:41 13.3 C 43 % 1 C
2828 01-03-2009 13:51:41 13.6 C 43 % 1.27 C
2829 01-03-2009 14:03:41 13.9 C 43 % 1.54 C
2830 01-03-2009 14:15:41 13.9 C 42 % 1.22 C
2831 01-03-2009 14:27:41 13.9 C 42 % 1.22 C
2832 01-03-2009 14:39:41 13.9 C 42 % 1.22 C
2833 01-03-2009 14:51:41 14.2 C 41 % 1.15 C
2834 01-03-2009 15:03:41 14.5 C 41 % 1.42 C
2835 01-03-2009 15:15:40 14.4 C 41 % 1.33 C
2836 01-03-2009 15:27:40 15.1 C 39 % 1.26 C
2837 01-03-2009 15:39:40 15.2 C 39 % 1.35 C
2838 01-03-2009 15:51:40 14.8 C 40 % 1.35 C
2839 01-03-2009 16:03:40 14.5 C 40 % 1.08 C
2840 01-03-2009 16:15:39 14.1 C 40 % 0.72 C
2841 01-03-2009 16:27:39 13.7 C 41 % 0.7 C
2842 01-03-2009 16:39:40 13.5 C 42 % 0.86 C
2843 01-03-2009 16:51:39 13.3 C 43 % 1 C
2844 01-03-2009 17:03:39 13.2 C 44 % 1.23 C
2845 01-03-2009 17:15:40 13 C 44 % 1.05 C
2846 01-03-2009 17:27:40 12.8 C 46 % 1.48 C
2847 01-03-2009 17:39:39 12.5 C 46 % 1.21 C
2848 01-03-2009 17:51:39 12.4 C 48 % 1.71 C
2849 01-03-2009 18:03:38 11.8 C 53 % 2.54 C
2850 01-03-2009 18:15:39 11.4 C 55 % 2.69 C
Sensor: Nr:Datum:Temp:Feuchte:Taupunkt:
Aussen-T/F 2851 01-03-2009 18:27:39 11.2 C 56 % 2.76 C
2852 01-03-2009 18:39:38 11.1 C 55 % 2.41 C
2853 01-03-2009 18:51:38 10.9 C 57 % 2.73 C
2854 01-03-2009 19:03:38 10.9 C 58 % 2.97 C
2855 01-03-2009 19:15:38 11 C 56 % 2.57 C
2856 01-03-2009 19:27:38 11 C 56 % 2.57 C
2857 01-03-2009 19:39:38 11.2 C 55 % 2.51 C
2858 01-03-2009 19:51:38 11.5 C 52 % 2 C
2859 01-03-2009 20:03:38 11.9 C 50 % 1.82 C
2860 01-03-2009 20:15:37 12 C 48 % 1.34 C
2861 01-03-2009 20:27:37 12 C 48 % 1.34 C
2862 01-03-2009 20:39:37 11.8 C 49 % 1.45 C
2863 01-03-2009 20:51:37 11.8 C 49 % 1.45 C
2864 01-03-2009 21:03:37 11.7 C 49 % 1.36 C
2865 01-03-2009 21:15:37 11.8 C 49 % 1.45 C
2866 01-03-2009 21:27:37 11.6 C 50 % 1.54 C
2867 01-03-2009 21:39:37 11.4 C 51 % 1.64 C
2868 01-03-2009 21:51:36 11.4 C 51 % 1.64 C
2869 01-03-2009 22:03:36 11.1 C 55 % 2.41 C
2870 01-03-2009 22:15:37 10.5 C 62 % 3.54 C
2871 01-03-2009 22:27:37 10.1 C 67 % 4.26 C
2872 01-03-2009 22:40:37 9.8 C 70 % 4.6 C
2873 01-03-2009 22:52:37 9.7 C 70 % 4.5 C
2874 01-03-2009 23:04:37 9.5 C 72 % 4.71 C
2875 01-03-2009 23:16:37 9.5 C 73 % 4.91 C
Sensor: Nr:Datum:Temp:Feuchte:Taupunkt:
Aussen-T/F 2876 01-03-2009 23:28:37 9.6 C 71 % 4.61 C
2877 01-03-2009 23:40:37 9.8 C 68 % 4.18 C
2878 01-03-2009 23:52:37 9.8 C 68 % 4.18 C
2879 02-03-2009 00:04:37 9.8 C 67 % 3.97 C
2880 02-03-2009 00:16:38 9.8 C 68 % 4.18 C
2881 02-03-2009 00:28:38 9.5 C 71 % 4.51 C
2882 02-03-2009 00:40:38 9.2 C 73 % 4.62 C
2883 02-03-2009 00:52:38 9.1 C 74 % 4.72 C
2884 02-03-2009 01:04:38 9.1 C 74 % 4.72 C
2885 02-03-2009 01:16:38 9.1 C 74 % 4.72 C
2886 02-03-2009 01:28:38 9.1 C 74 % 4.72 C
2887 02-03-2009 01:40:38 9.1 C 73 % 4.52 C
2888 02-03-2009 01:52:38 9 C 75 % 4.81 C
2889 02-03-2009 02:04:38 8.9 C 76 % 4.91 C
2890 02-03-2009 02:16:38 8.8 C 77 % 5 C
2891 02-03-2009 02:28:38 8.7 C 78 % 5.08 C
2892 02-03-2009 02:40:38 8.6 C 78 % 4.99 C
2893 02-03-2009 02:52:38 8.6 C 79 % 5.17 C
2894 02-03-2009 03:04:38 8.7 C 80 % 5.45 C
2895 02-03-2009 03:16:38 8.5 C 82 % 5.61 C
2896 02-03-2009 03:28:38 8.5 C 82 % 5.61 C
2897 02-03-2009 03:40:38 8.5 C 83 % 5.78 C
2898 02-03-2009 03:52:38 8.4 C 83 % 5.69 C
2899 02-03-2009 04:04:39 8.4 C 84 % 5.86 C
2900 02-03-2009 04:16:39 8.4 C 85 % 6.03 C
Sensor: Nr:Datum:Temp:Feuchte:Taupunkt:
Aussen-T/F 2901 02-03-2009 04:28:39 8.3 C 86 % 6.1 C
2902 02-03-2009 04:40:39 8.3 C 86 % 6.1 C
2903 02-03-2009 04:52:39 8.3 C 87 % 6.27 C
2904 02-03-2009 05:04:39 8.2 C 87 % 6.17 C
2905 02-03-2009 05:16:39 8.2 C 87 % 6.17 C
2906 02-03-2009 05:28:39 8.2 C 87 % 6.17 C
2907 02-03-2009 05:40:39 8.1 C 87 % 6.07 C
2908 02-03-2009 05:52:39 8.1 C 86 % 5.9 C
2909 02-03-2009 06:04:39 8.2 C 86 % 6 C
2910 02-03-2009 06:16:39 8.2 C 85 % 5.83 C
2911 02-03-2009 06:28:39 8.2 C 85 % 5.83 C
2912 02-03-2009 06:40:39 8.1 C 85 % 5.73 C
2913 02-03-2009 06:52:39 8.2 C 85 % 5.83 C
2914 02-03-2009 07:04:37 8.2 C 86 % 6 C
2915 02-03-2009 07:16:37 8.4 C 85 % 6.03 C
2916 02-03-2009 07:28:37 8.4 C 84 % 5.86 C
2917 02-03-2009 07:40:37 8.4 C 83 % 5.69 C
2918 02-03-2009 07:52:38 8.3 C 82 % 5.41 C
2919 02-03-2009 08:04:37 8.3 C 83 % 5.59 C
2920 02-03-2009 08:16:36 8.3 C 83 % 5.59 C
2921 02-03-2009 08:28:37 8.2 C 84 % 5.66 C
2922 02-03-2009 08:40:36 8.2 C 84 % 5.66 C
2923 02-03-2009 08:52:36 8.1 C 84 % 5.56 C
2924 02-03-2009 09:04:36 8.1 C 85 % 5.73 C
2925 02-03-2009 09:16:35 8.1 C 85 % 5.73 C
Sensor: Nr:Datum:Temp:Feuchte:Taupunkt:
Aussen-T/F 2926 02-03-2009 09:28:35 8.1 C 85 % 5.73 C
2927 02-03-2009 09:40:36 8.1 C 86 % 5.9 C
2928 02-03-2009 09:52:35 8.1 C 86 % 5.9 C
2929 02-03-2009 10:04:35 8.1 C 87 % 6.07 C
2930 02-03-2009 10:16:36 8.2 C 87 % 6.17 C
2931 02-03-2009 10:28:36 8 C 87 % 5.97 C
2932 02-03-2009 10:40:35 8.1 C 85 % 5.73 C
2933 02-03-2009 10:52:35 8.2 C 84 % 5.66 C
2934 02-03-2009 11:04:35 8.2 C 83 % 5.49 C
2935 02-03-2009 11:16:35 8.1 C 82 % 5.22 C
2936 02-03-2009 11:28:35 8 C 81 % 4.94 C
2937 02-03-2009 11:40:34 8 C 81 % 4.94 C
2938 02-03-2009 11:52:35 8.2 C 82 % 5.32 C
2939 02-03-2009 12:04:34 8.6 C 81 % 5.53 C
2940 02-03-2009 12:16:34 8.8 C 77 % 5 C
2941 02-03-2009 12:28:34 8.9 C 72 % 4.14 C
2942 02-03-2009 12:40:34 8.7 C 70 % 3.54 C
2943 02-03-2009 12:52:34 9.5 C 67 % 3.69 C
2944 02-03-2009 13:04:34 9.2 C 61 % 2.08 C
2945 02-03-2009 13:16:33 9 C 59 % 1.43 C
2946 02-03-2009 13:28:33 9.3 C 59 % 1.71 C
2947 02-03-2009 13:40:34 9.8 C 58 % 1.94 C
2948 02-03-2009 13:52:33 10.6 C 52 % 1.17 C
2949 02-03-2009 14:04:33 10.1 C 48 % -0.4 C
2950 02-03-2009 14:16:33 10.2 C 48 % -0.31 C
Sensor: Nr:Datum:Temp:Feuchte:Taupunkt:
Aussen-T/F 2951 02-03-2009 14:28:33 10.7 C 47 % -0.14 C
2952 02-03-2009 14:40:33 10.4 C 46 % -0.7 C
2953 02-03-2009 14:52:32 10.4 C 47 % -0.41 C
2954 02-03-2009 15:04:33 10.3 C 45 % -1.1 C
2955 02-03-2009 15:16:33 10.3 C 45 % -1.1 C
2956 02-03-2009 15:28:33 10.2 C 45 % -1.19 C
2957 02-03-2009 15:40:32 10.8 C 45 % -0.64 C
2958 02-03-2009 15:52:32 10.7 C 45 % -0.73 C
2959 02-03-2009 16:04:32 10.5 C 44 % -1.22 C
2960 02-03-2009 16:16:32 10.3 C 45 % -1.1 C
2961 02-03-2009 16:28:33 10 C 46 % -1.07 C
2962 02-03-2009 16:40:31 10 C 46 % -1.07 C
2963 02-03-2009 16:52:32 9.8 C 47 % -0.96 C
2964 02-03-2009 17:04:31 9.7 C 50 % -0.21 C
2965 02-03-2009 17:16:31 9.5 C 50 % -0.39 C
2966 02-03-2009 17:28:31 9.2 C 50 % -0.67 C
2967 02-03-2009 17:40:32 8.9 C 52 % -0.41 C
2968 02-03-2009 17:52:31 8.5 C 53 % -0.52 C
2969 02-03-2009 18:04:31 8.3 C 54 % -0.45 C
2970 02-03-2009 18:16:31 8.1 C 56 % -0.13 C
2971 02-03-2009 18:28:31 7.8 C 57 % -0.17 C
2972 02-03-2009 18:40:30 7.8 C 57 % -0.17 C
2973 02-03-2009 18:52:31 7.5 C 58 % -0.21 C
2974 02-03-2009 19:04:30 7.6 C 57 % -0.36 C
2975 02-03-2009 19:16:30 7.5 C 56 % -0.7 C
Sensor: Nr:Datum:Temp:Feuchte:Taupunkt:
Aussen-T/F 2976 02-03-2009 19:28:30 7.3 C 57 % -0.64 C
2977 02-03-2009 19:40:30 7.1 C 58 % -0.59 C
2978 02-03-2009 19:52:30 6.8 C 59 % -0.64 C
2979 02-03-2009 20:04:29 6.4 C 60 % -0.78 C
2980 02-03-2009 20:16:30 6 C 61 % -0.94 C
2981 02-03-2009 20:28:30 5.8 C 63 % -0.69 C
2982 02-03-2009 20:40:30 5.4 C 63 % -1.06 C
2983 02-03-2009 20:52:29 5.1 C 65 % -0.92 C
2984 02-03-2009 21:04:29 4.8 C 67 % -0.8 C
2985 02-03-2009 21:16:29 4.6 C 68 % -0.78 C
2986 02-03-2009 21:28:29 4.4 C 69 % -0.78 C
2987 02-03-2009 21:40:29 4.1 C 70 % -0.87 C
2988 02-03-2009 21:52:29 3.9 C 72 % -0.68 C
2989 02-03-2009 22:04:29 3.7 C 73 % -0.68 C
2990 02-03-2009 22:16:28 3.7 C 73 % -0.68 C
2991 02-03-2009 22:28:28 3.5 C 74 % -0.69 C
2992 02-03-2009 22:40:29 3.4 C 74 % -0.78 C
2993 02-03-2009 22:53:29 3 C 76 % -0.81 C
2994 02-03-2009 23:05:29 2.8 C 78 % -0.65 C
2995 02-03-2009 23:17:29 2.7 C 78 % -0.74 C
2996 02-03-2009 23:29:29 2.9 C 80 % -0.2 C
2997 02-03-2009 23:41:29 3.1 C 79 % -0.18 C
2998 02-03-2009 23:53:29 2.8 C 79 % -0.47 C
2999 03-03-2009 00:05:29 2.6 C 79 % -0.67 C
3000 03-03-2009 00:17:30 2.9 C 79 % -0.37 C
Sensor: Nr:Datum:Temp:Feuchte:Taupunkt:
Aussen-T/F 3001 03-03-2009 00:29:30 3.1 C 77 % -0.53 C
3002 03-03-2009 00:41:30 3 C 76 % -0.81 C
3003 03-03-2009 00:53:30 2.9 C 77 % -0.72 C
3004 03-03-2009 01:05:30 3 C 76 % -0.81 C
3005 03-03-2009 01:17:30 3 C 75 % -0.99 C
3006 03-03-2009 01:29:30 3.1 C 74 % -1.07 C
3007 03-03-2009 01:41:30 3 C 74 % -1.17 C
3008 03-03-2009 01:53:30 2.8 C 75 % -1.18 C
3009 03-03-2009 02:05:30 2.6 C 75 % -1.37 C
3010 03-03-2009 02:17:30 2.4 C 75 % -1.57 C
3011 03-03-2009 02:29:30 2.3 C 76 % -1.48 C
3012 03-03-2009 02:41:30 2.2 C 76 % -1.58 C
3013 03-03-2009 02:53:30 2.1 C 78 % -1.33 C
3014 03-03-2009 03:05:30 1.9 C 80 % -1.18 C
3015 03-03-2009 03:17:30 1.6 C 79 % -1.64 C
3016 03-03-2009 03:29:30 1.5 C 80 % -1.57 C
3017 03-03-2009 03:41:30 1.5 C 81 % -1.4 C
3018 03-03-2009 03:53:30 1.2 C 82 % -1.52 C
3019 03-03-2009 04:05:31 1.2 C 82 % -1.52 C
3020 03-03-2009 04:17:31 1.5 C 83 % -1.06 C
3021 03-03-2009 04:29:31 1.4 C 83 % -1.16 C
3022 03-03-2009 04:41:31 1.3 C 83 % -1.26 C
3023 03-03-2009 04:53:31 1 C 82 % -1.72 C
3024 03-03-2009 05:05:31 0.7 C 83 % -1.85 C
3025 03-03-2009 05:17:31 0.5 C 83 % -2.04 C
Sensor: Nr:Datum:Temp:Feuchte:Taupunkt:
Aussen-T/F 3026 03-03-2009 05:29:31 0.3 C 83 % -2.24 C
3027 03-03-2009 05:41:31 0.3 C 83 % -2.24 C
3028 03-03-2009 05:53:31 0.1 C 84 % -2.27 C
3029 03-03-2009 06:05:31 0 C 84 % -2.37 C
3030 03-03-2009 06:17:31 -0.1 C 84 % -2.47 C
3031 03-03-2009 06:29:31 0 C 84 % -2.37 C
3032 03-03-2009 06:41:31 -0.1 C 84 % -2.47 C
3033 03-03-2009 06:53:31 -0.2 C 84 % -2.57 C
3034 03-03-2009 07:05:29 -0.3 C 84 % -2.67 C
3035 03-03-2009 07:17:28 -0.4 C 84 % -2.77 C
3036 03-03-2009 07:29:28 -0.4 C 84 % -2.77 C
3037 03-03-2009 07:41:29 -0.4 C 85 % -2.61 C
3038 03-03-2009 07:53:28 -0.4 C 85 % -2.61 C
3039 03-03-2009 08:05:28 -0.3 C 85 % -2.51 C
3040 03-03-2009 08:17:28 -0.2 C 86 % -2.25 C
3041 03-03-2009 08:29:28 -0.1 C 86 % -2.16 C
3042 03-03-2009 08:41:28 0.1 C 87 % -1.8 C
3043 03-03-2009 08:53:27 0.4 C 87 % -1.5 C
3044 03-03-2009 09:05:28 0.9 C 87 % -1.01 C
3045 03-03-2009 09:17:27 1.2 C 85 % -1.03 C
3046 03-03-2009 09:29:27 1.2 C 84 % -1.2 C
3047 03-03-2009 09:41:28 1.3 C 83 % -1.26 C
3048 03-03-2009 09:53:27 1.7 C 83 % -0.87 C
3049 03-03-2009 10:05:27 2.1 C 82 % -0.64 C
3050 03-03-2009 10:17:27 2.6 C 81 % -0.32 C
Sensor: Nr:Datum:Temp:Feuchte:Taupunkt:
Aussen-T/F 3051 03-03-2009 10:29:27 3.1 C 80 % -0.01 C
3052 03-03-2009 10:41:27 3.7 C 77 % 0.05 C
3053 03-03-2009 10:53:27 4.3 C 74 % 0.09 C
3054 03-03-2009 11:05:26 5 C 68 % -0.4 C
3055 03-03-2009 11:17:27 5.3 C 68 % -0.12 C
3056 03-03-2009 11:29:27 6.4 C 59 % -1.01 C
3057 03-03-2009 11:41:26 6.7 C 58 % -0.97 C
3058 03-03-2009 11:53:26 7.2 C 55 % -1.22 C
3059 03-03-2009 12:05:26 7.6 C 53 % -1.35 C
3060 03-03-2009 12:17:27 8 C 50 % -1.77 C
3061 03-03-2009 12:29:27 8.2 C 46 % -2.71 C
3062 03-03-2009 12:41:26 8.7 C 45 % -2.55 C
3063 03-03-2009 12:53:26 9 C 41 % -3.53 C
3064 03-03-2009 13:05:26 9.3 C 39 % -3.92 C
3065 03-03-2009 13:17:25 9.6 C 35 % -5.09 C
3066 03-03-2009 13:29:25 9.8 C 33 % -5.68 C
3067 03-03-2009 13:41:25 10.5 C 31 % -5.89 C
3068 03-03-2009 13:53:25 10.8 C 30 % -6.06 C
3069 03-03-2009 14:05:25 11.1 C 28 % -6.69 C
3070 03-03-2009 14:17:24 11 C 27 % -7.25 C
3071 03-03-2009 14:29:24 10.7 C 26 % -7.99 C
3072 03-03-2009 14:41:25 11 C 25 % -8.24 C
3073 03-03-2009 14:53:24 11.8 C 24 % -8.08 C
3074 03-03-2009 15:05:24 11.3 C 22 % -9.61 C
3075 03-03-2009 15:17:24 11 C 26 % -7.74 C
Sensor: Nr:Datum:Temp:Feuchte:Taupunkt:
Aussen-T/F 3076 03-03-2009 15:29:24 11.5 C 27 % -6.82 C
3077 03-03-2009 15:41:24 11.6 C 25 % -7.73 C
3078 03-03-2009 15:53:24 11.2 C 23 % -9.13 C
3079 03-03-2009 16:05:23 10.6 C 25 % -8.58 C
3080 03-03-2009 16:17:24 10.4 C 26 % -8.25 C
3081 03-03-2009 16:29:24 10.5 C 26 % -8.16 C
3082 03-03-2009 16:41:23 10.6 C 26 % -8.08 C
3083 03-03-2009 16:53:23 10.1 C 25 % -9.01 C
3084 03-03-2009 17:05:24 9.9 C 28 % -7.73 C
3085 03-03-2009 17:17:23 10.2 C 28 % -7.47 C
3086 03-03-2009 17:29:23 10.5 C 27 % -7.68 C
3087 03-03-2009 17:41:23 10.2 C 26 % -8.42 C
3088 03-03-2009 17:53:23 9.7 C 28 % -7.9 C
3089 03-03-2009 18:05:23 9.1 C 31 % -7.11 C
3090 03-03-2009 18:17:22 8.2 C 35 % -6.33 C
3091 03-03-2009 18:29:22 7.5 C 38 % -5.88 C
3092 03-03-2009 18:41:23 6.9 C 41 % -5.42 C
3093 03-03-2009 18:53:22 6.6 C 43 % -5.07 C
3094 03-03-2009 19:05:22 6.4 C 43 % -5.25 C
3095 03-03-2009 19:17:22 6.5 C 45 % -4.56 C
3096 03-03-2009 19:29:22 6.8 C 42 % -5.19 C
3097 03-03-2009 19:41:22 6.7 C 43 % -4.97 C
3098 03-03-2009 19:53:22 6.5 C 44 % -4.85 C
3099 03-03-2009 20:05:21 6.4 C 44 % -4.94 C
3100 03-03-2009 20:17:22 6.4 C 43 % -5.25 C
Sensor: Nr:Datum:Temp:Feuchte:Taupunkt:
Aussen-T/F 3101 03-03-2009 20:29:22 6.3 C 42 % -5.65 C
3102 03-03-2009 20:41:21 6.1 C 43 % -5.52 C
3103 03-03-2009 20:53:21 6.2 C 42 % -5.74 C
3104 03-03-2009 21:05:21 6.4 C 41 % -5.87 C
3105 03-03-2009 21:17:21 6 C 40 % -6.55 C
3106 03-03-2009 21:29:21 5.9 C 41 % -6.32 C
3107 03-03-2009 21:41:20 5.8 C 41 % -6.41 C
3108 03-03-2009 21:53:21 5.8 C 40 % -6.73 C
3109 03-03-2009 22:05:20 5.7 C 44 % -5.58 C
3110 03-03-2009 22:17:20 5.8 C 42 % -6.1 C
3111 03-03-2009 22:29:20 6 C 41 % -6.23 C
3112 03-03-2009 22:41:20 5.9 C 42 % -6.01 C
3113 03-03-2009 22:54:21 6 C 41 % -6.23 C
3114 03-03-2009 23:06:22 6.2 C 40 % -6.37 C
3115 03-03-2009 23:18:22 6.4 C 41 % -5.87 C
3116 03-03-2009 23:30:22 6.2 C 42 % -5.74 C
3117 03-03-2009 23:42:22 6.4 C 42 % -5.56 C
3118 03-03-2009 23:54:22 5.9 C 45 % -5.1 C
3119 04-03-2009 00:06:22 5.5 C 46 % -5.18 C
3120 04-03-2009 00:18:22 5 C 48 % -5.08 C
3121 04-03-2009 00:30:22 4.5 C 53 % -4.23 C
3122 04-03-2009 00:42:22 4.4 C 54 % -4.08 C
3123 04-03-2009 00:54:22 4.2 C 56 % -3.78 C
3124 04-03-2009 01:06:22 4.3 C 56 % -3.69 C
3125 04-03-2009 01:18:22 4.1 C 58 % -3.41 C
Sensor: Nr:Datum:Temp:Feuchte:Taupunkt:
Aussen-T/F 3126 04-03-2009 01:30:22 3.9 C 60 % -3.14 C
3127 04-03-2009 01:42:22 3.7 C 61 % -3.11 C
3128 04-03-2009 01:54:22 3.6 C 61 % -3.2 C
3129 04-03-2009 02:06:22 3.4 C 62 % -3.17 C
3130 04-03-2009 02:18:22 3.3 C 64 % -2.84 C
3131 04-03-2009 02:30:22 3.2 C 64 % -2.94 C
3132 04-03-2009 02:42:22 3.2 C 65 % -2.73 C
3133 04-03-2009 02:54:22 3.1 C 66 % -2.62 C
3134 04-03-2009 03:06:23 2.9 C 66 % -2.81 C
3135 04-03-2009 03:18:23 2.7 C 67 % -2.8 C
3136 04-03-2009 03:30:23 2.7 C 68 % -2.6 C
3137 04-03-2009 03:42:23 2.8 C 69 % -2.31 C
3138 04-03-2009 03:54:23 2.8 C 69 % -2.31 C
3139 04-03-2009 04:06:23 2.8 C 70 % -2.11 C
3140 04-03-2009 04:18:23 2.6 C 70 % -2.31 C
3141 04-03-2009 04:30:23 2.5 C 70 % -2.4 C
3142 04-03-2009 04:42:23 2.5 C 71 % -2.21 C
3143 04-03-2009 04:54:23 2.4 C 71 % -2.31 C
3144 04-03-2009 05:06:23 2.5 C 72 % -2.02 C
3145 04-03-2009 05:18:23 2.7 C 71 % -2.02 C
3146 04-03-2009 05:30:23 3 C 69 % -2.12 C
3147 04-03-2009 05:42:23 3.1 C 68 % -2.22 C
3148 04-03-2009 05:54:23 3.2 C 67 % -2.32 C
3149 04-03-2009 06:06:23 3.4 C 66 % -2.33 C
3150 04-03-2009 06:18:23 3.5 C 66 % -2.24 C
Sensor: Nr:Datum:Temp:Feuchte:Taupunkt:
Aussen-T/F 3151 04-03-2009 06:30:23 3.5 C 65 % -2.44 C
3152 04-03-2009 06:42:23 3.4 C 66 % -2.33 C
3153 04-03-2009 06:54:23 3.5 C 65 % -2.44 C
3154 04-03-2009 07:06:20 3.6 C 65 % -2.35 C
3155 04-03-2009 07:18:21 3.7 C 65 % -2.25 C
3156 04-03-2009 07:30:21 3.8 C 64 % -2.37 C
3157 04-03-2009 07:42:21 3.7 C 65 % -2.25 C
3158 04-03-2009 07:54:20 3.8 C 65 % -2.16 C
3159 04-03-2009 08:06:21 3.9 C 64 % -2.27 C
3160 04-03-2009 08:18:20 4 C 64 % -2.18 C
3161 04-03-2009 08:30:20 4.1 C 63 % -2.3 C
3162 04-03-2009 08:42:20 4.2 C 63 % -2.2 C
3163 04-03-2009 08:54:19 4.2 C 63 % -2.2 C
3164 04-03-2009 09:06:20 4.2 C 63 % -2.2 C
3165 04-03-2009 09:18:19 4 C 62 % -2.61 C
3166 04-03-2009 09:30:20 4.1 C 62 % -2.51 C
3167 04-03-2009 09:42:21 4.3 C 61 % -2.54 C
3168 04-03-2009 09:54:19 4.9 C 59 % -2.42 C
3169 04-03-2009 10:06:19 5.4 C 56 % -2.66 C
3170 04-03-2009 10:18:18 5.9 C 54 % -2.68 C
3171 04-03-2009 10:30:19 6.1 C 53 % -2.74 C
3172 04-03-2009 10:42:19 6.8 C 50 % -2.88 C
3173 04-03-2009 10:54:18 7.5 C 47 % -3.06 C
3174 04-03-2009 11:06:18 8 C 44 % -3.49 C
3175 04-03-2009 11:18:19 8.3 C 43 % -3.52 C
Sensor: Nr:Datum:Temp:Feuchte:Taupunkt:
Aussen-T/F 3176 04-03-2009 11:30:18 8.6 C 42 % -3.57 C
3177 04-03-2009 11:42:18 8.8 C 42 % -3.39 C
3178 04-03-2009 11:54:18 9.1 C 42 % -3.12 C
3179 04-03-2009 12:06:18 9.4 C 41 % -3.17 C
3180 04-03-2009 12:18:18 9.9 C 40 % -3.05 C
3181 04-03-2009 12:30:18 10.3 C 37 % -3.73 C
3182 04-03-2009 12:42:18 10.7 C 37 % -3.38 C
3183 04-03-2009 12:54:18 11.1 C 36 % -3.39 C
3184 04-03-2009 13:06:18 11.8 C 32 % -4.34 C
3185 04-03-2009 13:18:17 12.2 C 28 % -5.75 C
3186 04-03-2009 13:30:17 12.2 C 30 % -4.84 C
3187 04-03-2009 13:42:17 11.5 C 33 % -4.19 C
3188 04-03-2009 13:54:17 11.7 C 33 % -4.01 C
3189 04-03-2009 14:06:17 12 C 32 % -4.16 C
3190 04-03-2009 14:18:16 12.4 C 31 % -4.23 C
3191 04-03-2009 14:30:17 12.3 C 30 % -4.75 C
3192 04-03-2009 14:42:17 12.7 C 30 % -4.41 C
3193 04-03-2009 14:54:16 12.9 C 30 % -4.23 C
3194 04-03-2009 15:06:16 13 C 28 % -5.06 C
3195 04-03-2009 15:18:17 13.3 C 28 % -4.8 C
3196 04-03-2009 15:30:16 12.9 C 28 % -5.14 C
3197 04-03-2009 15:42:16 12.3 C 30 % -4.75 C
3198 04-03-2009 15:54:16 11.9 C 32 % -4.25 C
3199 04-03-2009 16:06:16 11.9 C 32 % -4.25 C
3200 04-03-2009 16:18:16 12.7 C 29 % -4.85 C
Sensor: Nr:Datum:Temp:Feuchte:Taupunkt:
Aussen-T/F 3201 04-03-2009 16:30:15 12.3 C 31 % -4.32 C
3202 04-03-2009 16:42:15 12.2 C 30 % -4.84 C
3203 04-03-2009 16:54:15 11.9 C 32 % -4.25 C
3204 04-03-2009 17:06:15 11.7 C 31 % -4.84 C
3205 04-03-2009 17:18:15 11.6 C 31 % -4.93 C
3206 04-03-2009 17:30:15 11.4 C 31 % -5.1 C
3207 04-03-2009 17:42:15 11.3 C 31 % -5.19 C
3208 04-03-2009 17:54:15 11.1 C 31 % -5.37 C
3209 04-03-2009 18:06:15 11 C 32 % -5.04 C
3210 04-03-2009 18:18:14 10.8 C 33 % -4.81 C
3211 04-03-2009 18:30:14 10.3 C 35 % -4.47 C
3212 04-03-2009 18:42:15 9.7 C 39 % -3.57 C
3213 04-03-2009 18:54:14 9 C 42 % -3.21 C
3214 04-03-2009 19:06:14 8.9 C 43 % -2.98 C
3215 04-03-2009 19:18:13 8.7 C 45 % -2.55 C
3216 04-03-2009 19:30:14 8.8 C 43 % -3.07 C
3217 04-03-2009 19:42:14 8.6 C 45 % -2.64 C
3218 04-03-2009 19:54:13 8.9 C 44 % -2.67 C
3219 04-03-2009 20:06:13 8.9 C 45 % -2.37 C
3220 04-03-2009 20:18:14 9 C 45 % -2.28 C
3221 04-03-2009 20:30:13 9 C 46 % -1.98 C
3222 04-03-2009 20:42:13 8.9 C 48 % -1.5 C
3223 04-03-2009 20:54:13 8.8 C 49 % -1.31 C
3224 04-03-2009 21:06:13 8.6 C 51 % -0.95 C
3225 04-03-2009 21:18:13 8.5 C 52 % -0.78 C
Sensor: Nr:Datum:Temp:Feuchte:Taupunkt:
Aussen-T/F 3226 04-03-2009 21:30:13 8.4 C 52 % -0.87 C
3227 04-03-2009 21:42:13 8.4 C 51 % -1.13 C
3228 04-03-2009 21:54:13 8.5 C 51 % -1.04 C
3229 04-03-2009 22:06:12 8.5 C 50 % -1.31 C
3230 04-03-2009 22:19:15 8.6 C 50 % -1.22 C
3231 04-03-2009 22:31:15 8.4 C 51 % -1.13 C
3232 04-03-2009 22:43:15 8.7 C 48 % -1.68 C
3233 04-03-2009 22:55:15 8.7 C 50 % -1.13 C
3234 04-03-2009 23:07:15 8.6 C 50 % -1.22 C
3235 04-03-2009 23:19:15 8.4 C 51 % -1.13 C
3236 04-03-2009 23:31:15 8.3 C 52 % -0.96 C
3237 04-03-2009 23:43:15 8.1 C 53 % -0.89 C
3238 04-03-2009 23:55:15 8 C 55 % -0.47 C
3239 05-03-2009 00:07:15 7.9 C 56 % -0.32 C
3240 05-03-2009 00:19:15 7.9 C 57 % -0.08 C
3241 05-03-2009 00:31:15 7.8 C 60 % 0.53 C
3242 05-03-2009 00:43:15 7.6 C 62 % 0.8 C
3243 05-03-2009 00:55:15 7.5 C 64 % 1.14 C
3244 05-03-2009 01:07:15 7.6 C 63 % 1.02 C
3245 05-03-2009 01:19:15 7.6 C 62 % 0.8 C
3246 05-03-2009 01:31:16 7.6 C 61 % 0.57 C
3247 05-03-2009 01:43:16 7.6 C 61 % 0.57 C
3248 05-03-2009 01:55:16 7.6 C 61 % 0.57 C
3249 05-03-2009 02:07:16 7.6 C 61 % 0.57 C
3250 05-03-2009 02:19:16 7.6 C 61 % 0.57 C
Sensor: Nr:Datum:Temp:Feuchte:Taupunkt:
Aussen-T/F 3251 05-03-2009 02:31:16 7.6 C 61 % 0.57 C
3252 05-03-2009 02:43:16 7.6 C 61 % 0.57 C
3253 05-03-2009 02:55:16 7.5 C 62 % 0.7 C
3254 05-03-2009 03:07:16 7.5 C 61 % 0.48 C
3255 05-03-2009 03:19:16 7.6 C 61 % 0.57 C
3256 05-03-2009 03:31:16 7.6 C 61 % 0.57 C
3257 05-03-2009 03:43:16 7.5 C 61 % 0.48 C
3258 05-03-2009 03:55:16 7.4 C 62 % 0.61 C
3259 05-03-2009 04:07:16 7.3 C 63 % 0.74 C
3260 05-03-2009 04:19:16 7.1 C 65 % 0.98 C
3261 05-03-2009 04:31:16 7.1 C 66 % 1.19 C
3262 05-03-2009 04:43:16 7 C 66 % 1.09 C
3263 05-03-2009 04:55:16 6.7 C 69 % 1.43 C
3264 05-03-2009 05:07:16 6.4 C 71 % 1.54 C
3265 05-03-2009 05:19:16 6.1 C 73 % 1.63 C
3266 05-03-2009 05:31:17 6 C 74 % 1.73 C
3267 05-03-2009 05:43:17 5.7 C 77 % 1.99 C
3268 05-03-2009 05:55:17 5.5 C 80 % 2.33 C
3269 05-03-2009 06:07:17 5.4 C 81 % 2.41 C
3270 05-03-2009 06:19:17 5.2 C 81 % 2.21 C
3271 05-03-2009 06:31:17 5.1 C 81 % 2.12 C
3272 05-03-2009 06:43:17 5 C 82 % 2.19 C
3273 05-03-2009 06:55:17 4.9 C 84 % 2.43 C
3274 05-03-2009 07:07:14 4.9 C 85 % 2.6 C
3275 05-03-2009 07:19:14 4.8 C 85 % 2.5 C
Sensor: Nr:Datum:Temp:Feuchte:Taupunkt:
Aussen-T/F 3276 05-03-2009 07:31:14 4.7 C 86 % 2.56 C
3277 05-03-2009 07:43:14 4.7 C 86 % 2.56 C
3278 05-03-2009 07:55:14 4.6 C 86 % 2.47 C
3279 05-03-2009 08:07:13 4.6 C 86 % 2.47 C
3280 05-03-2009 08:19:14 4.4 C 86 % 2.27 C
3281 05-03-2009 08:31:14 4.2 C 85 % 1.91 C
3282 05-03-2009 08:43:14 3.9 C 85 % 1.61 C
3283 05-03-2009 08:55:13 3.6 C 85 % 1.32 C
3284 05-03-2009 09:07:14 3.4 C 85 % 1.12 C
3285 05-03-2009 09:19:13 3.4 C 85 % 1.12 C
3286 05-03-2009 09:31:13 3.5 C 86 % 1.38 C
3287 05-03-2009 09:43:13 3.2 C 86 % 1.09 C
3288 05-03-2009 09:55:13 3.2 C 86 % 1.09 C
3289 05-03-2009 10:07:13 3.1 C 86 % 0.99 C
3290 05-03-2009 10:19:12 3 C 86 % 0.89 C
3291 05-03-2009 10:31:12 3.1 C 86 % 0.99 C
3292 05-03-2009 10:43:12 3.1 C 87 % 1.15 C
3293 05-03-2009 10:55:12 2.7 C 87 % 0.76 C
3294 05-03-2009 11:07:12 2.7 C 87 % 0.76 C
3295 05-03-2009 11:19:12 2.6 C 87 % 0.66 C
3296 05-03-2009 11:31:12 2.6 C 87 % 0.66 C
3297 05-03-2009 11:43:12 2.5 C 87 % 0.56 C
3298 05-03-2009 11:55:12 2.6 C 87 % 0.66 C
3299 05-03-2009 12:07:11 2.6 C 88 % 0.82 C
3300 05-03-2009 12:19:12 2.8 C 88 % 1.02 C
Sensor: Nr:Datum:Temp:Feuchte:Taupunkt:
Aussen-T/F 3301 05-03-2009 12:31:11 2.6 C 88 % 0.82 C
3302 05-03-2009 12:43:11 2.8 C 88 % 1.02 C
3303 05-03-2009 12:55:11 3.1 C 88 % 1.31 C
3304 05-03-2009 13:07:11 2.9 C 88 % 1.11 C
3305 05-03-2009 13:19:11 2.9 C 88 % 1.11 C
3306 05-03-2009 13:31:11 2.9 C 88 % 1.11 C
3307 05-03-2009 13:43:11 3 C 87 % 1.05 C
3308 05-03-2009 13:55:10 3 C 87 % 1.05 C
3309 05-03-2009 14:07:11 3 C 87 % 1.05 C
3310 05-03-2009 14:19:10 2.9 C 88 % 1.11 C
3311 05-03-2009 14:31:10 3 C 88 % 1.21 C
3312 05-03-2009 14:43:10 3 C 88 % 1.21 C
3313 05-03-2009 14:55:10 3.1 C 88 % 1.31 C
3314 05-03-2009 15:07:10 3 C 88 % 1.21 C
3315 05-03-2009 15:19:10 3.1 C 88 % 1.31 C
3316 05-03-2009 15:31:09 3 C 88 % 1.21 C
3317 05-03-2009 15:43:09 3.1 C 88 % 1.31 C
3318 05-03-2009 15:55:09 3.2 C 89 % 1.57 C
3319 05-03-2009 16:07:09 3.3 C 89 % 1.67 C
3320 05-03-2009 16:19:10 3.2 C 89 % 1.57 C
3321 05-03-2009 16:31:09 3.3 C 89 % 1.67 C
3322 05-03-2009 16:43:09 3.4 C 89 % 1.76 C
3323 05-03-2009 16:55:09 3.5 C 89 % 1.86 C
3324 05-03-2009 17:07:08 3.6 C 89 % 1.96 C
3325 05-03-2009 17:19:09 3.6 C 89 % 1.96 C
Sensor: Nr:Datum:Temp:Feuchte:Taupunkt:
Aussen-T/F 3326 05-03-2009 17:31:09 3.6 C 89 % 1.96 C
3327 05-03-2009 17:43:09 3.7 C 89 % 2.06 C
3328 05-03-2009 17:55:08 3.7 C 89 % 2.06 C
3329 05-03-2009 18:07:08 4 C 87 % 2.04 C
3330 05-03-2009 18:19:09 4 C 87 % 2.04 C
3331 05-03-2009 18:31:08 4 C 87 % 2.04 C
3332 05-03-2009 18:43:08 3.9 C 88 % 2.1 C
3333 05-03-2009 18:55:08 4 C 88 % 2.2 C
3334 05-03-2009 19:07:08 4 C 88 % 2.2 C
3335 05-03-2009 19:19:07 4 C 89 % 2.36 C
3336 05-03-2009 19:31:08 4 C 89 % 2.36 C
3337 05-03-2009 19:43:08 3.8 C 90 % 2.31 C
3338 05-03-2009 19:55:07 3.8 C 90 % 2.31 C
3339 05-03-2009 20:07:07 3.7 C 90 % 2.22 C
3340 05-03-2009 20:19:07 3.7 C 89 % 2.06 C
3341 05-03-2009 20:31:07 3.6 C 89 % 1.96 C
3342 05-03-2009 20:43:07 3.6 C 90 % 2.12 C
3343 05-03-2009 20:55:06 3.6 C 90 % 2.12 C
3344 05-03-2009 21:07:07 3.5 C 90 % 2.02 C
3345 05-03-2009 21:19:06 3.5 C 90 % 2.02 C
3346 05-03-2009 21:31:06 3.5 C 90 % 2.02 C
3347 05-03-2009 21:43:07 3.4 C 90 % 1.92 C
3348 05-03-2009 21:55:06 3.4 C 91 % 2.07 C
3349 05-03-2009 22:07:06 3.4 C 91 % 2.07 C
3350 05-03-2009 22:19:05 3.4 C 91 % 2.07 C
Sensor: Nr:Datum:Temp:Feuchte:Taupunkt:
Aussen-T/F 3351 05-03-2009 22:32:06 3.3 C 90 % 1.82 C
3352 05-03-2009 22:44:06 3.2 C 90 % 1.72 C
3353 05-03-2009 22:56:07 3.1 C 90 % 1.62 C
3354 05-03-2009 23:08:07 3 C 90 % 1.52 C
3355 05-03-2009 23:20:07 3 C 90 % 1.52 C
3356 05-03-2009 23:32:07 2.8 C 90 % 1.33 C
3357 05-03-2009 23:44:07 2.8 C 90 % 1.33 C
3358 05-03-2009 23:56:07 2.8 C 90 % 1.33 C
3359 06-03-2009 00:08:07 2.9 C 91 % 1.58 C
3360 06-03-2009 00:20:07 3 C 90 % 1.52 C
3361 06-03-2009 00:32:07 3 C 90 % 1.52 C
3362 06-03-2009 00:44:07 3 C 90 % 1.52 C
3363 06-03-2009 00:56:07 3 C 91 % 1.68 C
3364 06-03-2009 01:08:07 3.1 C 91 % 1.78 C
3365 06-03-2009 01:20:07 3.1 C 91 % 1.78 C
3366 06-03-2009 01:32:07 3.2 C 91 % 1.88 C
3367 06-03-2009 01:44:07 3.2 C 91 % 1.88 C
3368 06-03-2009 01:56:07 3.2 C 91 % 1.88 C
3369 06-03-2009 02:08:07 3.2 C 91 % 1.88 C
3370 06-03-2009 02:20:07 3.3 C 91 % 1.98 C
3371 06-03-2009 02:32:07 3.3 C 91 % 1.98 C
3372 06-03-2009 02:44:07 3.3 C 91 % 1.98 C
3373 06-03-2009 02:56:08 3.4 C 91 % 2.07 C
3374 06-03-2009 03:08:08 3.4 C 91 % 2.07 C
3375 06-03-2009 03:20:08 3.4 C 91 % 2.07 C
Sensor: Nr:Datum:Temp:Feuchte:Taupunkt:
Aussen-T/F 3376 06-03-2009 03:32:08 3.4 C 91 % 2.07 C
3377 06-03-2009 03:44:08 3.5 C 91 % 2.17 C
3378 06-03-2009 03:56:08 3.5 C 91 % 2.17 C
3379 06-03-2009 04:08:08 3.5 C 91 % 2.17 C
3380 06-03-2009 04:20:08 3.4 C 91 % 2.07 C
3381 06-03-2009 04:32:08 3.4 C 91 % 2.07 C
3382 06-03-2009 04:44:08 3.3 C 90 % 1.82 C
3383 06-03-2009 04:56:08 3.3 C 90 % 1.82 C
3384 06-03-2009 05:08:08 3.3 C 90 % 1.82 C
3385 06-03-2009 05:20:08 3.3 C 91 % 1.98 C
3386 06-03-2009 05:32:08 3.3 C 91 % 1.98 C
3387 06-03-2009 05:44:08 3.3 C 91 % 1.98 C
3388 06-03-2009 05:56:08 3.4 C 92 % 2.23 C
3389 06-03-2009 06:08:08 3.5 C 92 % 2.33 C
3390 06-03-2009 06:20:08 3.6 C 92 % 2.42 C
3391 06-03-2009 06:32:08 3.5 C 92 % 2.33 C
3392 06-03-2009 06:44:08 3.6 C 92 % 2.42 C
3393 06-03-2009 06:56:08 3.6 C 92 % 2.42 C
3394 06-03-2009 07:08:06 3.5 C 92 % 2.33 C
3395 06-03-2009 07:20:06 3.5 C 92 % 2.33 C
3396 06-03-2009 07:32:06 3.3 C 91 % 1.98 C
3397 06-03-2009 07:44:06 3.3 C 92 % 2.13 C
3398 06-03-2009 07:56:06 3.3 C 92 % 2.13 C
3399 06-03-2009 08:08:05 3.3 C 91 % 1.98 C
3400 06-03-2009 08:20:05 3.3 C 91 % 1.98 C
Sensor: Nr:Datum:Temp:Feuchte:Taupunkt:
Aussen-T/F 3401 06-03-2009 08:32:05 3.3 C 91 % 1.98 C
3402 06-03-2009 08:44:05 3.2 C 90 % 1.72 C
3403 06-03-2009 08:56:05 3.3 C 90 % 1.82 C
3404 06-03-2009 09:08:05 3.3 C 90 % 1.82 C
3405 06-03-2009 09:20:05 3.4 C 90 % 1.92 C
3406 06-03-2009 09:32:05 3.4 C 89 % 1.76 C
3407 06-03-2009 09:44:05 3.5 C 89 % 1.86 C
3408 06-03-2009 09:56:05 3.6 C 89 % 1.96 C
3409 06-03-2009 10:08:05 3.6 C 89 % 1.96 C
3410 06-03-2009 10:20:04 3.7 C 88 % 1.9 C
3411 06-03-2009 10:32:04 3.9 C 88 % 2.1 C
3412 06-03-2009 10:44:04 3.8 C 88 % 2 C
3413 06-03-2009 10:56:04 3.8 C 88 % 2 C
3414 06-03-2009 11:08:04 3.9 C 89 % 2.26 C
3415 06-03-2009 11:20:03 4 C 88 % 2.2 C
3416 06-03-2009 11:32:04 4.1 C 88 % 2.3 C
3417 06-03-2009 11:44:03 4.1 C 88 % 2.3 C
3418 06-03-2009 11:56:03 4.2 C 88 % 2.39 C
3419 06-03-2009 12:08:03 4.2 C 87 % 2.23 C
3420 06-03-2009 12:20:04 4.3 C 88 % 2.49 C
3421 06-03-2009 12:32:03 4.3 C 88 % 2.49 C
3422 06-03-2009 12:44:03 4.4 C 87 % 2.43 C
3423 06-03-2009 12:56:03 4.4 C 87 % 2.43 C
3424 06-03-2009 13:08:03 4.5 C 86 % 2.37 C
3425 06-03-2009 13:20:03 4.6 C 85 % 2.3 C
Sensor: Nr:Datum:Temp:Feuchte:Taupunkt:
Aussen-T/F 3426 06-03-2009 13:32:02 5 C 82 % 2.19 C
3427 06-03-2009 13:44:02 5 C 82 % 2.19 C
3428 06-03-2009 13:56:03 4.8 C 83 % 2.16 C
3429 06-03-2009 14:08:02 4.7 C 84 % 2.23 C
3430 06-03-2009 14:20:02 4.7 C 84 % 2.23 C
3431 06-03-2009 14:32:02 4.8 C 83 % 2.16 C
3432 06-03-2009 14:44:02 4.9 C 82 % 2.09 C
3433 06-03-2009 14:56:02 4.9 C 83 % 2.26 C
3434 06-03-2009 15:08:02 4.8 C 82 % 1.99 C
3435 06-03-2009 15:20:01 4.8 C 82 % 1.99 C
3436 06-03-2009 15:32:01 4.9 C 82 % 2.09 C
3437 06-03-2009 15:44:01 4.9 C 82 % 2.09 C
3438 06-03-2009 15:56:01 4.7 C 82 % 1.9 C
3439 06-03-2009 16:08:01 4.7 C 82 % 1.9 C
3440 06-03-2009 16:20:00 4.6 C 82 % 1.8 C
3441 06-03-2009 16:32:01 4.6 C 82 % 1.8 C
3442 06-03-2009 16:44:00 4.5 C 83 % 1.87 C
3443 06-03-2009 16:56:00 4.4 C 84 % 1.94 C
3444 06-03-2009 17:08:00 4.4 C 84 % 1.94 C
3445 06-03-2009 17:20:01 4.3 C 84 % 1.84 C
3446 06-03-2009 17:32:00 4.2 C 83 % 1.58 C
3447 06-03-2009 17:44:00 4.2 C 83 % 1.58 C
3448 06-03-2009 17:56:00 4.2 C 84 % 1.74 C
3449 06-03-2009 18:08:00 4.2 C 83 % 1.58 C
3450 06-03-2009 18:20:00 4.1 C 82 % 1.31 C
Sensor: Nr:Datum:Temp:Feuchte:Taupunkt:
Aussen-T/F 3451 06-03-2009 18:32:00 4 C 83 % 1.38 C
3452 06-03-2009 18:44:00 4 C 84 % 1.55 C
3453 06-03-2009 18:56:00 3.9 C 85 % 1.61 C
3454 06-03-2009 19:08:00 3.9 C 84 % 1.45 C
3455 06-03-2009 19:20:59 4 C 82 % 1.21 C
3456 06-03-2009 19:32:59 4 C 82 % 1.21 C
3457 06-03-2009 19:44:59 4 C 83 % 1.38 C
3458 06-03-2009 19:56:59 3.9 C 84 % 1.45 C
3459 06-03-2009 20:08:59 3.8 C 84 % 1.35 C
3460 06-03-2009 20:20:58 3.8 C 84 % 1.35 C
3461 06-03-2009 20:32:59 3.8 C 83 % 1.19 C
3462 06-03-2009 20:44:58 4 C 80 % 0.87 C
3463 06-03-2009 20:56:58 3.9 C 81 % 0.95 C
3464 06-03-2009 21:08:59 3.8 C 80 % 0.68 C
3465 06-03-2009 21:20:58 3.7 C 78 % 0.23 C
3466 06-03-2009 21:32:58 3.7 C 76 % -0.13 C
3467 06-03-2009 21:44:58 3.8 C 72 % -0.77 C
3468 06-03-2009 21:56:58 3.8 C 70 % -1.16 C
3469 06-03-2009 22:08:58 3.8 C 68 % -1.55 C
3470 06-03-2009 22:21:57 3.7 C 68 % -1.64 C
3471 06-03-2009 22:33:57 3.8 C 67 % -1.75 C
3472 06-03-2009 22:45:57 3.8 C 68 % -1.55 C
3473 06-03-2009 22:57:57 3.8 C 67 % -1.75 C
3474 06-03-2009 23:09:57 3.8 C 66 % -1.95 C
3475 06-03-2009 23:21:57 3.7 C 66 % -2.05 C
Sensor: Nr:Datum:Temp:Feuchte:Taupunkt:
Aussen-T/F 3476 06-03-2009 23:33:57 3.8 C 65 % -2.16 C
3477 06-03-2009 23:45:57 3.8 C 65 % -2.16 C
3478 06-03-2009 23:57:57 3.8 C 64 % -2.37 C
3479 07-03-2009 00:09:58 3.7 C 64 % -2.46 C
3480 07-03-2009 00:21:58 3.8 C 62 % -2.8 C
3481 07-03-2009 00:33:58 3.8 C 61 % -3.01 C
3482 07-03-2009 00:45:58 3.8 C 60 % -3.23 C
3483 07-03-2009 00:57:58 3.7 C 61 % -3.11 C
3484 07-03-2009 01:09:58 3.6 C 63 % -2.77 C
3485 07-03-2009 01:21:58 3.6 C 62 % -2.98 C
3486 07-03-2009 01:33:58 3.6 C 62 % -2.98 C
3487 07-03-2009 01:45:58 3.5 C 62 % -3.08 C
3488 07-03-2009 01:57:58 3.4 C 63 % -2.96 C
3489 07-03-2009 02:09:58 3.4 C 63 % -2.96 C
3490 07-03-2009 02:21:58 3.4 C 63 % -2.96 C
3491 07-03-2009 02:33:58 3.3 C 63 % -3.05 C
3492 07-03-2009 02:45:58 3.3 C 64 % -2.84 C
3493 07-03-2009 02:57:58 3.2 C 64 % -2.94 C
3494 07-03-2009 03:09:58 3.1 C 65 % -2.83 C
3495 07-03-2009 03:21:58 3.2 C 64 % -2.94 C
3496 07-03-2009 03:33:58 3.2 C 64 % -2.94 C
3497 07-03-2009 03:45:58 3.2 C 64 % -2.94 C
3498 07-03-2009 03:57:58 3.2 C 64 % -2.94 C
3499 07-03-2009 04:09:59 3.2 C 64 % -2.94 C
3500 07-03-2009 04:21:59 3.2 C 64 % -2.94 C
Sensor: Nr:Datum:Temp:Feuchte:Taupunkt:
Aussen-T/F 3501 07-03-2009 04:33:59 3.1 C 64 % -3.03 C
3502 07-03-2009 04:45:59 3.1 C 64 % -3.03 C
3503 07-03-2009 04:57:59 3.2 C 63 % -3.15 C
3504 07-03-2009 05:09:59 3.2 C 63 % -3.15 C
3505 07-03-2009 05:21:59 3.2 C 62 % -3.36 C
3506 07-03-2009 05:33:59 3.1 C 63 % -3.24 C
3507 07-03-2009 05:45:59 3 C 63 % -3.34 C
3508 07-03-2009 05:57:59 3 C 62 % -3.55 C
3509 07-03-2009 06:09:59 3 C 61 % -3.77 C
3510 07-03-2009 06:21:58 3 C 60 % -3.99 C
3511 07-03-2009 06:33:57 3 C 61 % -3.77 C
3512 07-03-2009 06:45:57 3 C 61 % -3.77 C
3513 07-03-2009 06:57:57 3 C 61 % -3.77 C
3514 07-03-2009 07:09:57 2.9 C 62 % -3.65 C
3515 07-03-2009 07:21:57 2.9 C 63 % -3.43 C
3516 07-03-2009 07:33:57 2.7 C 64 % -3.41 C
3517 07-03-2009 07:45:57 2.6 C 65 % -3.3 C
3518 07-03-2009 07:57:57 2.7 C 65 % -3.21 C
3519 07-03-2009 08:09:57 2.7 C 64 % -3.41 C
3520 07-03-2009 08:21:56 2.7 C 64 % -3.41 C
3521 07-03-2009 08:33:56 2.6 C 63 % -3.72 C
3522 07-03-2009 08:45:56 2.6 C 63 % -3.72 C
3523 07-03-2009 08:57:56 2.7 C 63 % -3.62 C
3524 07-03-2009 09:09:56 2.7 C 63 % -3.62 C
3525 07-03-2009 09:21:56 3 C 62 % -3.55 C
Sensor: Nr:Datum:Temp:Feuchte:Taupunkt:
Aussen-T/F 3526 07-03-2009 09:33:56 3.3 C 61 % -3.49 C
3527 07-03-2009 09:45:56 3.2 C 60 % -3.8 C
3528 07-03-2009 09:57:56 3.1 C 62 % -3.46 C
3529 07-03-2009 10:09:56 3.2 C 63 % -3.15 C
3530 07-03-2009 10:21:55 3.5 C 63 % -2.86 C
3531 07-03-2009 10:33:55 3.9 C 61 % -2.92 C
3532 07-03-2009 10:45:55 4.5 C 60 % -2.57 C
3533 07-03-2009 10:57:55 5 C 57 % -2.79 C
3534 07-03-2009 11:09:55 5.1 C 58 % -2.47 C
3535 07-03-2009 11:21:54 5.9 C 55 % -2.43 C
3536 07-03-2009 11:33:55 6.6 C 51 % -2.8 C
3537 07-03-2009 11:45:54 7.2 C 48 % -3.06 C
3538 07-03-2009 11:57:54 7.4 C 49 % -2.6 C
3539 07-03-2009 12:09:54 7.5 C 47 % -3.06 C
3540 07-03-2009 12:21:55 7.6 C 45 % -3.55 C
3541 07-03-2009 12:33:54 7.8 C 44 % -3.67 C
3542 07-03-2009 12:45:54 8.2 C 41 % -4.25 C
3543 07-03-2009 12:57:54 7.9 C 41 % -4.52 C
3544 07-03-2009 13:09:54 8.5 C 38 % -4.98 C
3545 07-03-2009 13:21:54 8.4 C 38 % -5.07 C
3546 07-03-2009 13:33:54 9 C 37 % -4.89 C
3547 07-03-2009 13:45:53 8.5 C 36 % -5.69 C
3548 07-03-2009 13:57:53 9.4 C 36 % -4.89 C
3549 07-03-2009 14:09:54 10 C 32 % -5.91 C
3550 07-03-2009 14:21:53 10.8 C 31 % -5.63 C
Sensor: Nr:Datum:Temp:Feuchte:Taupunkt:
Aussen-T/F 3551 07-03-2009 14:33:53 11.3 C 29 % -6.06 C
3552 07-03-2009 14:45:53 11.4 C 27 % -6.91 C
3553 07-03-2009 14:57:53 11.3 C 28 % -6.52 C
3554 07-03-2009 15:09:53 11.8 C 26 % -7.05 C
3555 07-03-2009 15:21:52 11.9 C 25 % -7.47 C
3556 07-03-2009 15:33:52 11 C 32 % -5.04 C
3557 07-03-2009 15:45:52 10.8 C 34 % -4.41 C
3558 07-03-2009 15:57:52 11 C 30 % -5.88 C
3559 07-03-2009 16:09:52 10.7 C 28 % -7.04 C
3560 07-03-2009 16:21:52 10.2 C 30 % -6.58 C
3561 07-03-2009 16:33:52 10.4 C 30 % -6.4 C
3562 07-03-2009 16:45:52 10.6 C 28 % -7.12 C
3563 07-03-2009 16:57:52 10.4 C 27 % -7.77 C
3564 07-03-2009 17:09:51 9.6 C 39 % -3.65 C
3565 07-03-2009 17:21:52 9.2 C 42 % -3.02 C
3566 07-03-2009 17:33:51 8.7 C 45 % -2.55 C
3567 07-03-2009 17:45:51 8.4 C 47 % -2.24 C
3568 07-03-2009 17:57:51 8 C 49 % -2.05 C
3569 07-03-2009 18:09:51 7.8 C 50 % -1.96 C
3570 07-03-2009 18:21:51 7.5 C 52 % -1.7 C
3571 07-03-2009 18:33:51 7.2 C 53 % -1.72 C
3572 07-03-2009 18:45:50 6.8 C 55 % -1.59 C
3573 07-03-2009 18:57:50 6.4 C 56 % -1.72 C
3574 07-03-2009 19:09:51 6.2 C 58 % -1.43 C
3575 07-03-2009 19:21:50 5.8 C 60 % -1.35 C
Sensor: Nr:Datum:Temp:Feuchte:Taupunkt:
Aussen-T/F 3576 07-03-2009 19:33:50 5.6 C 61 % -1.31 C
3577 07-03-2009 19:45:50 5.3 C 61 % -1.6 C
3578 07-03-2009 19:57:50 5.3 C 62 % -1.38 C
3579 07-03-2009 20:09:50 5.2 C 62 % -1.47 C
3580 07-03-2009 20:21:49 5.6 C 62 % -1.09 C
3581 07-03-2009 20:33:50 6 C 59 % -1.39 C
3582 07-03-2009 20:45:50 6 C 58 % -1.62 C
3583 07-03-2009 20:57:50 5.9 C 59 % -1.48 C
3584 07-03-2009 21:09:50 5.9 C 59 % -1.48 C
3585 07-03-2009 21:21:49 5.9 C 59 % -1.48 C
3586 07-03-2009 21:33:49 6 C 57 % -1.86 C
3587 07-03-2009 21:45:49 6.1 C 56 % -2 C
3588 07-03-2009 21:57:49 6.2 C 55 % -2.15 C
3589 07-03-2009 22:09:49 6.4 C 55 % -1.97 C
3590 07-03-2009 22:21:48 6.2 C 55 % -2.15 C
3591 07-03-2009 22:33:49 6.4 C 55 % -1.97 C
3592 07-03-2009 22:46:50 6.4 C 56 % -1.72 C
3593 07-03-2009 22:58:50 6.2 C 57 % -1.67 C
3594 07-03-2009 23:10:50 6.3 C 57 % -1.58 C
3595 07-03-2009 23:22:50 6.3 C 58 % -1.34 C
3596 07-03-2009 23:34:50 6.5 C 55 % -1.87 C
3597 07-03-2009 23:46:50 6.5 C 56 % -1.63 C
3598 07-03-2009 23:58:50 6.4 C 57 % -1.48 C
3599 08-03-2009 00:10:50 6.3 C 57 % -1.58 C
3600 08-03-2009 00:22:50 6.4 C 57 % -1.48 C
Sensor: Nr:Datum:Temp:Feuchte:Taupunkt:
Aussen-T/F 3601 08-03-2009 00:34:50 6.3 C 57 % -1.58 C
3602 08-03-2009 00:46:50 6.3 C 58 % -1.34 C
3603 08-03-2009 00:58:51 6.1 C 59 % -1.3 C
3604 08-03-2009 01:10:51 5.9 C 61 % -1.03 C
3605 08-03-2009 01:22:51 6.1 C 60 % -1.07 C
3606 08-03-2009 01:34:51 6.3 C 60 % -0.88 C
3607 08-03-2009 01:46:51 6.3 C 60 % -0.88 C
3608 08-03-2009 01:58:51 6.5 C 58 % -1.15 C
3609 08-03-2009 02:10:51 6.4 C 59 % -1.01 C
3610 08-03-2009 02:22:51 6.4 C 59 % -1.01 C
3611 08-03-2009 02:34:51 6.4 C 59 % -1.01 C
3612 08-03-2009 02:46:51 6.5 C 61 % -0.46 C
3613 08-03-2009 02:58:51 6.7 C 61 % -0.28 C
3614 08-03-2009 03:10:51 6.6 C 61 % -0.37 C
3615 08-03-2009 03:22:51 6.6 C 62 % -0.15 C
3616 08-03-2009 03:34:51 6.7 C 62 % -0.05 C
3617 08-03-2009 03:46:51 6.9 C 62 % 0.14 C
3618 08-03-2009 03:58:51 7 C 60 % -0.22 C
3619 08-03-2009 04:10:51 7.1 C 61 % 0.1 C
3620 08-03-2009 04:22:51 7.1 C 61 % 0.1 C
3621 08-03-2009 04:34:51 7.1 C 61 % 0.1 C
3622 08-03-2009 04:46:52 7.2 C 61 % 0.2 C
3623 08-03-2009 04:58:52 7.2 C 61 % 0.2 C
3624 08-03-2009 05:10:52 7.2 C 60 % -0.03 C
3625 08-03-2009 05:22:52 7.3 C 60 % 0.06 C
Sensor: Nr:Datum:Temp:Feuchte:Taupunkt:
Aussen-T/F 3626 08-03-2009 05:34:52 7.2 C 60 % -0.03 C
3627 08-03-2009 05:46:52 7.3 C 60 % 0.06 C
3628 08-03-2009 05:58:52 7.3 C 60 % 0.06 C
3629 08-03-2009 06:10:52 7.2 C 61 % 0.2 C
3630 08-03-2009 06:22:52 7.2 C 60 % -0.03 C
3631 08-03-2009 06:34:52 7.3 C 61 % 0.29 C
3632 08-03-2009 06:46:52 7.3 C 61 % 0.29 C
3633 08-03-2009 06:58:52 7.3 C 62 % 0.51 C
3634 08-03-2009 07:10:52 7.3 C 62 % 0.51 C
3635 08-03-2009 07:22:52 7.3 C 63 % 0.74 C
3636 08-03-2009 07:34:52 7.3 C 63 % 0.74 C
3637 08-03-2009 07:46:49 7.3 C 64 % 0.95 C
3638 08-03-2009 07:58:49 7.4 C 65 % 1.26 C
3639 08-03-2009 08:10:50 7.5 C 65 % 1.36 C
3640 08-03-2009 08:22:50 7.8 C 65 % 1.64 C
3641 08-03-2009 08:34:49 8 C 63 % 1.4 C
3642 08-03-2009 08:46:49 8.1 C 62 % 1.27 C
3643 08-03-2009 08:58:49 8 C 63 % 1.4 C
3644 08-03-2009 09:10:49 8 C 63 % 1.4 C
3645 08-03-2009 09:22:49 8.2 C 63 % 1.59 C
3646 08-03-2009 09:34:48 8.2 C 63 % 1.59 C
3647 08-03-2009 09:46:49 8.2 C 63 % 1.59 C
3648 08-03-2009 09:58:49 8.2 C 63 % 1.59 C
3649 08-03-2009 10:10:48 8.3 C 63 % 1.68 C
3650 08-03-2009 10:22:48 8.3 C 63 % 1.68 C
Sensor: Nr:Datum:Temp:Feuchte:Taupunkt:
Aussen-T/F 3651 08-03-2009 10:34:48 8.3 C 64 % 1.9 C
3652 08-03-2009 10:46:48 8.5 C 64 % 2.09 C
3653 08-03-2009 10:58:48 8.5 C 65 % 2.31 C
3654 08-03-2009 11:10:47 8.5 C 66 % 2.52 C
3655 08-03-2009 11:22:48 8.5 C 66 % 2.52 C
3656 08-03-2009 11:34:48 8.7 C 66 % 2.71 C
3657 08-03-2009 11:46:47 8.6 C 66 % 2.62 C
3658 08-03-2009 11:58:47 8.6 C 67 % 2.83 C
3659 08-03-2009 12:10:48 8.8 C 67 % 3.02 C
3660 08-03-2009 12:22:47 9.1 C 64 % 2.66 C
3661 08-03-2009 12:34:47 9.3 C 63 % 2.63 C
3662 08-03-2009 12:46:46 9.3 C 62 % 2.4 C
3663 08-03-2009 12:58:46 9.1 C 65 % 2.88 C
3664 08-03-2009 13:10:47 8.9 C 70 % 3.74 C
3665 08-03-2009 13:22:46 8.7 C 73 % 4.14 C
3666 08-03-2009 13:34:46 8.9 C 74 % 4.53 C
3667 08-03-2009 13:46:47 9.6 C 69 % 4.2 C
3668 08-03-2009 13:58:47 10.2 C 64 % 3.7 C
3669 08-03-2009 14:10:46 10.2 C 63 % 3.48 C
3670 08-03-2009 14:22:46 10.1 C 63 % 3.39 C
3671 08-03-2009 14:34:46 10.4 C 62 % 3.44 C
3672 08-03-2009 14:46:46 10.5 C 61 % 3.31 C
3673 08-03-2009 14:58:46 10.3 C 62 % 3.35 C
3674 08-03-2009 15:10:45 10.2 C 62 % 3.25 C
3675 08-03-2009 15:22:46 9.9 C 66 % 3.86 C
Sensor: Nr:Datum:Temp:Feuchte:Taupunkt:
Aussen-T/F 3676 08-03-2009 15:34:45 9.7 C 69 % 4.3 C
3677 08-03-2009 15:46:45 10.1 C 66 % 4.05 C
3678 08-03-2009 15:58:45 9.8 C 68 % 4.18 C
3679 08-03-2009 16:10:45 9.3 C 73 % 4.72 C
3680 08-03-2009 16:22:45 9 C 78 % 5.38 C
3681 08-03-2009 16:34:45 8.7 C 82 % 5.8 C
3682 08-03-2009 16:46:44 8.5 C 81 % 5.43 C
3683 08-03-2009 16:58:44 8.5 C 81 % 5.43 C
3684 08-03-2009 17:10:45 8.5 C 80 % 5.25 C
3685 08-03-2009 17:22:44 8.4 C 81 % 5.33 C
3686 08-03-2009 17:34:45 8.3 C 82 % 5.41 C
3687 08-03-2009 17:46:44 8.4 C 83 % 5.69 C
3688 08-03-2009 17:58:44 8.3 C 84 % 5.76 C
3689 08-03-2009 18:10:44 8.2 C 84 % 5.66 C
3690 08-03-2009 18:22:44 8.1 C 84 % 5.56 C
3691 08-03-2009 18:34:44 8.1 C 85 % 5.73 C
3692 08-03-2009 18:46:43 8.2 C 77 % 4.42 C
3693 08-03-2009 18:58:43 8.1 C 75 % 3.94 C
3694 08-03-2009 19:10:44 8.1 C 76 % 4.13 C
3695 08-03-2009 19:22:43 7.7 C 77 % 3.93 C
3696 08-03-2009 19:34:43 7.1 C 79 % 3.71 C
3697 08-03-2009 19:46:43 6.9 C 82 % 4.05 C
3698 08-03-2009 19:58:43 7 C 83 % 4.32 C
3699 08-03-2009 20:10:43 6.9 C 84 % 4.39 C
3700 08-03-2009 20:22:43 6.9 C 85 % 4.56 C
Sensor: Nr:Datum:Temp:Feuchte:Taupunkt:
Aussen-T/F 3701 08-03-2009 20:34:42 6.6 C 84 % 4.1 C
3702 08-03-2009 20:46:43 6.2 C 83 % 3.53 C
3703 08-03-2009 20:58:43 5.8 C 84 % 3.31 C
3704 08-03-2009 21:10:43 5.4 C 84 % 2.92 C
3705 08-03-2009 21:22:42 5.2 C 84 % 2.72 C
3706 08-03-2009 21:34:42 5.1 C 84 % 2.63 C
3707 08-03-2009 21:46:42 5.1 C 84 % 2.63 C
3708 08-03-2009 21:58:42 5 C 84 % 2.53 C
3709 08-03-2009 22:10:42 4.8 C 84 % 2.33 C
3710 08-03-2009 22:22:41 4.7 C 84 % 2.23 C
3711 08-03-2009 22:34:41 4.6 C 84 % 2.14 C
3712 08-03-2009 22:46:41 4.8 C 82 % 1.99 C
3713 08-03-2009 22:58:41 5.3 C 71 % 0.48 C
3714 08-03-2009 23:10:41 5.3 C 68 % -0.12 C
3715 08-03-2009 23:23:43 4.7 C 72 % 0.09 C
3716 08-03-2009 23:35:43 4.6 C 73 % 0.19 C
3717 08-03-2009 23:47:43 4.5 C 73 % 0.09 C
3718 08-03-2009 23:59:43 4.4 C 73 % 0 C
3719 09-03-2009 00:11:43 4.4 C 74 % 0.18 C
3720 09-03-2009 00:23:43 4.8 C 74 % 0.57 C
3721 09-03-2009 00:35:43 5.1 C 70 % 0.09 C
3722 09-03-2009 00:47:43 5 C 69 % -0.2 C
3723 09-03-2009 00:59:43 5 C 69 % -0.2 C
3724 09-03-2009 01:11:43 4.7 C 71 % -0.1 C
3725 09-03-2009 01:23:43 4.7 C 63 % -1.73 C
Sensor: Nr:Datum:Temp:Feuchte:Taupunkt:
Aussen-T/F 3726 09-03-2009 01:35:43 4.7 C 67 % -0.89 C
3727 09-03-2009 01:47:43 4.7 C 67 % -0.89 C
3728 09-03-2009 01:59:44 4.7 C 61 % -2.16 C
3729 09-03-2009 02:11:44 4.7 C 56 % -3.31 C
3730 09-03-2009 02:23:44 4.7 C 55 % -3.55 C
3731 09-03-2009 02:35:44 4.3 C 56 % -3.69 C
3732 09-03-2009 02:47:44 3.9 C 60 % -3.14 C
3733 09-03-2009 02:59:44 3.7 C 60 % -3.33 C
3734 09-03-2009 03:11:44 3.6 C 60 % -3.42 C
3735 09-03-2009 03:23:44 3.5 C 61 % -3.3 C
3736 09-03-2009 03:35:44 3.3 C 62 % -3.27 C
3737 09-03-2009 03:47:44 3.3 C 65 % -2.64 C
3738 09-03-2009 03:59:44 3.4 C 66 % -2.33 C
3739 09-03-2009 04:11:44 3.4 C 67 % -2.13 C
3740 09-03-2009 04:23:44 3.6 C 67 % -1.94 C
3741 09-03-2009 04:35:44 3.7 C 69 % -1.45 C
3742 09-03-2009 04:47:44 3.3 C 74 % -0.88 C
3743 09-03-2009 04:59:44 3.2 C 77 % -0.43 C
3744 09-03-2009 05:11:44 3.1 C 78 % -0.35 C
3745 09-03-2009 05:23:44 3.1 C 79 % -0.18 C
3746 09-03-2009 05:35:44 3 C 78 % -0.45 C
3747 09-03-2009 05:47:45 3.2 C 77 % -0.43 C
3748 09-03-2009 05:59:45 3.3 C 76 % -0.52 C
3749 09-03-2009 06:11:45 3.1 C 78 % -0.35 C
3750 09-03-2009 06:23:45 2.5 C 81 % -0.42 C
Sensor: Nr:Datum:Temp:Feuchte:Taupunkt:
Aussen-T/F 3751 09-03-2009 06:35:45 2.3 C 83 % -0.28 C
3752 09-03-2009 06:47:45 2.1 C 84 % -0.31 C
3753 09-03-2009 06:59:42 2.2 C 85 % -0.05 C
3754 09-03-2009 07:11:42 2.2 C 84 % -0.22 C
3755 09-03-2009 07:23:42 2.1 C 79 % -1.15 C
3756 09-03-2009 07:35:41 2.1 C 75 % -1.86 C
3757 09-03-2009 07:47:42 2 C 71 % -2.69 C
3758 09-03-2009 07:59:41 2.1 C 70 % -2.79 C
3759 09-03-2009 08:11:41 2.2 C 69 % -2.88 C
3760 09-03-2009 08:23:41 2.6 C 66 % -3.1 C
3761 09-03-2009 08:35:42 2.5 C 68 % -2.79 C
3762 09-03-2009 08:47:41 3 C 66 % -2.72 C
3763 09-03-2009 08:59:41 3.4 C 65 % -2.54 C
3764 09-03-2009 09:11:41 3.5 C 65 % -2.44 C
3765 09-03-2009 09:23:40 3.3 C 66 % -2.43 C
3766 09-03-2009 09:35:41 3.7 C 66 % -2.05 C
3767 09-03-2009 09:47:40 4.2 C 62 % -2.42 C
3768 09-03-2009 09:59:40 4.5 C 61 % -2.35 C
3769 09-03-2009 10:11:41 4.7 C 62 % -1.94 C
3770 09-03-2009 10:23:40 5.1 C 58 % -2.47 C
3771 09-03-2009 10:35:40 5.3 C 58 % -2.28 C
3772 09-03-2009 10:47:39 5.6 C 57 % -2.23 C
3773 09-03-2009 10:59:40 5.6 C 56 % -2.47 C
3774 09-03-2009 11:11:40 6 C 54 % -2.59 C
3775 09-03-2009 11:23:40 5.8 C 55 % -2.53 C
Sensor: Nr:Datum:Temp:Feuchte:Taupunkt:
Aussen-T/F 3776 09-03-2009 11:35:39 6.4 C 53 % -2.47 C
3777 09-03-2009 11:47:40 6.1 C 52 % -3 C
3778 09-03-2009 11:59:39 6.5 C 53 % -2.37 C
3779 09-03-2009 12:11:39 7.2 C 50 % -2.51 C
3780 09-03-2009 12:23:39 7 C 46 % -3.81 C
3781 09-03-2009 12:35:38 7 C 47 % -3.52 C
3782 09-03-2009 12:47:39 7.2 C 47 % -3.34 C
3783 09-03-2009 12:59:39 7.7 C 43 % -4.07 C
3784 09-03-2009 13:11:39 7.7 C 43 % -4.07 C
3785 09-03-2009 13:23:38 7.4 C 43 % -4.34 C
3786 09-03-2009 13:35:39 7.5 C 44 % -3.94 C
3787 09-03-2009 13:47:38 7.7 C 40 % -5.02 C
3788 09-03-2009 13:59:38 8 C 39 % -5.09 C
3789 09-03-2009 14:11:38 7.7 C 40 % -5.02 C
3790 09-03-2009 14:23:38 8.2 C 40 % -4.57 C
3791 09-03-2009 14:35:38 8.4 C 41 % -4.07 C
3792 09-03-2009 14:47:37 8.3 C 41 % -4.16 C
3793 09-03-2009 14:59:38 7.2 C 47 % -3.34 C
3794 09-03-2009 15:11:38 6.3 C 54 % -2.31 C
3795 09-03-2009 15:23:37 6.9 C 54 % -1.75 C
3796 09-03-2009 15:35:37 8.1 C 46 % -2.8 C
3797 09-03-2009 15:47:38 8.7 C 42 % -3.48 C
3798 09-03-2009 15:59:37 8.6 C 41 % -3.89 C
3799 09-03-2009 16:11:37 9.5 C 39 % -3.74 C
3800 09-03-2009 16:23:37 8.7 C 41 % -3.8 C
Sensor: Nr:Datum:Temp:Feuchte:Taupunkt:
Aussen-T/F 3801 09-03-2009 16:35:36 8.7 C 43 % -3.16 C
3802 09-03-2009 16:47:37 8.8 C 43 % -3.07 C
3803 09-03-2009 16:59:36 9.1 C 38 % -4.45 C
3804 09-03-2009 17:11:36 8.3 C 40 % -4.48 C
3805 09-03-2009 17:23:36 8 C 42 % -4.11 C
3806 09-03-2009 17:35:37 7.9 C 44 % -3.58 C
3807 09-03-2009 17:47:36 7.5 C 46 % -3.35 C
3808 09-03-2009 17:59:36 7.4 C 46 % -3.44 C
3809 09-03-2009 18:11:36 7.4 C 47 % -3.16 C
3810 09-03-2009 18:23:36 7.3 C 47 % -3.25 C
3811 09-03-2009 18:35:36 7 C 50 % -2.69 C
3812 09-03-2009 18:47:35 6.7 C 54 % -1.94 C
3813 09-03-2009 18:59:35 6.4 C 56 % -1.72 C
3814 09-03-2009 19:11:35 6.4 C 55 % -1.97 C
3815 09-03-2009 19:23:35 6.2 C 52 % -2.91 C
3816 09-03-2009 19:35:35 6 C 53 % -2.84 C
3817 09-03-2009 19:47:34 5.8 C 56 % -2.28 C
3818 09-03-2009 19:59:35 5.8 C 57 % -2.04 C
3819 09-03-2009 20:11:35 5.8 C 59 % -1.58 C
3820 09-03-2009 20:23:35 5.5 C 61 % -1.41 C
3821 09-03-2009 20:35:34 5.2 C 63 % -1.25 C
3822 09-03-2009 20:47:35 4.9 C 66 % -0.91 C
3823 09-03-2009 20:59:34 4.8 C 68 % -0.59 C
3824 09-03-2009 21:11:34 4.6 C 69 % -0.58 C
3825 09-03-2009 21:23:34 4.4 C 71 % -0.39 C
Sensor: Nr:Datum:Temp:Feuchte:Taupunkt:
Aussen-T/F 3826 09-03-2009 21:35:34 4 C 75 % -0.02 C
3827 09-03-2009 21:48:35 3.8 C 78 % 0.33 C
3828 09-03-2009 22:00:35 3.8 C 78 % 0.33 C
3829 09-03-2009 22:12:35 4.1 C 76 % 0.26 C
3830 09-03-2009 22:24:35 3.7 C 77 % 0.05 C
3831 09-03-2009 22:36:35 4 C 72 % -0.58 C
3832 09-03-2009 22:48:35 3.9 C 73 % -0.49 C
3833 09-03-2009 23:00:35 3.7 C 74 % -0.49 C
3834 09-03-2009 23:12:35 3.5 C 75 % -0.5 C
3835 09-03-2009 23:24:35 3.3 C 77 % -0.34 C
3836 09-03-2009 23:36:35 3.2 C 78 % -0.26 C
3837 09-03-2009 23:48:35 3.4 C 79 % 0.11 C
3838 10-03-2009 00:00:35 3.4 C 79 % 0.11 C
3839 10-03-2009 00:12:35 3.3 C 79 % 0.02 C
3840 10-03-2009 00:24:35 3.4 C 80 % 0.29 C
3841 10-03-2009 00:36:35 3.7 C 79 % 0.4 C
3842 10-03-2009 00:48:35 3.9 C 77 % 0.25 C
3843 10-03-2009 01:00:35 4.1 C 75 % 0.08 C
3844 10-03-2009 01:12:35 4.2 C 74 % -0.01 C
3845 10-03-2009 01:24:36 4.3 C 72 % -0.29 C
3846 10-03-2009 01:36:36 4.3 C 72 % -0.29 C
3847 10-03-2009 01:48:36 4.4 C 71 % -0.39 C
3848 10-03-2009 02:00:36 4.5 C 70 % -0.48 C
3849 10-03-2009 02:12:36 4.4 C 71 % -0.39 C
3850 10-03-2009 02:24:36 4.6 C 69 % -0.58 C
Sensor: Nr:Datum:Temp:Feuchte:Taupunkt:
Aussen-T/F 3851 10-03-2009 02:36:36 4.7 C 67 % -0.89 C
3852 10-03-2009 02:48:36 4.7 C 66 % -1.1 C
3853 10-03-2009 03:00:36 4.7 C 66 % -1.1 C
3854 10-03-2009 03:12:36 4.5 C 67 % -1.08 C
3855 10-03-2009 03:24:36 4.5 C 67 % -1.08 C
3856 10-03-2009 03:36:36 4.5 C 67 % -1.08 C
3857 10-03-2009 03:48:36 4.5 C 68 % -0.88 C
3858 10-03-2009 04:00:36 4.6 C 67 % -0.99 C
3859 10-03-2009 04:12:36 4.5 C 67 % -1.08 C
3860 10-03-2009 04:24:36 4.6 C 67 % -0.99 C
3861 10-03-2009 04:36:36 4.5 C 67 % -1.08 C
3862 10-03-2009 04:48:36 4.4 C 68 % -0.98 C
3863 10-03-2009 05:00:36 4.4 C 67 % -1.18 C
3864 10-03-2009 05:12:37 4.4 C 68 % -0.98 C
3865 10-03-2009 05:24:37 4.4 C 68 % -0.98 C
3866 10-03-2009 05:36:37 4.3 C 69 % -0.87 C
3867 10-03-2009 05:48:37 4.3 C 70 % -0.68 C
3868 10-03-2009 06:00:37 4.3 C 71 % -0.48 C
3869 10-03-2009 06:12:37 4.1 C 72 % -0.48 C
3870 10-03-2009 06:24:37 4.2 C 72 % -0.39 C
3871 10-03-2009 06:36:37 4.2 C 72 % -0.39 C
3872 10-03-2009 06:48:37 4.3 C 72 % -0.29 C
3873 10-03-2009 07:00:35 4.3 C 71 % -0.48 C
3874 10-03-2009 07:12:35 4.3 C 71 % -0.48 C
3875 10-03-2009 07:24:34 4.2 C 72 % -0.39 C
Sensor: Nr:Datum:Temp:Feuchte:Taupunkt:
Aussen-T/F 3876 10-03-2009 07:36:35 4.2 C 72 % -0.39 C
3877 10-03-2009 07:48:34 4.3 C 73 % -0.1 C
3878 10-03-2009 08:00:34 4.5 C 72 % -0.1 C
3879 10-03-2009 08:12:34 4.7 C 71 % -0.1 C
3880 10-03-2009 08:24:35 4.8 C 71 % 0 C
3881 10-03-2009 08:36:34 4.9 C 70 % -0.1 C
3882 10-03-2009 08:48:34 5 C 69 % -0.2 C
3883 10-03-2009 09:00:33 5 C 69 % -0.2 C
3884 10-03-2009 09:12:33 5.2 C 69 % -0.01 C
3885 10-03-2009 09:24:34 5.2 C 68 % -0.21 C
3886 10-03-2009 09:36:34 5.3 C 67 % -0.32 C
3887 10-03-2009 09:48:33 5.3 C 67 % -0.32 C
3888 10-03-2009 10:00:34 5.4 C 66 % -0.43 C
3889 10-03-2009 10:12:34 5.5 C 66 % -0.33 C
3890 10-03-2009 10:24:33 5.6 C 66 % -0.24 C
3891 10-03-2009 10:36:33 5.7 C 65 % -0.35 C
3892 10-03-2009 10:48:33 5.9 C 65 % -0.16 C
3893 10-03-2009 11:00:33 6.1 C 63 % -0.4 C
3894 10-03-2009 11:12:33 6.3 C 62 % -0.43 C
3895 10-03-2009 11:24:32 6.4 C 62 % -0.34 C
3896 10-03-2009 11:36:33